Darstellungsparameter: Aktuell verwendete Einstellungen:
Skalierung der Graphiken ... ?
xyx+y,   Skalierungsfaktor:      Skalierung: Modus: x, Faktor: 1
Darstellungszeitraum ... ?
Vom - - bis: - -   Zeitraum: 03.02.2020 - 02.03.2020
Min/Max/Avg-Anzeige ... ?
Zeige MMA aktuell
Zeige MMA Monat
Zeige MMA alles
Zeige --A aktuell
Zeige --A Monat
Zeige --A alles
Keine MMA-Anzeige
MMA:
Keine MMA-Graphiken
MMA-Basis: 03.02.2020 - 02.03.2020
Quicknavigation für Darstellung... ?
Tage:      1T, 2T, 3T, 5T -1T -2T -3T -5T +1T +2T +3T +5T
Wochen: 1W, 2W, 3W -1W -2W -3W +1W +2W +3W
Monate: 1M, 3M, 6M -1M -3M -6M +1M +3M +6M
Jahre:    1J, 3J, 5J, 10J -1J -3J -5J -10J +1J +3J +5J +10J
Nutze für die Darstellung ... ?
Originaldaten oder Mittelwerte auf ...
Stundenbasis Tagesbasis Wochenbasis
Monatsbasis Jahresbasis      Datenbasis: Original-Daten
Darstellen als:
Statistik (Auto) Statistik J:M      Darstellung:
Zur Graphik,    zurück zur Übersicht aller Sensoren.
 
Tabellarische Datenbersicht: ?
 
Sensor: Nr:Datum:Temp:Feuchte:
Aussen-T/F 1 03-02-2020 00:06:18 11.2 C 27 %
2 03-02-2020 00:16:17 11.3 C 26 %
3 03-02-2020 00:26:17 11 C 26 %
4 03-02-2020 00:36:17 10.4 C 26 %
5 03-02-2020 00:46:17 9.8 C 29 %
6 03-02-2020 00:56:17 9.6 C 30 %
7 03-02-2020 01:06:18 9.7 C 30 %
8 03-02-2020 01:16:17 9.5 C 31 %
9 03-02-2020 01:26:17 9.1 C 32 %
10 03-02-2020 01:36:17 9 C 32 %
11 03-02-2020 01:46:17 9.5 C 31 %
12 03-02-2020 01:56:17 10 C 30 %
13 03-02-2020 02:06:18 9.9 C 30 %
14 03-02-2020 02:16:17 10.3 C 30 %
15 03-02-2020 02:26:17 10.4 C 30 %
16 03-02-2020 02:36:17 10.2 C 30 %
17 03-02-2020 02:46:17 10.5 C 30 %
18 03-02-2020 02:56:17 10.3 C 30 %
19 03-02-2020 03:06:18 10.5 C 29 %
20 03-02-2020 03:16:17 10.4 C 30 %
21 03-02-2020 03:26:17 10.4 C 30 %
22 03-02-2020 03:36:17 10.4 C 30 %
23 03-02-2020 03:46:17 10.1 C 30 %
24 03-02-2020 03:56:17 10.1 C 30 %
25 03-02-2020 04:06:17 9.9 C 32 %
Sensor: Nr:Datum:Temp:Feuchte:
Aussen-T/F 26 03-02-2020 04:16:17 9.9 C 32 %
27 03-02-2020 04:26:18 9.9 C 32 %
28 03-02-2020 04:36:18 10.1 C 31 %
29 03-02-2020 04:46:17 10.1 C 31 %
30 03-02-2020 04:56:18 10.1 C 31 %
31 03-02-2020 05:06:18 10.1 C 31 %
32 03-02-2020 05:16:17 10.1 C 31 %
33 03-02-2020 05:26:17 9.8 C 32 %
34 03-02-2020 05:36:17 10.1 C 31 %
35 03-02-2020 05:46:17 9.7 C 32 %
36 03-02-2020 05:56:17 10.2 C 31 %
37 03-02-2020 06:06:17 10.4 C 31 %
38 03-02-2020 06:16:17 10.7 C 30 %
39 03-02-2020 06:26:17 10.5 C 30 %
40 03-02-2020 06:36:17 10.4 C 30 %
41 03-02-2020 06:46:17 10.2 C 30 %
42 03-02-2020 06:56:17 10.5 C 30 %
43 03-02-2020 07:06:18 10.5 C 30 %
44 03-02-2020 07:16:18 10.3 C 30 %
45 03-02-2020 07:26:18 10.3 C 30 %
46 03-02-2020 07:36:18 10 C 30 %
47 03-02-2020 07:46:18 9.9 C 31 %
48 03-02-2020 07:56:18 10 C 30 %
49 03-02-2020 08:06:17 10.1 C 30 %
50 03-02-2020 08:16:17 9.8 C 31 %
Sensor: Nr:Datum:Temp:Feuchte:
Aussen-T/F 51 03-02-2020 08:26:17 10.1 C 30 %
52 03-02-2020 08:36:17 10.1 C 30 %
53 03-02-2020 08:46:17 10 C 30 %
54 03-02-2020 08:56:17 10.4 C 30 %
55 03-02-2020 09:06:17 10.2 C 30 %
56 03-02-2020 09:16:18 9.8 C 31 %
57 03-02-2020 09:26:18 9.8 C 31 %
58 03-02-2020 09:36:17 10.2 C 30 %
59 03-02-2020 09:46:17 10.4 C 30 %
60 03-02-2020 09:56:17 10.5 C 30 %
61 03-02-2020 10:06:17 10.4 C 30 %
62 03-02-2020 10:16:17 10.4 C 30 %
63 03-02-2020 10:26:17 10.4 C 30 %
64 03-02-2020 10:36:18 11.2 C 28 %
65 03-02-2020 10:46:18 11.4 C 27 %
66 03-02-2020 10:56:18 11.7 C 27 %
67 03-02-2020 11:06:18 11.9 C 25 %
68 03-02-2020 11:16:17 12.1 C 21 %
69 03-02-2020 11:26:17 12.1 C 20 %
70 03-02-2020 11:36:17 12.1 C 20 %
71 03-02-2020 11:46:17 12.4 C 20 %
72 03-02-2020 11:56:17 12.3 C 20 %
73 03-02-2020 12:06:17 12.2 C 20 %
74 03-02-2020 12:16:17 12.3 C 20 %
75 03-02-2020 12:26:17 12.3 C 20 %
Sensor: Nr:Datum:Temp:Feuchte:
Aussen-T/F 76 03-02-2020 12:36:17 12.5 C 20 %
77 03-02-2020 12:46:18 12.5 C 20 %
78 03-02-2020 12:56:18 12.5 C 20 %
79 03-02-2020 13:06:18 12.2 C 20 %
80 03-02-2020 13:16:17 12.3 C 20 %
81 03-02-2020 13:26:17 12.1 C 20 %
82 03-02-2020 13:36:17 12.3 C 20 %
83 03-02-2020 13:46:17 12.1 C 20 %
84 03-02-2020 13:56:17 12.2 C 20 %
85 03-02-2020 14:06:18 12.5 C 20 %
86 03-02-2020 14:16:18 12.2 C 20 %
87 03-02-2020 14:26:18 11.7 C 23 %
88 03-02-2020 14:36:17 12.3 C 20 %
89 03-02-2020 14:46:17 11.9 C 23 %
90 03-02-2020 14:56:17 12 C 20 %
91 03-02-2020 15:06:17 12.1 C 20 %
92 03-02-2020 15:16:17 12.1 C 20 %
93 03-02-2020 15:26:17 12 C 20 %
94 03-02-2020 15:36:18 12 C 20 %
95 03-02-2020 15:46:18 12 C 20 %
96 03-02-2020 15:56:18 12.1 C 20 %
97 03-02-2020 16:06:17 12 C 20 %
98 03-02-2020 16:16:17 12 C 20 %
99 03-02-2020 16:26:17 11.8 C 20 %
100 03-02-2020 16:36:17 11.6 C 20 %
Sensor: Nr:Datum:Temp:Feuchte:
Aussen-T/F 101 03-02-2020 16:46:17 11.5 C 20 %
102 03-02-2020 16:56:17 11.5 C 20 %
103 03-02-2020 17:06:17 11.4 C 21 %
104 03-02-2020 17:16:18 11.3 C 21 %
105 03-02-2020 17:26:18 11 C 23 %
106 03-02-2020 17:36:17 11 C 23 %
107 03-02-2020 17:46:18 10.9 C 23 %
108 03-02-2020 17:56:18 11 C 22 %
109 03-02-2020 18:06:17 10.7 C 22 %
110 03-02-2020 18:16:17 10.5 C 23 %
111 03-02-2020 18:26:17 10.4 C 25 %
112 03-02-2020 18:36:18 10.2 C 26 %
113 03-02-2020 18:46:18 10.7 C 25 %
114 03-02-2020 18:56:18 10.4 C 25 %
115 03-02-2020 19:06:18 9.8 C 27 %
116 03-02-2020 19:16:17 8.9 C 32 %
117 03-02-2020 19:26:17 8.5 C 35 %
118 03-02-2020 19:36:17 8.2 C 38 %
119 03-02-2020 19:46:17 8.1 C 40 %
120 03-02-2020 19:56:17 7.9 C 43 %
121 03-02-2020 20:06:18 7.9 C 44 %
122 03-02-2020 20:16:17 7.9 C 44 %
123 03-02-2020 20:26:17 7.9 C 44 %
124 03-02-2020 20:36:17 8 C 43 %
125 03-02-2020 20:46:17 7.9 C 43 %
Sensor: Nr:Datum:Temp:Feuchte:
Aussen-T/F 126 03-02-2020 20:56:18 7.9 C 43 %
127 03-02-2020 21:06:18 7.8 C 44 %
128 03-02-2020 21:16:17 7.8 C 44 %
129 03-02-2020 21:26:17 7.8 C 44 %
130 03-02-2020 21:36:17 7.7 C 44 %
131 03-02-2020 21:46:17 7.7 C 43 %
132 03-02-2020 21:56:17 7.7 C 43 %
133 03-02-2020 22:06:17 7.8 C 43 %
134 03-02-2020 22:16:18 7.2 C 43 %
135 03-02-2020 22:26:18 7.2 C 43 %
136 03-02-2020 22:36:17 7.2 C 43 %
137 03-02-2020 22:46:18 7.2 C 43 %
138 03-02-2020 22:56:18 6.9 C 44 %
139 03-02-2020 23:06:18 6.9 C 44 %
140 03-02-2020 23:16:17 6.8 C 43 %
141 03-02-2020 23:26:17 6.7 C 43 %
142 03-02-2020 23:36:17 6.5 C 43 %
143 03-02-2020 23:46:17 6.3 C 43 %
144 03-02-2020 23:56:17 6.2 C 43 %
145 04-02-2020 00:06:17 5.9 C 42 %
146 04-02-2020 00:16:18 5.7 C 43 %
147 04-02-2020 00:26:18 5.5 C 44 %
148 04-02-2020 00:36:18 5.4 C 43 %
149 04-02-2020 00:46:18 5.2 C 42 %
150 04-02-2020 00:56:18 5.1 C 41 %
Sensor: Nr:Datum:Temp:Feuchte:
Aussen-T/F 151 04-02-2020 01:06:17 5.1 C 41 %
152 04-02-2020 01:16:17 5.1 C 42 %
153 04-02-2020 01:26:17 5.1 C 42 %
154 04-02-2020 01:36:17 4.9 C 40 %
155 04-02-2020 01:46:17 4.8 C 40 %
156 04-02-2020 01:56:17 4.6 C 41 %
157 04-02-2020 02:06:18 4.2 C 39 %
158 04-02-2020 02:16:17 4 C 39 %
159 04-02-2020 02:26:17 3.9 C 41 %
160 04-02-2020 02:36:17 3.9 C 41 %
161 04-02-2020 02:46:17 3.9 C 41 %
162 04-02-2020 02:56:17 3.9 C 41 %
163 04-02-2020 03:06:18 4 C 39 %
164 04-02-2020 03:16:17 3.9 C 41 %
165 04-02-2020 03:26:17 4.1 C 40 %
166 04-02-2020 03:36:17 3.7 C 41 %
167 04-02-2020 03:46:17 3.9 C 40 %
168 04-02-2020 03:56:17 4.1 C 37 %
169 04-02-2020 04:06:17 3.8 C 39 %
170 04-02-2020 04:16:17 3.7 C 39 %
171 04-02-2020 04:26:17 4 C 38 %
172 04-02-2020 04:36:18 4.2 C 38 %
173 04-02-2020 04:46:18 4.1 C 37 %
174 04-02-2020 04:56:18 3.7 C 39 %
175 04-02-2020 05:06:17 3.6 C 39 %
Sensor: Nr:Datum:Temp:Feuchte:
Aussen-T/F 176 04-02-2020 05:16:18 3.2 C 41 %
177 04-02-2020 05:26:18 3.4 C 42 %
178 04-02-2020 05:36:18 3.6 C 41 %
179 04-02-2020 05:46:17 3.8 C 38 %
180 04-02-2020 05:56:17 3.9 C 36 %
181 04-02-2020 06:06:17 4.2 C 35 %
182 04-02-2020 06:16:17 4.4 C 33 %
183 04-02-2020 06:26:17 4.6 C 33 %
184 04-02-2020 06:36:17 4.7 C 32 %
185 04-02-2020 06:46:17 4.3 C 34 %
186 04-02-2020 06:56:17 4.4 C 34 %
187 04-02-2020 07:06:18 4.7 C 33 %
188 04-02-2020 07:16:17 4.6 C 32 %
189 04-02-2020 07:26:17 4.3 C 33 %
190 04-02-2020 07:36:17 4 C 34 %
191 04-02-2020 07:46:17 3.9 C 35 %
192 04-02-2020 07:56:17 3.8 C 35 %
193 04-02-2020 08:06:17 3.6 C 35 %
194 04-02-2020 08:16:17 3.8 C 35 %
195 04-02-2020 08:26:17 3.6 C 35 %
196 04-02-2020 08:36:18 3.6 C 35 %
197 04-02-2020 08:46:18 3.8 C 35 %
198 04-02-2020 08:56:18 3.9 C 35 %
199 04-02-2020 09:06:18 4 C 34 %
200 04-02-2020 09:16:17 3.7 C 36 %
Sensor: Nr:Datum:Temp:Feuchte:
Aussen-T/F 201 04-02-2020 09:26:17 4 C 35 %
202 04-02-2020 09:36:17 4 C 34 %
203 04-02-2020 09:46:17 3.6 C 36 %
204 04-02-2020 09:56:17 3.4 C 37 %
205 04-02-2020 10:06:18 3 C 40 %
206 04-02-2020 10:16:17 3.3 C 42 %
207 04-02-2020 10:26:17 3.9 C 37 %
208 04-02-2020 10:36:17 4.1 C 35 %
209 04-02-2020 10:46:17 4.4 C 36 %
210 04-02-2020 10:56:17 4.9 C 34 %
211 04-02-2020 11:06:17 4.9 C 34 %
212 04-02-2020 11:16:18 5.3 C 32 %
213 04-02-2020 11:26:18 3.9 C 36 %
214 04-02-2020 11:36:18 4.1 C 35 %
215 04-02-2020 11:46:18 4.9 C 35 %
216 04-02-2020 11:56:18 4.6 C 35 %
217 04-02-2020 12:06:17 4.2 C 36 %
218 04-02-2020 12:16:17 3.8 C 38 %
219 04-02-2020 12:26:17 3.4 C 40 %
220 04-02-2020 12:36:18 3.9 C 38 %
221 04-02-2020 12:46:17 3.8 C 38 %
222 04-02-2020 12:56:18 4.1 C 36 %
223 04-02-2020 13:06:18 4.7 C 34 %
224 04-02-2020 13:16:17 4.8 C 33 %
225 04-02-2020 13:26:17 5.2 C 31 %
Sensor: Nr:Datum:Temp:Feuchte:
Aussen-T/F 226 04-02-2020 13:36:17 5.3 C 31 %
227 04-02-2020 13:46:17 5.6 C 30 %
228 04-02-2020 13:56:17 5.7 C 30 %
229 04-02-2020 14:06:18 5.9 C 30 %
230 04-02-2020 14:16:17 6.1 C 27 %
231 04-02-2020 14:26:17 6.4 C 27 %
232 04-02-2020 14:36:17 6 C 27 %
233 04-02-2020 14:46:18 6.5 C 26 %
234 04-02-2020 14:56:18 6.5 C 27 %
235 04-02-2020 15:06:17 5.9 C 27 %
236 04-02-2020 15:16:17 5.1 C 29 %
237 04-02-2020 15:26:17 4.8 C 30 %
238 04-02-2020 15:36:18 4.4 C 32 %
239 04-02-2020 15:46:18 4.4 C 33 %
240 04-02-2020 15:56:18 4.5 C 33 %
241 04-02-2020 16:06:17 4.5 C 33 %
242 04-02-2020 16:16:17 4.5 C 33 %
243 04-02-2020 16:26:17 4.8 C 33 %
244 04-02-2020 16:36:17 4.8 C 33 %
245 04-02-2020 16:46:17 4.9 C 33 %
246 04-02-2020 16:56:18 4.4 C 33 %
247 04-02-2020 17:06:17 4.3 C 34 %
248 04-02-2020 17:16:17 4 C 35 %
249 04-02-2020 17:26:17 4 C 36 %
250 04-02-2020 17:36:17 4 C 36 %
Sensor: Nr:Datum:Temp:Feuchte:
Aussen-T/F 251 04-02-2020 17:46:17 4.2 C 35 %
252 04-02-2020 17:56:17 4 C 35 %
253 04-02-2020 18:06:18 3.8 C 37 %
254 04-02-2020 18:16:17 3.9 C 37 %
255 04-02-2020 18:26:17 4.1 C 35 %
256 04-02-2020 18:36:17 4.1 C 35 %
257 04-02-2020 18:46:17 4.3 C 35 %
258 04-02-2020 18:56:17 4.3 C 35 %
259 04-02-2020 19:06:18 4.4 C 35 %
260 04-02-2020 19:16:18 4.3 C 35 %
261 04-02-2020 19:26:18 4 C 37 %
262 04-02-2020 19:36:17 3.9 C 39 %
263 04-02-2020 19:46:18 3.8 C 40 %
264 04-02-2020 19:56:18 3.9 C 38 %
265 04-02-2020 20:06:17 4 C 37 %
266 04-02-2020 20:16:17 3.9 C 39 %
267 04-02-2020 20:26:17 3.8 C 39 %
268 04-02-2020 20:36:17 3.8 C 39 %
269 04-02-2020 20:46:17 3.9 C 39 %
270 04-02-2020 20:56:17 3.9 C 39 %
271 04-02-2020 21:06:18 4 C 38 %
272 04-02-2020 21:16:18 4 C 38 %
273 04-02-2020 21:26:18 4 C 38 %
274 04-02-2020 21:36:17 3.8 C 39 %
275 04-02-2020 21:46:17 3.8 C 40 %
Sensor: Nr:Datum:Temp:Feuchte:
Aussen-T/F 276 04-02-2020 21:56:17 3.8 C 40 %
277 04-02-2020 22:06:17 3.8 C 40 %
278 04-02-2020 22:16:17 4 C 40 %
279 04-02-2020 22:26:17 4 C 39 %
280 04-02-2020 22:36:18 3.8 C 39 %
281 04-02-2020 22:46:18 3.5 C 40 %
282 04-02-2020 22:56:18 3.6 C 40 %
283 04-02-2020 23:06:17 3.7 C 40 %
284 04-02-2020 23:16:17 3.7 C 40 %
285 04-02-2020 23:26:17 4.1 C 37 %
286 04-02-2020 23:36:18 4.1 C 36 %
287 04-02-2020 23:46:17 4.1 C 36 %
288 04-02-2020 23:56:17 4.1 C 37 %
289 05-02-2020 00:06:17 4.2 C 36 %
290 05-02-2020 00:16:17 4 C 37 %
291 05-02-2020 00:26:17 4 C 37 %
292 05-02-2020 00:36:18 4.2 C 36 %
293 05-02-2020 00:46:17 4.2 C 36 %
294 05-02-2020 00:56:18 4.3 C 35 %
295 05-02-2020 01:06:18 4.4 C 35 %
296 05-02-2020 01:16:18 4.5 C 34 %
297 05-02-2020 01:26:18 4.6 C 33 %
298 05-02-2020 01:36:17 4.7 C 34 %
299 05-02-2020 01:46:18 4.7 C 33 %
300 05-02-2020 01:56:18 4.8 C 33 %
Sensor: Nr:Datum:Temp:Feuchte:
Aussen-T/F 301 05-02-2020 02:06:17 4.8 C 33 %
302 05-02-2020 02:16:17 4.8 C 34 %
303 05-02-2020 02:26:17 4.7 C 34 %
304 05-02-2020 02:36:17 4.7 C 34 %
305 05-02-2020 02:46:17 4.6 C 35 %
306 05-02-2020 02:56:17 4.6 C 35 %
307 05-02-2020 03:06:18 4.7 C 35 %
308 05-02-2020 03:16:17 4.6 C 36 %
309 05-02-2020 03:26:17 4.6 C 36 %
310 05-02-2020 03:36:18 4.5 C 36 %
311 05-02-2020 03:46:17 4.1 C 37 %
312 05-02-2020 03:56:18 3.6 C 38 %
313 05-02-2020 04:06:18 3.5 C 40 %
314 05-02-2020 04:16:18 3.8 C 40 %
315 05-02-2020 04:26:18 3.6 C 39 %
316 05-02-2020 04:36:17 3.6 C 38 %
317 05-02-2020 04:46:17 3.5 C 39 %
318 05-02-2020 04:56:17 3.3 C 38 %
319 05-02-2020 05:06:18 3.4 C 39 %
320 05-02-2020 05:16:18 2.6 C 40 %
321 05-02-2020 05:26:18 3.1 C 41 %
322 05-02-2020 05:36:18 2.6 C 41 %
323 05-02-2020 05:46:18 2.8 C 41 %
324 05-02-2020 05:56:18 3 C 41 %
325 05-02-2020 06:06:17 3.3 C 42 %
Sensor: Nr:Datum:Temp:Feuchte:
Aussen-T/F 326 05-02-2020 06:16:17 4 C 38 %
327 05-02-2020 06:26:17 3.8 C 38 %
328 05-02-2020 06:36:18 3.7 C 38 %
329 05-02-2020 06:46:17 3.7 C 38 %
330 05-02-2020 06:56:18 3.1 C 38 %
331 05-02-2020 07:06:18 3.1 C 38 %
332 05-02-2020 07:16:17 2.8 C 39 %
333 05-02-2020 07:26:17 2.5 C 39 %
334 05-02-2020 07:36:17 2.5 C 40 %
335 05-02-2020 07:46:17 2.6 C 40 %
336 05-02-2020 07:56:17 2.6 C 40 %
337 05-02-2020 08:06:18 2.3 C 40 %
338 05-02-2020 08:16:17 2 C 41 %
339 05-02-2020 08:26:17 1.7 C 43 %
340 05-02-2020 08:36:17 1.6 C 43 %
341 05-02-2020 08:46:17 1.6 C 43 %
342 05-02-2020 08:56:17 1.5 C 44 %
343 05-02-2020 09:06:17 1.4 C 45 %
344 05-02-2020 09:16:17 2 C 44 %
345 05-02-2020 09:26:17 2 C 42 %
346 05-02-2020 09:36:18 2 C 42 %
347 05-02-2020 09:46:18 2.7 C 42 %
348 05-02-2020 09:56:18 3.6 C 39 %
349 05-02-2020 10:06:17 4 C 40 %
350 05-02-2020 10:16:17 4.3 C 37 %
Sensor: Nr:Datum:Temp:Feuchte:
Aussen-T/F 351 05-02-2020 10:26:17 4.4 C 32 %
352 05-02-2020 10:36:17 4.7 C 31 %
353 05-02-2020 10:46:17 5 C 31 %
354 05-02-2020 10:56:17 5.1 C 30 %
355 05-02-2020 11:06:17 4.9 C 31 %
356 05-02-2020 11:16:17 5 C 30 %
357 05-02-2020 11:26:17 5.2 C 30 %
358 05-02-2020 11:36:17 5.1 C 30 %
359 05-02-2020 11:46:17 5.2 C 30 %
360 05-02-2020 11:56:17 5.3 C 30 %
361 05-02-2020 12:06:17 5.7 C 30 %
362 05-02-2020 12:16:17 5.9 C 29 %
363 05-02-2020 12:26:17 5.8 C 29 %
364 05-02-2020 12:36:18 5.6 C 28 %
365 05-02-2020 12:46:17 5.5 C 29 %
366 05-02-2020 12:56:17 5.9 C 28 %
367 05-02-2020 13:06:17 5.4 C 28 %
368 05-02-2020 13:16:17 5.3 C 28 %
369 05-02-2020 13:26:17 5.8 C 28 %
370 05-02-2020 13:36:18 5.8 C 27 %
371 05-02-2020 13:46:18 5.9 C 27 %
372 05-02-2020 13:56:18 5.9 C 27 %
373 05-02-2020 14:06:17 5.8 C 27 %
374 05-02-2020 14:16:18 5.6 C 27 %
375 05-02-2020 14:26:18 5.7 C 27 %
Sensor: Nr:Datum:Temp:Feuchte:
Aussen-T/F 376 05-02-2020 14:36:17 6 C 28 %
377 05-02-2020 14:46:17 7.7 C 26 %
378 05-02-2020 14:56:17 7.1 C 25 %
379 05-02-2020 15:06:17 6.9 C 25 %
380 05-02-2020 15:16:17 7.3 C 25 %
381 05-02-2020 15:26:17 5.7 C 27 %
382 05-02-2020 15:36:17 6.9 C 25 %
383 05-02-2020 15:46:17 6.4 C 27 %
384 05-02-2020 15:56:17 5 C 29 %
385 05-02-2020 16:06:17 5.8 C 28 %
386 05-02-2020 16:16:17 6.2 C 27 %
387 05-02-2020 16:26:17 6.8 C 26 %
388 05-02-2020 16:36:18 4.8 C 30 %
389 05-02-2020 16:46:18 3.8 C 33 %
390 05-02-2020 16:56:18 3.7 C 35 %
391 05-02-2020 17:06:17 3.4 C 35 %
392 05-02-2020 17:16:17 3.4 C 35 %
393 05-02-2020 17:26:17 3.2 C 35 %
394 05-02-2020 17:36:18 3.1 C 35 %
395 05-02-2020 17:46:18 2.6 C 36 %
396 05-02-2020 17:56:18 2.4 C 36 %
397 05-02-2020 18:06:17 2.3 C 37 %
398 05-02-2020 18:16:17 2.1 C 37 %
399 05-02-2020 18:26:17 1.8 C 39 %
400 05-02-2020 18:36:17 1.3 C 40 %
Sensor: Nr:Datum:Temp:Feuchte:
Aussen-T/F 401 05-02-2020 18:46:17 0.5 C 42 %
402 05-02-2020 18:56:17 0.8 C 46 %
403 05-02-2020 19:06:18 0.1 C 45 %
404 05-02-2020 19:16:18 -0.1 C 45 %
405 05-02-2020 19:26:18 -0.1 C 46 %
406 05-02-2020 19:36:18 -0.4 C 46 %
407 05-02-2020 19:46:17 -0.5 C 46 %
408 05-02-2020 19:56:18 -0.7 C 46 %
409 05-02-2020 20:06:18 -0.7 C 46 %
410 05-02-2020 20:16:17 -0.7 C 46 %
411 05-02-2020 20:26:17 -0.9 C 46 %
412 05-02-2020 20:36:17 -0.5 C 46 %
413 05-02-2020 20:46:17 -0.7 C 46 %
414 05-02-2020 20:56:17 -0.8 C 46 %
415 05-02-2020 21:06:17 -1 C 46 %
416 05-02-2020 21:16:17 -0.7 C 47 %
417 05-02-2020 21:26:17 -1 C 46 %
418 05-02-2020 21:36:18 -1.3 C 46 %
419 05-02-2020 21:46:18 -1.4 C 46 %
420 05-02-2020 21:56:18 -1.3 C 46 %
421 05-02-2020 22:06:18 -1.5 C 46 %
422 05-02-2020 22:16:17 -1.4 C 47 %
423 05-02-2020 22:26:17 -1.4 C 46 %
424 05-02-2020 22:36:17 -1.5 C 47 %
425 05-02-2020 22:46:17 -1.4 C 47 %
Sensor: Nr:Datum:Temp:Feuchte:
Aussen-T/F 426 05-02-2020 22:56:17 -1.5 C 46 %
427 05-02-2020 23:06:17 -1.2 C 47 %
428 05-02-2020 23:16:17 -1.1 C 47 %
429 05-02-2020 23:26:17 -1.2 C 46 %
430 05-02-2020 23:36:17 -1.4 C 46 %
431 05-02-2020 23:46:17 -1.4 C 46 %
432 05-02-2020 23:56:17 -1.6 C 46 %
433 06-02-2020 00:06:17 -1.6 C 46 %
434 06-02-2020 00:16:17 -1.6 C 46 %
435 06-02-2020 00:26:17 -1.4 C 47 %
436 06-02-2020 00:36:17 -1.8 C 46 %
437 06-02-2020 00:46:17 -1.3 C 47 %
438 06-02-2020 00:56:17 -1.5 C 46 %
439 06-02-2020 01:06:17 -1.4 C 46 %
440 06-02-2020 01:16:17 -1.1 C 47 %
441 06-02-2020 01:26:17 -0.9 C 47 %
442 06-02-2020 01:36:18 -1.2 C 46 %
443 06-02-2020 01:46:18 -1.2 C 46 %
444 06-02-2020 01:56:18 -1.1 C 46 %
445 06-02-2020 02:06:18 -1.1 C 46 %
446 06-02-2020 02:16:17 -1.1 C 46 %
447 06-02-2020 02:26:17 -1.3 C 46 %
448 06-02-2020 02:36:17 -1.3 C 46 %
449 06-02-2020 02:46:17 -1.4 C 46 %
450 06-02-2020 02:56:17 -1.6 C 46 %
Sensor: Nr:Datum:Temp:Feuchte:
Aussen-T/F 451 06-02-2020 03:06:17 -1.5 C 46 %
452 06-02-2020 03:16:18 -1.6 C 46 %
453 06-02-2020 03:26:18 -1.8 C 46 %
454 06-02-2020 03:36:17 -1.9 C 46 %
455 06-02-2020 03:46:17 -1.8 C 46 %
456 06-02-2020 03:56:17 -2.2 C 46 %
457 06-02-2020 04:06:17 -1.8 C 46 %
458 06-02-2020 04:16:17 -2 C 46 %
459 06-02-2020 04:26:17 -1.7 C 46 %
460 06-02-2020 04:36:18 -1.6 C 46 %
461 06-02-2020 04:46:18 -1.7 C 46 %
462 06-02-2020 04:56:18 -1.6 C 46 %
463 06-02-2020 05:06:17 -1.7 C 46 %
464 06-02-2020 05:16:18 -1.6 C 46 %
465 06-02-2020 05:26:18 -1.6 C 46 %
466 06-02-2020 05:36:18 -2.2 C 46 %
467 06-02-2020 05:46:18 -2.4 C 46 %
468 06-02-2020 05:56:18 -2.3 C 46 %
469 06-02-2020 06:06:18 -2.2 C 46 %
470 06-02-2020 06:16:18 -2.1 C 46 %
471 06-02-2020 06:26:18 -2.3 C 46 %
472 06-02-2020 06:36:17 -2.5 C 46 %
473 06-02-2020 06:46:17 -2.1 C 46 %
474 06-02-2020 06:56:17 -2.5 C 46 %
475 06-02-2020 07:06:17 -2.6 C 46 %
Sensor: Nr:Datum:Temp:Feuchte:
Aussen-T/F 476 06-02-2020 07:16:17 -2.6 C 46 %
477 06-02-2020 07:26:17 -2.6 C 46 %
478 06-02-2020 07:36:17 -2.8 C 45 %
479 06-02-2020 07:46:17 -2.5 C 45 %
480 06-02-2020 07:56:17 -2.1 C 46 %
481 06-02-2020 08:06:17 -1.9 C 46 %
482 06-02-2020 08:16:17 -2 C 46 %
483 06-02-2020 08:26:17 -1.8 C 46 %
484 06-02-2020 08:36:18 -1.9 C 46 %
485 06-02-2020 08:46:17 -1.5 C 47 %
486 06-02-2020 08:56:18 -1.3 C 47 %
487 06-02-2020 09:06:17 -1.3 C 47 %
488 06-02-2020 09:16:17 -1.3 C 47 %
489 06-02-2020 09:26:17 -1 C 47 %
490 06-02-2020 09:36:17 -0.8 C 47 %
491 06-02-2020 09:46:17 -0.9 C 47 %
492 06-02-2020 09:56:17 -0.9 C 46 %
493 06-02-2020 10:06:17 -0.7 C 46 %
494 06-02-2020 10:16:18 -0.5 C 47 %
495 06-02-2020 10:26:18 -0.4 C 46 %
496 06-02-2020 10:36:18 -0.3 C 46 %
497 06-02-2020 10:46:18 -0.3 C 45 %
498 06-02-2020 10:56:18 -0.3 C 45 %
499 06-02-2020 11:06:17 -0.3 C 45 %
500 06-02-2020 11:16:17 0 C 45 %
Sensor: Nr:Datum:Temp:Feuchte:
Aussen-T/F 501 06-02-2020 11:26:17 0.3 C 45 %
502 06-02-2020 11:36:17 0.7 C 45 %
503 06-02-2020 11:46:17 1.2 C 44 %
504 06-02-2020 11:56:18 1.4 C 43 %
505 06-02-2020 12:06:18 2.1 C 40 %
506 06-02-2020 12:16:17 2.9 C 40 %
507 06-02-2020 12:26:17 3.2 C 39 %
508 06-02-2020 12:36:17 3.5 C 37 %
509 06-02-2020 12:46:17 3.2 C 37 %
510 06-02-2020 12:56:17 3.4 C 37 %
511 06-02-2020 13:06:17 3.9 C 37 %
512 06-02-2020 13:16:17 3.9 C 37 %
513 06-02-2020 13:26:17 4 C 37 %
514 06-02-2020 13:36:17 3.7 C 36 %
515 06-02-2020 13:46:17 4.5 C 36 %
516 06-02-2020 13:56:17 4.9 C 36 %
517 06-02-2020 14:06:17 5.1 C 36 %
518 06-02-2020 14:16:18 5.4 C 35 %
519 06-02-2020 14:26:18 4.9 C 35 %
520 06-02-2020 14:36:17 5.1 C 35 %
521 06-02-2020 14:46:17 5.1 C 33 %
522 06-02-2020 14:56:17 5.6 C 34 %
523 06-02-2020 15:06:17 5.6 C 32 %
524 06-02-2020 15:16:18 5.2 C 31 %
525 06-02-2020 15:26:18 5.2 C 31 %
Sensor: Nr:Datum:Temp:Feuchte:
Aussen-T/F 526 06-02-2020 15:36:17 5.4 C 31 %
527 06-02-2020 15:46:17 5.6 C 31 %
528 06-02-2020 15:56:17 5.5 C 30 %
529 06-02-2020 16:06:17 5.6 C 29 %
530 06-02-2020 16:16:17 5.4 C 28 %
531 06-02-2020 16:26:17 7.4 C 23 %
532 06-02-2020 16:36:17 6.7 C 25 %
533 06-02-2020 16:46:17 4.8 C 30 %
534 06-02-2020 16:56:17 3.9 C 33 %
535 06-02-2020 17:06:18 3.3 C 35 %
536 06-02-2020 17:16:18 3 C 35 %
537 06-02-2020 17:26:18 2.7 C 36 %
538 06-02-2020 17:36:17 2.2 C 36 %
539 06-02-2020 17:46:17 2 C 37 %
540 06-02-2020 17:56:18 1.7 C 38 %
541 06-02-2020 18:06:18 1.6 C 38 %
542 06-02-2020 18:16:17 1.3 C 38 %
543 06-02-2020 18:26:17 1.2 C 40 %
544 06-02-2020 18:36:18 1 C 40 %
545 06-02-2020 18:46:17 1.2 C 40 %
546 06-02-2020 18:56:17 0.4 C 42 %
547 06-02-2020 19:06:17 0.1 C 45 %
548 06-02-2020 19:16:17 0.2 C 45 %
549 06-02-2020 19:26:17 -0.5 C 45 %
550 06-02-2020 19:36:17 -0.6 C 46 %
Sensor: Nr:Datum:Temp:Feuchte:
Aussen-T/F 551 06-02-2020 19:46:17 -0.9 C 46 %
552 06-02-2020 19:56:18 -1 C 46 %
553 06-02-2020 20:06:18 -1.3 C 46 %
554 06-02-2020 20:16:17 -1.4 C 47 %
555 06-02-2020 20:26:17 -1.6 C 46 %
556 06-02-2020 20:36:18 -1.6 C 46 %
557 06-02-2020 20:46:17 -1.7 C 46 %
558 06-02-2020 20:56:17 -1.8 C 46 %
559 06-02-2020 21:06:17 -1.9 C 46 %
560 06-02-2020 21:16:17 -2 C 46 %
561 06-02-2020 21:26:17 -2.1 C 46 %
562 06-02-2020 21:36:17 -2 C 47 %
563 06-02-2020 21:46:17 -2.3 C 46 %
564 06-02-2020 21:56:17 -2.3 C 46 %
565 06-02-2020 22:06:17 -2.1 C 46 %
566 06-02-2020 22:16:17 -2.2 C 46 %
567 06-02-2020 22:26:17 -2.3 C 46 %
568 06-02-2020 22:36:18 -2.5 C 46 %
569 06-02-2020 22:46:17 -2.5 C 46 %
570 06-02-2020 22:56:17 -2.6 C 46 %
571 06-02-2020 23:06:17 -2.6 C 46 %
572 06-02-2020 23:16:17 -2.7 C 46 %
573 06-02-2020 23:26:17 -2.4 C 46 %
574 06-02-2020 23:36:17 -2.5 C 46 %
575 06-02-2020 23:46:18 -2.5 C 46 %
Sensor: Nr:Datum:Temp:Feuchte:
Aussen-T/F 576 06-02-2020 23:56:18 -2.6 C 46 %
577 07-02-2020 00:06:18 -2.9 C 46 %
578 07-02-2020 00:16:17 -3 C 46 %
579 07-02-2020 00:26:17 -2.6 C 46 %
580 07-02-2020 00:36:17 -2.9 C 46 %
581 07-02-2020 00:46:17 -3 C 46 %
582 07-02-2020 00:56:17 -3 C 46 %
583 07-02-2020 01:06:17 -2.9 C 46 %
584 07-02-2020 01:16:17 -3.1 C 45 %
585 07-02-2020 01:26:17 -3.3 C 45 %
586 07-02-2020 01:36:18 -3.2 C 45 %
587 07-02-2020 01:46:17 -3 C 45 %
588 07-02-2020 01:56:17 -3 C 45 %
589 07-02-2020 02:06:18 -3 C 45 %
590 07-02-2020 02:16:18 -2.9 C 45 %
591 07-02-2020 02:26:18 -2.5 C 46 %
592 07-02-2020 02:36:18 -2.2 C 46 %
593 07-02-2020 02:46:18 -2.2 C 46 %
594 07-02-2020 02:56:18 -2.1 C 46 %
595 07-02-2020 03:06:17 -2.1 C 46 %
596 07-02-2020 03:16:17 -2 C 46 %
597 07-02-2020 03:26:17 -2 C 46 %
598 07-02-2020 03:36:17 -2.1 C 46 %
599 07-02-2020 03:46:17 -2.1 C 46 %
600 07-02-2020 03:56:17 -1.9 C 46 %
Sensor: Nr:Datum:Temp:Feuchte:
Aussen-T/F 601 07-02-2020 04:06:17 -2 C 46 %
602 07-02-2020 04:16:18 -2.1 C 46 %
603 07-02-2020 04:26:18 -2.2 C 46 %
604 07-02-2020 04:36:18 -2.2 C 46 %
605 07-02-2020 04:46:18 -2.1 C 46 %
606 07-02-2020 04:56:18 -2.1 C 46 %
607 07-02-2020 05:06:17 -2 C 46 %
608 07-02-2020 05:16:17 -2.1 C 46 %
609 07-02-2020 05:26:17 -2.2 C 46 %
610 07-02-2020 05:36:17 -2.3 C 46 %
611 07-02-2020 05:46:18 -2.3 C 46 %
612 07-02-2020 05:56:18 -2.4 C 46 %
613 07-02-2020 06:06:18 -2.4 C 46 %
614 07-02-2020 06:16:17 -2.3 C 46 %
615 07-02-2020 06:26:17 -2.5 C 46 %
616 07-02-2020 06:36:18 -2.5 C 46 %
617 07-02-2020 06:46:17 -2.4 C 46 %
618 07-02-2020 06:56:17 -2.5 C 46 %
619 07-02-2020 07:06:17 -2.6 C 46 %
620 07-02-2020 07:16:17 -2.7 C 46 %
621 07-02-2020 07:26:18 -2.5 C 46 %
622 07-02-2020 07:36:18 -2.4 C 46 %
623 07-02-2020 07:46:17 -2.5 C 46 %
624 07-02-2020 07:56:18 -2.5 C 46 %
625 07-02-2020 08:06:18 -2.5 C 46 %
Sensor: Nr:Datum:Temp:Feuchte:
Aussen-T/F 626 07-02-2020 08:16:18 -2.6 C 46 %
627 07-02-2020 08:26:18 -2.8 C 46 %
628 07-02-2020 08:36:17 -2.7 C 46 %
629 07-02-2020 08:46:17 -2.6 C 46 %
630 07-02-2020 08:56:17 -2.4 C 46 %
631 07-02-2020 09:06:17 -2.3 C 46 %
632 07-02-2020 09:16:17 -2.5 C 46 %
633 07-02-2020 09:26:17 -2.4 C 46 %
634 07-02-2020 09:36:17 -2.3 C 46 %
635 07-02-2020 09:46:17 -2.4 C 45 %
636 07-02-2020 09:56:17 -2.4 C 46 %
637 07-02-2020 10:06:18 -2.2 C 46 %
638 07-02-2020 10:16:17 -2 C 46 %
639 07-02-2020 10:26:17 -1.6 C 47 %
640 07-02-2020 10:36:17 -1.2 C 46 %
641 07-02-2020 10:46:17 -1.8 C 45 %
642 07-02-2020 10:56:17 -1.4 C 46 %
643 07-02-2020 11:06:17 -1.6 C 46 %
644 07-02-2020 11:16:18 -1.5 C 46 %
645 07-02-2020 11:26:18 -1 C 47 %
646 07-02-2020 11:36:17 -0.8 C 46 %
647 07-02-2020 11:46:17 -0.6 C 47 %
648 07-02-2020 11:56:17 -0.4 C 47 %
649 07-02-2020 12:06:17 -0.1 C 47 %
650 07-02-2020 12:16:18 0.4 C 47 %
Sensor: Nr:Datum:Temp:Feuchte:
Aussen-T/F 651 07-02-2020 12:26:18 0.4 C 46 %
652 07-02-2020 12:36:18 0.7 C 46 %
653 07-02-2020 12:46:18 0.6 C 46 %
654 07-02-2020 12:56:18 0.8 C 47 %
655 07-02-2020 13:06:18 1.2 C 46 %
656 07-02-2020 13:16:17 2.8 C 43 %
657 07-02-2020 13:26:17 2.7 C 39 %
658 07-02-2020 13:36:17 3 C 38 %
659 07-02-2020 13:46:17 2.7 C 38 %
660 07-02-2020 13:56:17 2.4 C 40 %
661 07-02-2020 14:06:17 2.7 C 39 %
662 07-02-2020 14:16:17 2.6 C 39 %
663 07-02-2020 14:26:17 2.8 C 39 %
664 07-02-2020 14:36:18 3.8 C 36 %
665 07-02-2020 14:46:18 5.1 C 34 %
666 07-02-2020 14:56:18 4.6 C 35 %
667 07-02-2020 15:06:18 5.8 C 33 %
668 07-02-2020 15:16:17 6 C 32 %
669 07-02-2020 15:26:17 4.8 C 32 %
670 07-02-2020 15:36:17 5.4 C 31 %
671 07-02-2020 15:46:17 5.6 C 30 %
672 07-02-2020 15:56:17 4.8 C 32 %
673 07-02-2020 16:06:18 6.2 C 30 %
674 07-02-2020 16:16:17 5.8 C 30 %
675 07-02-2020 16:26:17 5.7 C 30 %
Sensor: Nr:Datum:Temp:Feuchte:
Aussen-T/F 676 07-02-2020 16:36:18 5.1 C 30 %
677 07-02-2020 16:46:17 3.4 C 33 %
678 07-02-2020 16:56:17 3 C 35 %
679 07-02-2020 17:06:18 2.8 C 36 %
680 07-02-2020 17:16:18 2.6 C 36 %
681 07-02-2020 17:26:18 2.6 C 36 %
682 07-02-2020 17:36:18 2 C 37 %
683 07-02-2020 17:46:18 1.8 C 38 %
684 07-02-2020 17:56:18 1.8 C 38 %
685 07-02-2020 18:06:18 1.6 C 38 %
686 07-02-2020 18:16:17 1.5 C 38 %
687 07-02-2020 18:26:17 1.4 C 38 %
688 07-02-2020 18:36:17 1.1 C 39 %
689 07-02-2020 18:46:17 1.2 C 39 %
690 07-02-2020 18:56:18 0.9 C 40 %
691 07-02-2020 19:06:17 1.2 C 40 %
692 07-02-2020 19:16:18 1 C 40 %
693 07-02-2020 19:26:18 0.6 C 40 %
694 07-02-2020 19:36:18 0.6 C 41 %
695 07-02-2020 19:46:17 0.1 C 41 %
696 07-02-2020 19:56:17 0.3 C 42 %
697 07-02-2020 20:06:18 0.2 C 42 %
698 07-02-2020 20:16:18 0.2 C 43 %
699 07-02-2020 20:26:18 0.1 C 43 %
700 07-02-2020 20:36:18 0.1 C 42 %
Sensor: Nr:Datum:Temp:Feuchte:
Aussen-T/F 701 07-02-2020 20:46:18 0 C 42 %
702 07-02-2020 20:56:18 0.1 C 43 %
703 07-02-2020 21:06:18 -0.2 C 42 %
704 07-02-2020 21:16:18 0.3 C 43 %
705 07-02-2020 21:26:18 0.3 C 42 %
706 07-02-2020 21:36:18 0.3 C 43 %
707 07-02-2020 21:46:18 0 C 42 %
708 07-02-2020 21:56:18 0.1 C 43 %
709 07-02-2020 22:06:18 -0.5 C 42 %
710 07-02-2020 22:16:17 -0.4 C 44 %
711 07-02-2020 22:26:17 -0.1 C 45 %
712 07-02-2020 22:36:18 -0.7 C 43 %
713 07-02-2020 22:46:18 -0.3 C 44 %
714 07-02-2020 22:56:18 -0.3 C 43 %
715 07-02-2020 23:06:18 -0.3 C 44 %
716 07-02-2020 23:16:17 -1.3 C 42 %
717 07-02-2020 23:26:17 -0.6 C 46 %
718 07-02-2020 23:36:18 -1 C 45 %
719 07-02-2020 23:46:18 -0.7 C 46 %
720 07-02-2020 23:56:18 -0.7 C 46 %
721 08-02-2020 00:06:18 -1.2 C 44 %
722 08-02-2020 00:16:18 -1 C 45 %
723 08-02-2020 00:26:18 -1.4 C 45 %
724 08-02-2020 00:36:18 -0.9 C 46 %
725 08-02-2020 00:46:17 -1.7 C 44 %
Sensor: Nr:Datum:Temp:Feuchte:
Aussen-T/F 726 08-02-2020 00:56:17 -1.9 C 45 %
727 08-02-2020 01:06:18 -2.2 C 45 %
728 08-02-2020 01:16:17 -2.3 C 46 %
729 08-02-2020 01:26:18 -2.3 C 46 %
730 08-02-2020 01:36:17 -2.5 C 46 %
731 08-02-2020 01:46:17 -2.2 C 46 %
732 08-02-2020 01:56:17 -2.5 C 46 %
733 08-02-2020 02:06:18 -2.3 C 46 %
734 08-02-2020 02:16:17 -2.4 C 46 %
735 08-02-2020 02:26:17 -2.4 C 46 %
736 08-02-2020 02:36:18 -2.5 C 46 %
737 08-02-2020 02:46:18 -2.4 C 47 %
738 08-02-2020 02:56:18 -2.7 C 46 %
739 08-02-2020 03:06:18 -2.5 C 47 %
740 08-02-2020 03:16:18 -2.5 C 46 %
741 08-02-2020 03:26:18 -2.7 C 46 %
742 08-02-2020 03:36:18 -2.8 C 46 %
743 08-02-2020 03:46:18 -2.8 C 46 %
744 08-02-2020 03:56:18 -2.6 C 46 %
745 08-02-2020 04:06:18 -2.7 C 46 %
746 08-02-2020 04:16:18 -3 C 45 %
747 08-02-2020 04:26:18 -2.8 C 46 %
748 08-02-2020 04:36:18 -2.6 C 46 %
749 08-02-2020 04:46:18 -2.2 C 46 %
750 08-02-2020 04:56:18 -2.6 C 46 %
Sensor: Nr:Datum:Temp:Feuchte:
Aussen-T/F 751 08-02-2020 05:06:18 -2.6 C 46 %
752 08-02-2020 05:16:18 -2.7 C 46 %
753 08-02-2020 05:26:18 -2.6 C 46 %
754 08-02-2020 05:36:18 -2.7 C 46 %
755 08-02-2020 05:46:18 -2.6 C 46 %
756 08-02-2020 05:56:18 -2.6 C 46 %
757 08-02-2020 06:06:18 -2.5 C 46 %
758 08-02-2020 06:16:18 -2.5 C 46 %
759 08-02-2020 06:26:18 -2.6 C 46 %
760 08-02-2020 06:36:18 -2.7 C 46 %
761 08-02-2020 06:46:18 -2.3 C 46 %
762 08-02-2020 06:56:18 -2.1 C 46 %
763 08-02-2020 07:06:18 -2.1 C 46 %
764 08-02-2020 07:16:18 -2.4 C 46 %
765 08-02-2020 07:26:18 -2.2 C 46 %
766 08-02-2020 07:36:18 -2.1 C 46 %
767 08-02-2020 07:46:18 -2 C 46 %
768 08-02-2020 07:56:18 -1.8 C 47 %
769 08-02-2020 08:06:18 -1.7 C 46 %
770 08-02-2020 08:16:18 -1.8 C 46 %
771 08-02-2020 08:26:18 -1.8 C 46 %
772 08-02-2020 08:36:18 -1.5 C 46 %
773 08-02-2020 08:46:18 -1.2 C 47 %
774 08-02-2020 08:56:18 -1 C 47 %
775 08-02-2020 09:06:18 -0.8 C 47 %
Sensor: Nr:Datum:Temp:Feuchte:
Aussen-T/F 776 08-02-2020 09:16:18 -0.5 C 47 %
777 08-02-2020 09:26:18 -0.2 C 47 %
778 08-02-2020 09:36:18 0 C 47 %
779 08-02-2020 09:46:18 0.1 C 46 %
780 08-02-2020 09:56:18 0.3 C 46 %
781 08-02-2020 10:06:18 0.6 C 45 %
782 08-02-2020 10:16:18 0.7 C 44 %
783 08-02-2020 10:26:18 1 C 43 %
784 08-02-2020 10:36:18 1.3 C 44 %
785 08-02-2020 10:46:18 1.3 C 43 %
786 08-02-2020 10:56:18 1.6 C 44 %
787 08-02-2020 11:06:18 1.5 C 42 %
788 08-02-2020 11:16:17 1.7 C 42 %
789 08-02-2020 11:26:17 1.7 C 42 %
790 08-02-2020 11:36:17 1.9 C 42 %
791 08-02-2020 11:46:17 2 C 42 %
792 08-02-2020 11:56:17 2.4 C 45 %
793 08-02-2020 12:06:17 2.3 C 42 %
794 08-02-2020 12:16:18 2.4 C 40 %
795 08-02-2020 12:26:18 2.9 C 41 %
796 08-02-2020 12:36:18 2.7 C 40 %
797 08-02-2020 12:46:17 2.7 C 40 %
798 08-02-2020 12:56:18 2.8 C 41 %
799 08-02-2020 13:06:18 3.1 C 41 %
800 08-02-2020 13:16:18 3.3 C 41 %
Sensor: Nr:Datum:Temp:Feuchte:
Aussen-T/F 801 08-02-2020 13:26:18 3.4 C 42 %
802 08-02-2020 13:36:17 3.6 C 43 %
803 08-02-2020 13:46:18 3.5 C 37 %
804 08-02-2020 13:56:18 3.6 C 37 %
805 08-02-2020 14:06:17 4.3 C 36 %
806 08-02-2020 14:16:17 4.4 C 35 %
807 08-02-2020 14:26:17 4.3 C 34 %
808 08-02-2020 14:36:17 4.7 C 34 %
809 08-02-2020 14:46:17 4.8 C 34 %
810 08-02-2020 14:56:17 5.2 C 33 %
811 08-02-2020 15:06:17 5.2 C 33 %
812 08-02-2020 15:16:17 5 C 33 %
813 08-02-2020 15:26:17 5.2 C 33 %
814 08-02-2020 15:36:18 5.1 C 33 %
815 08-02-2020 15:46:17 5 C 34 %
816 08-02-2020 15:56:18 5.1 C 34 %
817 08-02-2020 16:06:18 4.7 C 35 %
818 08-02-2020 16:16:18 4.6 C 36 %
819 08-02-2020 16:26:18 4.5 C 36 %
820 08-02-2020 16:36:17 4.3 C 37 %
821 08-02-2020 16:46:17 4.3 C 37 %
822 08-02-2020 16:56:17 4.1 C 38 %
823 08-02-2020 17:06:17 4 C 38 %
824 08-02-2020 17:16:18 4 C 38 %
825 08-02-2020 17:26:18 4.1 C 39 %
Sensor: Nr:Datum:Temp:Feuchte:
Aussen-T/F 826 08-02-2020 17:36:17 4 C 39 %
827 08-02-2020 17:46:17 3.9 C 40 %
828 08-02-2020 17:56:17 3.8 C 41 %
829 08-02-2020 18:06:17 3.7 C 41 %
830 08-02-2020 18:16:18 3.7 C 41 %
831 08-02-2020 18:26:18 3.6 C 41 %
832 08-02-2020 18:36:18 3.6 C 41 %
833 08-02-2020 18:46:18 3.6 C 41 %
834 08-02-2020 18:56:18 3.6 C 40 %
835 08-02-2020 19:06:18 3.6 C 41 %
836 08-02-2020 19:16:18 3.6 C 41 %
837 08-02-2020 19:26:18 3.6 C 41 %
838 08-02-2020 19:36:17 3.7 C 42 %
839 08-02-2020 19:46:18 3.8 C 41 %
840 08-02-2020 19:56:18 3.7 C 41 %
841 08-02-2020 20:06:17 3.6 C 42 %
842 08-02-2020 20:16:17 3.5 C 42 %
843 08-02-2020 20:26:17 3.3 C 42 %
844 08-02-2020 20:36:17 3.2 C 43 %
845 08-02-2020 20:46:17 3 C 43 %
846 08-02-2020 20:56:17 2.8 C 45 %
847 08-02-2020 21:06:17 3 C 45 %
848 08-02-2020 21:16:17 2.9 C 45 %
849 08-02-2020 21:26:17 2.7 C 44 %
850 08-02-2020 21:36:17 2.6 C 45 %
Sensor: Nr:Datum:Temp:Feuchte:
Aussen-T/F 851 08-02-2020 21:46:17 2.5 C 45 %
852 08-02-2020 21:56:17 2.2 C 45 %
853 08-02-2020 22:06:18 1.9 C 45 %
854 08-02-2020 22:16:17 1.9 C 46 %
855 08-02-2020 22:26:17 1.9 C 47 %
856 08-02-2020 22:36:17 2 C 46 %
857 08-02-2020 22:46:17 2.1 C 46 %
858 08-02-2020 22:56:17 2.1 C 46 %
859 08-02-2020 23:06:17 2.5 C 46 %
860 08-02-2020 23:16:18 2.7 C 46 %
861 08-02-2020 23:26:18 2.4 C 46 %
862 08-02-2020 23:36:18 1.9 C 46 %
863 08-02-2020 23:46:17 2.2 C 46 %
864 08-02-2020 23:56:17 2.5 C 46 %
865 09-02-2020 00:06:17 2.7 C 46 %
866 09-02-2020 00:16:18 2.6 C 46 %
867 09-02-2020 00:26:18 2.7 C 46 %
868 09-02-2020 00:36:18 2.8 C 46 %
869 09-02-2020 00:46:18 2.8 C 46 %
870 09-02-2020 00:56:18 2.8 C 45 %
871 09-02-2020 01:06:18 2.8 C 45 %
872 09-02-2020 01:16:18 2.2 C 44 %
873 09-02-2020 01:26:18 2.1 C 45 %
874 09-02-2020 01:36:17 1.6 C 45 %
875 09-02-2020 01:46:18 1.6 C 46 %
Sensor: Nr:Datum:Temp:Feuchte:
Aussen-T/F 876 09-02-2020 01:56:18 1.5 C 46 %
877 09-02-2020 02:06:18 1.3 C 46 %
878 09-02-2020 02:16:18 1.9 C 47 %
879 09-02-2020 02:26:18 2.2 C 46 %
880 09-02-2020 02:36:18 2.3 C 46 %
881 09-02-2020 02:46:17 2.3 C 46 %
882 09-02-2020 02:56:17 2.3 C 46 %
883 09-02-2020 03:06:17 1.8 C 46 %
884 09-02-2020 03:16:17 1.3 C 45 %
885 09-02-2020 03:26:17 0.9 C 47 %
886 09-02-2020 03:36:17 1.2 C 47 %
887 09-02-2020 03:46:17 0.9 C 47 %
888 09-02-2020 03:56:17 0.8 C 47 %
889 09-02-2020 04:06:18 1.5 C 47 %
890 09-02-2020 04:16:18 2 C 46 %
891 09-02-2020 04:26:18 2.1 C 46 %
892 09-02-2020 04:36:17 2 C 46 %
893 09-02-2020 04:46:18 2.1 C 46 %
894 09-02-2020 04:56:18 2.3 C 46 %
895 09-02-2020 05:06:18 2.4 C 46 %
896 09-02-2020 05:16:17 2.4 C 46 %
897 09-02-2020 05:26:17 2.8 C 46 %
898 09-02-2020 05:36:17 2.9 C 45 %
899 09-02-2020 05:46:17 2.7 C 45 %
900 09-02-2020 05:56:17 2.8 C 45 %
Sensor: Nr:Datum:Temp:Feuchte:
Aussen-T/F 901 09-02-2020 06:06:18 2.5 C 45 %
902 09-02-2020 06:16:18 2.1 C 44 %
903 09-02-2020 06:26:18 1.7 C 45 %
904 09-02-2020 06:36:18 1.5 C 46 %
905 09-02-2020 06:46:18 2 C 46 %
906 09-02-2020 06:56:18 2.2 C 46 %
907 09-02-2020 07:06:18 2.3 C 46 %
908 09-02-2020 07:16:17 2.5 C 46 %
909 09-02-2020 07:26:17 3.7 C 46 %
910 09-02-2020 07:36:18 4.2 C 45 %
911 09-02-2020 07:46:18 5.2 C 44 %
912 09-02-2020 07:56:18 5.6 C 44 %
913 09-02-2020 08:06:18 5.3 C 42 %
914 09-02-2020 08:16:17 6 C 40 %
915 09-02-2020 08:26:17 8 C 35 %
916 09-02-2020 08:36:17 8.7 C 33 %
917 09-02-2020 08:46:17 8.6 C 33 %
918 09-02-2020 08:56:17 9 C 32 %
919 09-02-2020 09:06:18 9.6 C 32 %
920 09-02-2020 09:16:18 10.1 C 30 %
921 09-02-2020 09:26:18 10.4 C 30 %
922 09-02-2020 09:36:17 10.4 C 30 %
923 09-02-2020 09:46:18 10.2 C 30 %
924 09-02-2020 09:56:18 10 C 30 %
925 09-02-2020 10:06:17 10.2 C 30 %
Sensor: Nr:Datum:Temp:Feuchte:
Aussen-T/F 926 09-02-2020 10:16:17 10.5 C 30 %
927 09-02-2020 10:26:18 10.6 C 29 %
928 09-02-2020 10:36:18 10.8 C 28 %
929 09-02-2020 10:46:17 10.8 C 28 %
930 09-02-2020 10:56:18 11 C 28 %
931 09-02-2020 11:06:18 11.2 C 26 %
932 09-02-2020 11:16:18 11.6 C 26 %
933 09-02-2020 11:26:18 12.4 C 25 %
934 09-02-2020 11:36:18 12 C 23 %
935 09-02-2020 11:46:18 11.8 C 25 %
936 09-02-2020 11:56:18 11.8 C 25 %
937 09-02-2020 12:06:17 11.6 C 25 %
938 09-02-2020 12:16:17 11.7 C 25 %
939 09-02-2020 12:26:17 11.5 C 24 %
940 09-02-2020 12:36:18 11.5 C 24 %
941 09-02-2020 12:46:17 11.2 C 24 %
942 09-02-2020 12:56:17 11 C 24 %
943 09-02-2020 13:06:18 11.1 C 24 %
944 09-02-2020 13:16:18 10.9 C 25 %
945 09-02-2020 13:26:18 10.9 C 25 %
946 09-02-2020 13:36:18 10.9 C 25 %
947 09-02-2020 13:46:18 11.2 C 24 %
948 09-02-2020 13:56:18 11.5 C 23 %
949 09-02-2020 14:06:17 11.9 C 23 %
950 09-02-2020 14:16:17 12.1 C 20 %
Sensor: Nr:Datum:Temp:Feuchte:
Aussen-T/F 951 09-02-2020 14:26:18 12.2 C 20 %
952 09-02-2020 14:36:18 12.1 C 20 %
953 09-02-2020 14:46:18 12.1 C 20 %
954 09-02-2020 14:56:18 12 C 20 %
955 09-02-2020 15:06:18 12 C 20 %
956 09-02-2020 15:16:17 12 C 20 %
957 09-02-2020 15:26:17 12.2 C 20 %
958 09-02-2020 15:36:17 12.3 C 20 %
959 09-02-2020 15:46:17 12.3 C 20 %
960 09-02-2020 15:56:17 12.1 C 20 %
961 09-02-2020 16:06:17 12 C 20 %
962 09-02-2020 16:16:17 12 C 20 %
963 09-02-2020 16:26:17 12 C 20 %
964 09-02-2020 16:36:17 12.2 C 20 %
965 09-02-2020 16:46:18 12.2 C 20 %
966 09-02-2020 16:56:18 12.6 C 20 %
967 09-02-2020 17:06:18 12.4 C 20 %
968 09-02-2020 17:16:17 12.4 C 20 %
969 09-02-2020 17:26:17 12.7 C 20 %
970 09-02-2020 17:36:17 12.8 C 20 %
971 09-02-2020 17:46:17 12.8 C 20 %
972 09-02-2020 17:56:17 12.7 C 20 %
973 09-02-2020 18:06:17 12.7 C 20 %
974 09-02-2020 18:16:17 12.7 C 20 %
975 09-02-2020 18:26:17 12.4 C 20 %
Sensor: Nr:Datum:Temp:Feuchte:
Aussen-T/F 976 09-02-2020 18:36:17 12.3 C 22 %
977 09-02-2020 18:46:17 12.3 C 23 %
978 09-02-2020 18:56:17 12.3 C 23 %
979 09-02-2020 19:06:18 12.2 C 24 %
980 09-02-2020 19:16:17 12.2 C 24 %
981 09-02-2020 19:26:17 12.2 C 24 %
982 09-02-2020 19:36:18 12.2 C 24 %
983 09-02-2020 19:46:18 12.2 C 24 %
984 09-02-2020 19:56:18 12.5 C 24 %
985 09-02-2020 20:06:17 12.5 C 24 %
986 09-02-2020 20:16:17 12.5 C 24 %
987 09-02-2020 20:26:17 12.7 C 24 %
988 09-02-2020 20:36:18 12.7 C 24 %
989 09-02-2020 20:46:17 12.6 C 25 %
990 09-02-2020 20:56:17 12.5 C 25 %
991 09-02-2020 21:06:17 12.1 C 26 %
992 09-02-2020 21:16:17 11.2 C 30 %
993 09-02-2020 21:26:17 11.5 C 30 %
994 09-02-2020 21:36:17 11.6 C 30 %
995 09-02-2020 21:46:18 11.6 C 30 %
996 09-02-2020 21:56:18 11.2 C 31 %
997 09-02-2020 22:06:18 10.8 C 33 %
998 09-02-2020 22:16:17 10.8 C 33 %
999 09-02-2020 22:26:17 10.9 C 33 %
1000 09-02-2020 22:36:17 11.7 C 31 %
Sensor: Nr:Datum:Temp:Feuchte:
Aussen-T/F 1001 09-02-2020 22:46:18 11.3 C 32 %
1002 09-02-2020 22:56:18 10.7 C 35 %
1003 09-02-2020 23:06:17 10.9 C 35 %
1004 09-02-2020 23:16:17 10.7 C 35 %
1005 09-02-2020 23:26:17 10.5 C 35 %
1006 09-02-2020 23:36:18 10.7 C 35 %
1007 09-02-2020 23:46:18 10.6 C 35 %
1008 09-02-2020 23:56:18 11 C 34 %
1009 10-02-2020 00:06:18 10.9 C 35 %
1010 10-02-2020 00:16:18 11.1 C 34 %
1011 10-02-2020 00:26:18 10.9 C 35 %
1012 10-02-2020 00:36:17 11.3 C 35 %
1013 10-02-2020 00:46:17 11.1 C 35 %
1014 10-02-2020 00:56:17 11 C 35 %
1015 10-02-2020 01:06:17 10.8 C 37 %
1016 10-02-2020 01:16:17 10.8 C 36 %
1017 10-02-2020 01:26:17 10.8 C 37 %
1018 10-02-2020 01:36:18 10.7 C 39 %
1019 10-02-2020 01:46:18 10.7 C 40 %
1020 10-02-2020 01:56:18 9.5 C 38 %
1021 10-02-2020 02:06:18 8.8 C 40 %
1022 10-02-2020 02:16:17 8.7 C 39 %
1023 10-02-2020 02:26:17 8.6 C 36 %
1024 10-02-2020 02:36:17 8.5 C 36 %
1025 10-02-2020 02:46:17 8.3 C 36 %
Sensor: Nr:Datum:Temp:Feuchte:
Aussen-T/F 1026 10-02-2020 02:56:17 8 C 36 %
1027 10-02-2020 03:06:17 8.4 C 35 %
1028 10-02-2020 03:16:17 8.3 C 35 %
1029 10-02-2020 03:26:17 8.7 C 35 %
1030 10-02-2020 03:36:18 9.2 C 33 %
1031 10-02-2020 03:46:17 9.6 C 32 %
1032 10-02-2020 03:56:17 9.6 C 32 %
1033 10-02-2020 04:06:18 9.6 C 32 %
1034 10-02-2020 04:16:17 9.7 C 32 %
1035 10-02-2020 04:26:17 9.6 C 31 %
1036 10-02-2020 04:36:17 9.8 C 31 %
1037 10-02-2020 04:46:17 10 C 30 %
1038 10-02-2020 04:56:17 9.9 C 31 %
1039 10-02-2020 05:06:17 10.1 C 30 %
1040 10-02-2020 05:16:18 10 C 30 %
1041 10-02-2020 05:26:18 10 C 30 %
1042 10-02-2020 05:36:18 9.7 C 30 %
1043 10-02-2020 05:46:18 9.6 C 30 %
1044 10-02-2020 05:56:18 9.5 C 31 %
1045 10-02-2020 06:06:18 9 C 31 %
1046 10-02-2020 06:16:18 8.5 C 33 %
1047 10-02-2020 06:26:18 8.2 C 35 %
1048 10-02-2020 06:36:17 8 C 34 %
1049 10-02-2020 06:46:18 9.1 C 30 %
1050 10-02-2020 06:56:18 9 C 29 %
Sensor: Nr:Datum:Temp:Feuchte:
Aussen-T/F 1051 10-02-2020 07:06:17 8.9 C 30 %
1052 10-02-2020 07:16:17 8.7 C 30 %
1053 10-02-2020 07:26:17 9 C 28 %
1054 10-02-2020 07:36:17 8.4 C 30 %
1055 10-02-2020 07:46:18 8.5 C 29 %
1056 10-02-2020 07:56:18 8.5 C 29 %
1057 10-02-2020 08:06:17 8.9 C 28 %
1058 10-02-2020 08:16:17 8.1 C 29 %
1059 10-02-2020 08:26:17 7.9 C 30 %
1060 10-02-2020 08:36:17 7.1 C 32 %
1061 10-02-2020 08:46:17 7.3 C 31 %
1062 10-02-2020 08:56:17 7.3 C 31 %
1063 10-02-2020 09:06:17 7.7 C 27 %
1064 10-02-2020 09:16:17 7.3 C 28 %
1065 10-02-2020 09:26:17 7.6 C 26 %
1066 10-02-2020 09:36:18 7.5 C 27 %
1067 10-02-2020 09:46:18 7.3 C 27 %
1068 10-02-2020 09:56:18 7.3 C 27 %
1069 10-02-2020 10:06:18 7.6 C 26 %
1070 10-02-2020 10:16:17 8 C 26 %
1071 10-02-2020 10:26:17 8 C 25 %
1072 10-02-2020 10:36:17 8.2 C 25 %
1073 10-02-2020 10:46:17 6.8 C 28 %
1074 10-02-2020 10:56:18 8.2 C 26 %
1075 10-02-2020 11:06:18 8.8 C 21 %
Sensor: Nr:Datum:Temp:Feuchte:
Aussen-T/F 1076 10-02-2020 11:16:17 9.2 C 20 %
1077 10-02-2020 11:26:17 9.3 C 20 %
1078 10-02-2020 11:36:17 9 C 20 %
1079 10-02-2020 11:46:17 9.1 C 20 %
1080 10-02-2020 11:56:17 9.1 C 20 %
1081 10-02-2020 12:06:17 8.1 C 20 %
1082 10-02-2020 12:16:18 5.1 C 35 %
1083 10-02-2020 12:26:18 4.9 C 36 %
1084 10-02-2020 12:36:18 6.8 C 33 %
1085 10-02-2020 12:46:17 7.3 C 31 %
1086 10-02-2020 12:56:17 8.8 C 26 %
1087 10-02-2020 13:06:17 9.4 C 20 %
1088 10-02-2020 13:16:17 9.3 C 20 %
1089 10-02-2020 13:26:17 8.8 C 20 %
1090 10-02-2020 13:36:18 9.5 C 20 %
1091 10-02-2020 13:46:18 9.2 C 20 %
1092 10-02-2020 13:56:18 9 C 20 %
1093 10-02-2020 14:06:17 8.6 C 20 %
1094 10-02-2020 14:16:18 7.3 C 27 %
1095 10-02-2020 14:26:18 7.6 C 27 %
1096 10-02-2020 14:36:18 7.7 C 27 %
1097 10-02-2020 14:46:17 8 C 26 %
1098 10-02-2020 14:56:17 8.2 C 26 %
1099 10-02-2020 15:06:17 8.1 C 26 %
1100 10-02-2020 15:16:18 8.6 C 25 %
Sensor: Nr:Datum:Temp:Feuchte:
Aussen-T/F 1101 10-02-2020 15:26:18 8.7 C 23 %
1102 10-02-2020 15:36:18 7.6 C 25 %
1103 10-02-2020 15:46:18 7.7 C 25 %
1104 10-02-2020 15:56:18 7.6 C 26 %
1105 10-02-2020 16:06:17 7.7 C 25 %
1106 10-02-2020 16:16:17 7.8 C 25 %
1107 10-02-2020 16:26:17 7.8 C 26 %
1108 10-02-2020 16:36:17 7.4 C 27 %
1109 10-02-2020 16:46:17 7.3 C 27 %
1110 10-02-2020 16:56:17 6.9 C 30 %
1111 10-02-2020 17:06:18 6.7 C 30 %
1112 10-02-2020 17:16:17 6.8 C 30 %
1113 10-02-2020 17:26:17 6.6 C 30 %
1114 10-02-2020 17:36:17 6.5 C 30 %
1115 10-02-2020 17:46:17 6 C 32 %
1116 10-02-2020 17:56:17 5.8 C 36 %
1117 10-02-2020 18:06:17 5.5 C 37 %
1118 10-02-2020 18:16:18 4.9 C 39 %
1119 10-02-2020 18:26:18 4.9 C 40 %
1120 10-02-2020 18:36:18 5 C 40 %
1121 10-02-2020 18:46:18 5.5 C 39 %
1122 10-02-2020 18:56:18 5.4 C 38 %
1123 10-02-2020 19:06:18 5.5 C 38 %
1124 10-02-2020 19:16:18 5.4 C 39 %
1125 10-02-2020 19:26:18 5.4 C 38 %
Sensor: Nr:Datum:Temp:Feuchte:
Aussen-T/F 1126 10-02-2020 19:36:17 5.1 C 40 %
1127 10-02-2020 19:46:18 5 C 41 %
1128 10-02-2020 19:56:18 4.7 C 42 %
1129 10-02-2020 20:06:17 4.6 C 44 %
1130 10-02-2020 20:16:17 4.5 C 45 %
1131 10-02-2020 20:26:17 4.5 C 45 %
1132 10-02-2020 20:36:18 4.3 C 45 %
1133 10-02-2020 20:46:18 4.3 C 43 %
1134 10-02-2020 20:56:18 4.4 C 43 %
1135 10-02-2020 21:06:18 4.1 C 43 %
1136 10-02-2020 21:16:17 3.9 C 45 %
1137 10-02-2020 21:26:17 4 C 45 %
1138 10-02-2020 21:36:17 5.3 C 43 %
1139 10-02-2020 21:46:18 6.3 C 36 %
1140 10-02-2020 21:56:18 6.9 C 35 %
1141 10-02-2020 22:06:18 7 C 33 %
1142 10-02-2020 22:16:17 7 C 33 %
1143 10-02-2020 22:26:17 7 C 33 %
1144 10-02-2020 22:36:17 7.1 C 32 %
1145 10-02-2020 22:46:17 7.3 C 32 %
1146 10-02-2020 22:56:17 7.3 C 31 %
1147 10-02-2020 23:06:17 7.6 C 30 %
1148 10-02-2020 23:16:17 7.7 C 29 %
1149 10-02-2020 23:26:17 7.6 C 28 %
1150 10-02-2020 23:36:18 7.4 C 28 %
Sensor: Nr:Datum:Temp:Feuchte:
Aussen-T/F 1151 10-02-2020 23:46:18 7.3 C 28 %
1152 10-02-2020 23:56:18 7.3 C 27 %
1153 11-02-2020 00:06:17 7.5 C 26 %
1154 11-02-2020 00:16:17 7.4 C 26 %
1155 11-02-2020 00:26:17 7.7 C 25 %
1156 11-02-2020 00:36:17 4.6 C 35 %
1157 11-02-2020 00:46:17 4.4 C 36 %
1158 11-02-2020 00:56:17 4.4 C 35 %
1159 11-02-2020 01:06:17 4.5 C 34 %
1160 11-02-2020 01:16:17 4.6 C 33 %
1161 11-02-2020 01:26:17 4.7 C 32 %
1162 11-02-2020 01:36:17 4.7 C 31 %
1163 11-02-2020 01:46:17 4.5 C 31 %
1164 11-02-2020 01:56:17 4.7 C 30 %
1165 11-02-2020 02:06:17 5.1 C 27 %
1166 11-02-2020 02:16:17 5.3 C 26 %
1167 11-02-2020 02:26:17 5.3 C 26 %
1168 11-02-2020 02:36:17 4.8 C 27 %
1169 11-02-2020 02:46:17 4.3 C 30 %
1170 11-02-2020 02:56:17 4.1 C 30 %
1171 11-02-2020 03:06:17 4.8 C 29 %
1172 11-02-2020 03:16:17 5.3 C 26 %
1173 11-02-2020 03:26:17 5.4 C 25 %
1174 11-02-2020 03:36:17 5.3 C 25 %
1175 11-02-2020 03:46:18 5.6 C 23 %
Sensor: Nr:Datum:Temp:Feuchte:
Aussen-T/F 1176 11-02-2020 03:56:18 5.5 C 21 %
1177 11-02-2020 04:06:18 5.4 C 20 %
1178 11-02-2020 04:16:17 5.4 C 20 %
1179 11-02-2020 04:26:17 5.6 C 20 %
1180 11-02-2020 04:36:17 5.3 C 20 %
1181 11-02-2020 04:46:17 5.6 C 20 %
1182 11-02-2020 04:56:17 5.6 C 20 %
1183 11-02-2020 05:06:18 5.5 C 20 %
1184 11-02-2020 05:16:18 5.8 C 20 %
1185 11-02-2020 05:26:18 3.9 C 33 %
1186 11-02-2020 05:36:18 4.2 C 32 %
1187 11-02-2020 05:46:17 4.1 C 32 %
1188 11-02-2020 05:56:18 3.7 C 34 %
1189 11-02-2020 06:06:18 3.8 C 33 %
1190 11-02-2020 06:16:17 4.8 C 30 %
1191 11-02-2020 06:26:17 5 C 25 %
1192 11-02-2020 06:36:18 5.1 C 23 %
1193 11-02-2020 06:46:17 5 C 23 %
1194 11-02-2020 06:56:18 4 C 29 %
1195 11-02-2020 07:06:18 3.7 C 32 %
1196 11-02-2020 07:16:18 3.2 C 34 %
1197 11-02-2020 07:26:18 4.1 C 31 %
1198 11-02-2020 07:36:18 3.8 C 31 %
1199 11-02-2020 07:46:17 4.4 C 30 %
1200 11-02-2020 07:56:17 4.5 C 29 %
Sensor: Nr:Datum:Temp:Feuchte:
Aussen-T/F 1201 11-02-2020 08:06:18 4.5 C 29 %
1202 11-02-2020 08:16:17 4.6 C 28 %
1203 11-02-2020 08:26:17 4.9 C 27 %
1204 11-02-2020 08:36:17 4 C 31 %
1205 11-02-2020 08:46:17 3.9 C 33 %
1206 11-02-2020 08:56:17 4.1 C 32 %
1207 11-02-2020 09:06:17 4.3 C 31 %
1208 11-02-2020 09:16:17 4.6 C 31 %
1209 11-02-2020 09:26:17 4.6 C 31 %
1210 11-02-2020 09:36:18 4.5 C 31 %
1211 11-02-2020 09:46:18 4.6 C 31 %
1212 11-02-2020 09:56:18 5.1 C 29 %
1213 11-02-2020 10:06:18 5.3 C 28 %
1214 11-02-2020 10:16:17 5.9 C 26 %
1215 11-02-2020 10:26:17 5.9 C 25 %
1216 11-02-2020 10:36:17 5.9 C 25 %
1217 11-02-2020 10:46:17 5.4 C 25 %
1218 11-02-2020 10:56:17 5.8 C 25 %
1219 11-02-2020 11:06:17 6.2 C 26 %
1220 11-02-2020 11:16:17 6.6 C 20 %
1221 11-02-2020 11:26:17 6.9 C 20 %
1222 11-02-2020 11:36:18 6.7 C 20 %
1223 11-02-2020 11:46:18 6.5 C 20 %
1224 11-02-2020 11:56:18 6.7 C 20 %
1225 11-02-2020 12:06:18 6.8 C 20 %
Sensor: Nr:Datum:Temp:Feuchte:
Aussen-T/F 1226 11-02-2020 12:16:17 6.7 C 20 %
1227 11-02-2020 12:26:17 6.8 C 20 %
1228 11-02-2020 12:36:17 7 C 20 %
1229 11-02-2020 12:46:17 7.3 C 20 %
1230 11-02-2020 12:56:17 6.4 C 20 %
1231 11-02-2020 13:06:18 5.7 C 20 %
1232 11-02-2020 13:16:18 6.4 C 20 %
1233 11-02-2020 13:26:18 5.9 C 20 %
1234 11-02-2020 13:36:18 7.8 C 20 %
1235 11-02-2020 13:46:17 7.4 C 20 %
1236 11-02-2020 13:56:17 7.1 C 20 %
1237 11-02-2020 14:06:17 6.9 C 20 %
1238 11-02-2020 14:16:17 4.6 C 20 %
1239 11-02-2020 14:26:17 3.8 C 35 %
1240 11-02-2020 14:36:17 5 C 32 %
1241 11-02-2020 14:46:17 5 C 31 %
1242 11-02-2020 14:56:17 5.6 C 25 %
1243 11-02-2020 15:06:17 5.7 C 25 %
1244 11-02-2020 15:16:17 5.3 C 25 %
1245 11-02-2020 15:26:17 6.6 C 25 %
1246 11-02-2020 15:36:17 6.8 C 25 %
1247 11-02-2020 15:46:17 6.9 C 25 %
1248 11-02-2020 15:56:17 7 C 25 %
1249 11-02-2020 16:06:17 7.4 C 20 %
1250 11-02-2020 16:16:18 7.1 C 20 %
Sensor: Nr:Datum:Temp:Feuchte:
Aussen-T/F 1251 11-02-2020 16:26:18 7.5 C 20 %
1252 11-02-2020 16:36:17 7.2 C 20 %
1253 11-02-2020 16:46:17 6.5 C 20 %
1254 11-02-2020 16:56:17 6.5 C 20 %
1255 11-02-2020 17:06:18 6.1 C 20 %
1256 11-02-2020 17:16:17 5.9 C 21 %
1257 11-02-2020 17:26:17 5.6 C 21 %
1258 11-02-2020 17:36:17 5.8 C 21 %
1259 11-02-2020 17:46:17 5.8 C 20 %
1260 11-02-2020 17:56:17 5.9 C 20 %
1261 11-02-2020 18:06:17 5.8 C 20 %
1262 11-02-2020 18:16:17 5.7 C 20 %
1263 11-02-2020 18:26:17 5.2 C 20 %
1264 11-02-2020 18:36:17 5.3 C 20 %
1265 11-02-2020 18:46:17 5.4 C 21 %
1266 11-02-2020 18:56:18 5.2 C 23 %
1267 11-02-2020 19:06:18 5.1 C 23 %
1268 11-02-2020 19:16:18 4.9 C 26 %
1269 11-02-2020 19:26:18 4.8 C 26 %
1270 11-02-2020 19:36:17 4.6 C 27 %
1271 11-02-2020 19:46:18 4.6 C 27 %
1272 11-02-2020 19:56:18 4.8 C 26 %
1273 11-02-2020 20:06:17 4.8 C 26 %
1274 11-02-2020 20:16:17 5.5 C 20 %
1275 11-02-2020 20:26:17 5.4 C 20 %
Sensor: Nr:Datum:Temp:Feuchte:
Aussen-T/F 1276 11-02-2020 20:36:17 5.3 C 20 %
1277 11-02-2020 20:46:17 4.8 C 20 %
1278 11-02-2020 20:56:17 4.7 C 20 %
1279 11-02-2020 21:06:18 4.8 C 20 %
1280 11-02-2020 21:16:17 4.4 C 20 %
1281 11-02-2020 21:26:17 4.6 C 20 %
1282 11-02-2020 21:36:17 4.7 C 20 %
1283 11-02-2020 21:46:18 4.4 C 20 %
1284 11-02-2020 21:56:18 4.4 C 20 %
1285 11-02-2020 22:06:17 4.5 C 20 %
1286 11-02-2020 22:16:18 4.3 C 20 %
1287 11-02-2020 22:26:18 4.2 C 20 %
1288 11-02-2020 22:36:17 4.3 C 21 %
1289 11-02-2020 22:46:17 4.3 C 21 %
1290 11-02-2020 22:56:17 3.8 C 25 %
1291 11-02-2020 23:06:17 4 C 23 %
1292 11-02-2020 23:16:18 3.9 C 25 %
1293 11-02-2020 23:26:18 4.3 C 21 %
1294 11-02-2020 23:36:17 4.6 C 20 %
1295 11-02-2020 23:46:18 4.6 C 20 %
1296 11-02-2020 23:56:18 4.7 C 20 %
1297 12-02-2020 00:06:18 4.9 C 20 %
1298 12-02-2020 00:16:17 4.8 C 20 %
1299 12-02-2020 00:26:17 4.6 C 21 %
1300 12-02-2020 00:36:18 4.7 C 21 %
Sensor: Nr:Datum:Temp:Feuchte:
Aussen-T/F 1301 12-02-2020 00:46:17 4.9 C 21 %
1302 12-02-2020 00:56:18 4.6 C 25 %
1303 12-02-2020 01:06:18 4.6 C 25 %
1304 12-02-2020 01:16:18 4.3 C 25 %
1305 12-02-2020 01:26:18 4.5 C 26 %
1306 12-02-2020 01:36:17 4.6 C 26 %
1307 12-02-2020 01:46:18 4.7 C 25 %
1308 12-02-2020 01:56:18 4.7 C 26 %
1309 12-02-2020 02:06:18 4.5 C 25 %
1310 12-02-2020 02:16:17 4.5 C 25 %
1311 12-02-2020 02:26:17 4.3 C 26 %
1312 12-02-2020 02:36:18 4.2 C 25 %
1313 12-02-2020 02:46:18 4.2 C 26 %
1314 12-02-2020 02:56:18 4.2 C 26 %
1315 12-02-2020 03:06:18 4.1 C 26 %
1316 12-02-2020 03:16:17 4.2 C 26 %
1317 12-02-2020 03:26:17 4.3 C 26 %
1318 12-02-2020 03:36:17 4.2 C 26 %
1319 12-02-2020 03:46:17 4.1 C 26 %
1320 12-02-2020 03:56:17 3.8 C 28 %
1321 12-02-2020 04:06:17 4.2 C 27 %
1322 12-02-2020 04:16:17 4.3 C 26 %
1323 12-02-2020 04:26:17 4.4 C 26 %
1324 12-02-2020 04:36:18 4.4 C 26 %
1325 12-02-2020 04:46:17 4.5 C 26 %
Sensor: Nr:Datum:Temp:Feuchte:
Aussen-T/F 1326 12-02-2020 04:56:18 4.4 C 27 %
1327 12-02-2020 05:06:18 4.5 C 27 %
1328 12-02-2020 05:16:18 4.4 C 27 %
1329 12-02-2020 05:26:18 4.5 C 27 %
1330 12-02-2020 05:36:18 4.5 C 27 %
1331 12-02-2020 05:46:17 4.6 C 27 %
1332 12-02-2020 05:56:18 4.5 C 27 %
1333 12-02-2020 06:06:17 4.5 C 27 %
1334 12-02-2020 06:16:18 4.5 C 28 %
1335 12-02-2020 06:26:18 4.3 C 29 %
1336 12-02-2020 06:36:17 4.3 C 30 %
1337 12-02-2020 06:46:18 4.3 C 29 %
1338 12-02-2020 06:56:18 4.3 C 29 %
1339 12-02-2020 07:06:17 4.3 C 30 %
1340 12-02-2020 07:16:17 3.2 C 35 %
1341 12-02-2020 07:26:17 2.8 C 38 %
1342 12-02-2020 07:36:17 2.8 C 38 %
1343 12-02-2020 07:46:18 2.9 C 38 %
1344 12-02-2020 07:56:18 3 C 37 %
1345 12-02-2020 08:06:17 3.1 C 37 %
1346 12-02-2020 08:16:17 3.2 C 36 %
1347 12-02-2020 08:26:17 3.3 C 36 %
1348 12-02-2020 08:36:17 3.2 C 36 %
1349 12-02-2020 08:46:17 3.5 C 35 %
1350 12-02-2020 08:56:17 3.6 C 35 %
Sensor: Nr:Datum:Temp:Feuchte:
Aussen-T/F 1351 12-02-2020 09:06:17 3.5 C 35 %
1352 12-02-2020 09:16:17 3.7 C 35 %
1353 12-02-2020 09:26:18 3.9 C 34 %
1354 12-02-2020 09:36:18 3.7 C 34 %
1355 12-02-2020 09:46:17 4.2 C 32 %
1356 12-02-2020 09:56:17 4.7 C 32 %
1357 12-02-2020 10:06:17 4.3 C 32 %
1358 12-02-2020 10:16:18 3.6 C 35 %
1359 12-02-2020 10:26:18 3.6 C 37 %
1360 12-02-2020 10:36:17 3.9 C 38 %
1361 12-02-2020 10:46:17 4.4 C 35 %
1362 12-02-2020 10:56:17 5.4 C 32 %
1363 12-02-2020 11:06:17 5.3 C 32 %
1364 12-02-2020 11:16:17 5.4 C 31 %
1365 12-02-2020 11:26:17 5.7 C 31 %
1366 12-02-2020 11:36:17 5.3 C 31 %
1367 12-02-2020 11:46:17 4.7 C 32 %
1368 12-02-2020 11:56:17 4.5 C 32 %
1369 12-02-2020 12:06:18 4.7 C 32 %
1370 12-02-2020 12:16:18 5.4 C 31 %
1371 12-02-2020 12:26:18 5.1 C 31 %
1372 12-02-2020 12:36:17 4.3 C 34 %
1373 12-02-2020 12:46:17 4.3 C 34 %
1374 12-02-2020 12:56:17 5.2 C 32 %
1375 12-02-2020 13:06:18 5.8 C 31 %
Sensor: Nr:Datum:Temp:Feuchte:
Aussen-T/F 1376 12-02-2020 13:16:17 6.3 C 30 %
1377 12-02-2020 13:26:17 6.8 C 27 %
1378 12-02-2020 13:36:17 6.7 C 27 %
1379 12-02-2020 13:46:17 6.4 C 26 %
1380 12-02-2020 13:56:17 6.3 C 27 %
1381 12-02-2020 14:06:17 6.3 C 27 %
1382 12-02-2020 14:16:18 6.7 C 26 %
1383 12-02-2020 14:26:18 7 C 26 %
1384 12-02-2020 14:36:17 7.3 C 20 %
1385 12-02-2020 14:46:17 6.9 C 21 %
1386 12-02-2020 14:56:17 7.2 C 21 %
1387 12-02-2020 15:06:17 7 C 21 %
1388 12-02-2020 15:16:17 7.5 C 20 %
1389 12-02-2020 15:26:17 7.6 C 20 %
1390 12-02-2020 15:36:18 7.5 C 20 %
1391 12-02-2020 15:46:18 6.4 C 23 %
1392 12-02-2020 15:56:18 6.9 C 25 %
1393 12-02-2020 16:06:18 6.3 C 25 %
1394 12-02-2020 16:16:18 6.3 C 25 %
1395 12-02-2020 16:26:18 7 C 20 %
1396 12-02-2020 16:36:17 7.2 C 20 %
1397 12-02-2020 16:46:17 7 C 23 %
1398 12-02-2020 16:56:18 6.6 C 23 %
1399 12-02-2020 17:06:18 5.8 C 25 %
1400 12-02-2020 17:16:17 5.4 C 25 %
Sensor: Nr:Datum:Temp:Feuchte:
Aussen-T/F 1401 12-02-2020 17:26:17 5.4 C 25 %
1402 12-02-2020 17:36:17 5.1 C 26 %
1403 12-02-2020 17:46:17 5 C 26 %
1404 12-02-2020 17:56:17 4.5 C 30 %
1405 12-02-2020 18:06:17 4.2 C 31 %
1406 12-02-2020 18:16:17 4.2 C 31 %
1407 12-02-2020 18:26:17 4 C 32 %
1408 12-02-2020 18:36:17 4.1 C 31 %
1409 12-02-2020 18:46:17 3.7 C 33 %
1410 12-02-2020 18:56:17 3.9 C 33 %
1411 12-02-2020 19:06:18 4.1 C 32 %
1412 12-02-2020 19:17:17 3.9 C 33 %
1413 12-02-2020 19:27:17 3.7 C 33 %
1414 12-02-2020 19:36:17 3.6 C 33 %
1415 12-02-2020 19:46:17 3.3 C 35 %
1416 12-02-2020 19:56:17 3 C 35 %
1417 12-02-2020 20:06:17 3.1 C 36 %
1418 12-02-2020 20:16:17 1.8 C 39 %
1419 12-02-2020 20:26:17 1.7 C 41 %
1420 12-02-2020 20:36:18 1.7 C 41 %
1421 12-02-2020 20:46:17 2.5 C 39 %
1422 12-02-2020 20:56:18 2.3 C 38 %
1423 12-02-2020 21:06:18 2 C 40 %
1424 12-02-2020 21:17:17 2.1 C 40 %
1425 12-02-2020 21:27:17 2.1 C 39 %
Sensor: Nr:Datum:Temp:Feuchte:
Aussen-T/F 1426 12-02-2020 21:36:17 2.2 C 39 %
1427 12-02-2020 21:46:17 2.2 C 39 %
1428 12-02-2020 21:56:17 2.7 C 39 %
1429 12-02-2020 22:06:17 2.6 C 39 %
1430 12-02-2020 22:16:17 2.1 C 40 %
1431 12-02-2020 22:26:17 1.8 C 42 %
1432 12-02-2020 22:36:17 2 C 42 %
1433 12-02-2020 22:46:17 1.7 C 42 %
1434 12-02-2020 22:56:17 1.4 C 42 %
1435 12-02-2020 23:06:18 2.2 C 43 %
1436 12-02-2020 23:16:18 1.3 C 42 %
1437 12-02-2020 23:26:18 1.7 C 44 %
1438 12-02-2020 23:37:17 1.4 C 44 %
1439 12-02-2020 23:47:17 1.7 C 43 %
1440 12-02-2020 23:57:17 2.4 C 41 %
1441 13-02-2020 00:07:17 1.8 C 41 %
1442 13-02-2020 00:17:17 1.9 C 42 %
1443 13-02-2020 00:27:17 1.7 C 42 %
1444 13-02-2020 00:36:18 1.5 C 43 %
1445 13-02-2020 00:46:17 1.6 C 44 %
1446 13-02-2020 00:56:18 2 C 41 %
1447 13-02-2020 01:06:18 1.7 C 42 %
1448 13-02-2020 01:17:17 1.6 C 43 %
1449 13-02-2020 01:27:17 1.7 C 43 %
1450 13-02-2020 01:37:17 1.6 C 43 %
Sensor: Nr:Datum:Temp:Feuchte:
Aussen-T/F 1451 13-02-2020 01:47:17 1.6 C 43 %
1452 13-02-2020 01:57:17 1.3 C 43 %
1453 13-02-2020 02:07:18 1.3 C 43 %
1454 13-02-2020 02:17:18 0.6 C 45 %
1455 13-02-2020 02:27:18 0.2 C 45 %
1456 13-02-2020 02:37:17 0.2 C 47 %
1457 13-02-2020 02:47:17 0.1 C 47 %
1458 13-02-2020 02:57:17 0.1 C 47 %
1459 13-02-2020 03:07:17 0.4 C 48 %
1460 13-02-2020 03:17:17 0.4 C 47 %
1461 13-02-2020 03:27:17 0.4 C 46 %
1462 13-02-2020 03:37:17 -0.4 C 45 %
1463 13-02-2020 03:47:17 0.1 C 47 %
1464 13-02-2020 03:57:17 -0.1 C 47 %
1465 13-02-2020 04:07:17 -0.3 C 47 %
1466 13-02-2020 04:17:17 -0.3 C 47 %
1467 13-02-2020 04:27:17 -0.7 C 47 %
1468 13-02-2020 04:37:18 -0.7 C 47 %
1469 13-02-2020 04:47:17 -0.7 C 47 %
1470 13-02-2020 04:57:17 -0.7 C 47 %
1471 13-02-2020 05:07:18 -1 C 47 %
1472 13-02-2020 05:17:17 -1.3 C 46 %
1473 13-02-2020 05:27:17 -1.3 C 47 %
1474 13-02-2020 05:37:17 -1.1 C 47 %
1475 13-02-2020 05:47:17 -1 C 47 %
Sensor: Nr:Datum:Temp:Feuchte:
Aussen-T/F 1476 13-02-2020 05:57:17 -0.7 C 47 %
1477 13-02-2020 06:07:17 -0.2 C 47 %
1478 13-02-2020 06:17:17 -0.3 C 47 %
1479 13-02-2020 06:27:17 -0.3 C 47 %
1480 13-02-2020 06:37:18 -0.4 C 47 %
1481 13-02-2020 06:47:17 -0.4 C 47 %
1482 13-02-2020 06:57:18 -0.2 C 47 %
1483 13-02-2020 07:07:18 -0.2 C 47 %
1484 13-02-2020 07:17:18 -0.2 C 47 %
1485 13-02-2020 07:27:18 -0.2 C 47 %
1486 13-02-2020 07:37:17 0.1 C 47 %
1487 13-02-2020 07:47:18 0.6 C 47 %
1488 13-02-2020 07:57:18 0.8 C 47 %
1489 13-02-2020 08:07:17 0.9 C 47 %
1490 13-02-2020 08:17:17 1.1 C 46 %
1491 13-02-2020 08:27:17 1.4 C 46 %
1492 13-02-2020 08:37:17 1.6 C 46 %
1493 13-02-2020 08:47:17 2 C 45 %
1494 13-02-2020 08:57:17 2.2 C 43 %
1495 13-02-2020 09:07:18 2.3 C 43 %
1496 13-02-2020 09:17:17 2.5 C 42 %
1497 13-02-2020 09:27:17 2.9 C 41 %
1498 13-02-2020 09:37:17 3 C 40 %
1499 13-02-2020 09:47:18 3 C 40 %
1500 13-02-2020 09:57:18 3 C 40 %
Sensor: Nr:Datum:Temp:Feuchte:
Aussen-T/F 1501 13-02-2020 10:07:17 3 C 40 %
1502 13-02-2020 10:17:17 3.9 C 37 %
1503 13-02-2020 10:27:17 4.2 C 35 %
1504 13-02-2020 10:37:17 4.4 C 35 %
1505 13-02-2020 10:47:17 5.1 C 33 %
1506 13-02-2020 10:57:17 5.1 C 32 %
1507 13-02-2020 11:07:17 5.4 C 31 %
1508 13-02-2020 11:17:17 5.9 C 32 %
1509 13-02-2020 11:27:17 6.4 C 30 %
1510 13-02-2020 11:37:17 6.4 C 29 %
1511 13-02-2020 11:47:18 6.1 C 29 %
1512 13-02-2020 11:57:18 6 C 29 %
1513 13-02-2020 12:07:17 6 C 30 %
1514 13-02-2020 12:17:17 5.4 C 31 %
1515 13-02-2020 12:27:17 5 C 32 %
1516 13-02-2020 12:37:18 4.9 C 35 %
1517 13-02-2020 12:47:17 4.6 C 35 %
1518 13-02-2020 12:57:17 4.6 C 36 %
1519 13-02-2020 13:07:18 4.5 C 37 %
1520 13-02-2020 13:17:17 4.3 C 39 %
1521 13-02-2020 13:27:17 4.4 C 41 %
1522 13-02-2020 13:37:17 4.4 C 40 %
1523 13-02-2020 13:47:17 4.3 C 40 %
1524 13-02-2020 13:57:17 4.6 C 39 %
1525 13-02-2020 14:07:17 4.4 C 39 %
Sensor: Nr:Datum:Temp:Feuchte:
Aussen-T/F 1526 13-02-2020 14:17:17 4.3 C 40 %
1527 13-02-2020 14:27:17 4.9 C 41 %
1528 13-02-2020 14:37:17 4.8 C 40 %
1529 13-02-2020 14:47:17 4.8 C 40 %
1530 13-02-2020 14:57:17 4.8 C 41 %
1531 13-02-2020 15:07:17 4.8 C 42 %
1532 13-02-2020 15:17:17 5.1 C 42 %
1533 13-02-2020 15:27:17 5.3 C 41 %
1534 13-02-2020 15:37:18 5.5 C 41 %
1535 13-02-2020 15:47:18 5.4 C 41 %
1536 13-02-2020 15:57:18 6.9 C 38 %
1537 13-02-2020 16:07:17 8.4 C 35 %
1538 13-02-2020 16:17:17 10.2 C 31 %
1539 13-02-2020 16:27:17 8.7 C 32 %
1540 13-02-2020 16:37:17 6.9 C 36 %
1541 13-02-2020 16:47:18 5.9 C 41 %
1542 13-02-2020 16:57:18 5.8 C 43 %
1543 13-02-2020 17:07:17 5.8 C 43 %
1544 13-02-2020 17:17:17 5.7 C 43 %
1545 13-02-2020 17:27:17 5.6 C 43 %
1546 13-02-2020 17:37:17 5.2 C 44 %
1547 13-02-2020 17:47:17 5 C 44 %
1548 13-02-2020 17:57:18 4.6 C 45 %
1549 13-02-2020 18:07:18 4.5 C 45 %
1550 13-02-2020 18:17:17 4.5 C 45 %
Sensor: Nr:Datum:Temp:Feuchte:
Aussen-T/F 1551 13-02-2020 18:27:17 4.7 C 45 %
1552 13-02-2020 18:37:17 4.6 C 45 %
1553 13-02-2020 18:47:17 4.7 C 45 %
1554 13-02-2020 18:57:17 4.4 C 44 %
1555 13-02-2020 19:07:17 4.6 C 44 %
1556 13-02-2020 19:17:17 4.3 C 43 %
1557 13-02-2020 19:27:17 4.4 C 43 %
1558 13-02-2020 19:37:17 4.3 C 44 %
1559 13-02-2020 19:47:17 4.3 C 44 %
1560 13-02-2020 19:57:17 4.4 C 44 %
1561 13-02-2020 20:07:18 4.6 C 45 %
1562 13-02-2020 20:17:17 4.5 C 45 %
1563 13-02-2020 20:27:17 4.5 C 45 %
1564 13-02-2020 20:37:17 4.6 C 45 %
1565 13-02-2020 20:47:18 4.7 C 45 %
1566 13-02-2020 20:57:18 4.7 C 45 %
1567 13-02-2020 21:07:17 4.7 C 45 %
1568 13-02-2020 21:17:17 4.8 C 45 %
1569 13-02-2020 21:27:17 4.7 C 45 %
1570 13-02-2020 21:37:18 4.7 C 45 %
1571 13-02-2020 21:47:18 4.7 C 45 %
1572 13-02-2020 21:57:18 5.3 C 45 %
1573 13-02-2020 22:07:17 5.8 C 45 %
1574 13-02-2020 22:17:17 5.9 C 41 %
1575 13-02-2020 22:27:17 6.1 C 40 %
Sensor: Nr:Datum:Temp:Feuchte:
Aussen-T/F 1576 13-02-2020 22:37:17 6.3 C 40 %
1577 13-02-2020 22:47:17 6.5 C 38 %
1578 13-02-2020 22:57:17 6.8 C 37 %
1579 13-02-2020 23:07:17 6.4 C 37 %
1580 13-02-2020 23:17:17 6.1 C 40 %
1581 13-02-2020 23:27:17 5.8 C 42 %
1582 13-02-2020 23:37:17 5.7 C 45 %
1583 13-02-2020 23:47:18 5.8 C 44 %
1584 13-02-2020 23:57:18 5.8 C 43 %
1585 14-02-2020 00:07:18 5.8 C 43 %
1586 14-02-2020 00:17:17 5.8 C 42 %
1587 14-02-2020 00:27:17 5.8 C 42 %
1588 14-02-2020 00:37:17 5.8 C 43 %
1589 14-02-2020 00:47:17 5.8 C 42 %
1590 14-02-2020 00:57:17 5.7 C 42 %
1591 14-02-2020 01:07:17 5.6 C 41 %
1592 14-02-2020 01:17:18 5.7 C 40 %
1593 14-02-2020 01:27:18 5.6 C 41 %
1594 14-02-2020 01:37:18 5.9 C 39 %
1595 14-02-2020 01:47:18 5.6 C 40 %
1596 14-02-2020 01:57:18 5.5 C 41 %
1597 14-02-2020 02:07:17 5.8 C 40 %
1598 14-02-2020 02:17:17 5.8 C 40 %
1599 14-02-2020 02:27:17 5.6 C 41 %
1600 14-02-2020 02:37:18 5.8 C 41 %
Sensor: Nr:Datum:Temp:Feuchte:
Aussen-T/F 1601 14-02-2020 02:47:18 5.8 C 40 %
1602 14-02-2020 02:57:18 6 C 38 %
1603 14-02-2020 03:07:17 6 C 38 %
1604 14-02-2020 03:17:17 5.8 C 39 %
1605 14-02-2020 03:27:17 5.6 C 42 %
1606 14-02-2020 03:37:17 5.6 C 42 %
1607 14-02-2020 03:47:17 5.3 C 44 %
1608 14-02-2020 03:57:17 5.2 C 45 %
1609 14-02-2020 04:07:18 5.2 C 45 %
1610 14-02-2020 04:17:18 5.1 C 45 %
1611 14-02-2020 04:27:18 5 C 44 %
1612 14-02-2020 04:37:17 5 C 45 %
1613 14-02-2020 04:47:18 4.9 C 44 %
1614 14-02-2020 04:57:18 4.8 C 44 %
1615 14-02-2020 05:07:18 4.6 C 45 %
1616 14-02-2020 05:17:17 4.9 C 45 %
1617 14-02-2020 05:27:17 5 C 43 %
1618 14-02-2020 05:37:17 4.9 C 45 %
1619 14-02-2020 05:47:17 4.8 C 45 %
1620 14-02-2020 05:57:17 4.8 C 46 %
1621 14-02-2020 06:07:17 4.8 C 46 %
1622 14-02-2020 06:17:17 4.7 C 45 %
1623 14-02-2020 06:27:17 4.7 C 45 %
1624 14-02-2020 06:37:17 4.7 C 45 %
1625 14-02-2020 06:47:17 4.7 C 45 %
Sensor: Nr:Datum:Temp:Feuchte:
Aussen-T/F 1626 14-02-2020 06:57:17 4.7 C 45 %
1627 14-02-2020 07:07:17 4.7 C 45 %
1628 14-02-2020 07:17:17 4.7 C 45 %
1629 14-02-2020 07:27:17 4.6 C 45 %
1630 14-02-2020 07:37:18 4.6 C 45 %
1631 14-02-2020 07:47:17 4.6 C 43 %
1632 14-02-2020 07:57:18 4.7 C 43 %
1633 14-02-2020 08:07:17 4.6 C 42 %
1634 14-02-2020 08:17:17 4.6 C 43 %
1635 14-02-2020 08:27:17 4.6 C 43 %
1636 14-02-2020 08:37:18 4.8 C 41 %
1637 14-02-2020 08:47:18 5 C 40 %
1638 14-02-2020 08:57:18 5.3 C 38 %
1639 14-02-2020 09:07:17 5.4 C 37 %
1640 14-02-2020 09:17:17 5.6 C 36 %
1641 14-02-2020 09:27:17 5.9 C 36 %
1642 14-02-2020 09:37:17 5.8 C 36 %
1643 14-02-2020 09:47:17 5.3 C 36 %
1644 14-02-2020 09:57:17 5.4 C 37 %
1645 14-02-2020 10:07:17 5.5 C 36 %
1646 14-02-2020 10:17:17 5.4 C 37 %
1647 14-02-2020 10:27:17 5.4 C 36 %
1648 14-02-2020 10:37:18 5.5 C 36 %
1649 14-02-2020 10:47:17 5.8 C 36 %
1650 14-02-2020 10:57:18 5.9 C 35 %
Sensor: Nr:Datum:Temp:Feuchte:
Aussen-T/F 1651 14-02-2020 11:07:18 6.2 C 35 %
1652 14-02-2020 11:17:18 6.1 C 35 %
1653 14-02-2020 11:27:18 6.1 C 35 %
1654 14-02-2020 11:37:17 6.2 C 35 %
1655 14-02-2020 11:47:18 6.3 C 35 %
1656 14-02-2020 11:57:18 6.4 C 35 %
1657 14-02-2020 12:07:17 6.6 C 35 %
1658 14-02-2020 12:17:17 6.8 C 35 %
1659 14-02-2020 12:27:17 6.9 C 34 %
1660 14-02-2020 12:37:17 7 C 33 %
1661 14-02-2020 12:47:18 7.2 C 32 %
1662 14-02-2020 12:57:18 7.3 C 32 %
1663 14-02-2020 13:07:17 7.5 C 32 %
1664 14-02-2020 13:17:17 7.3 C 31 %
1665 14-02-2020 13:27:17 7.5 C 31 %
1666 14-02-2020 13:37:17 7.5 C 31 %
1667 14-02-2020 13:47:17 7.5 C 31 %
1668 14-02-2020 13:57:17 7.7 C 31 %
1669 14-02-2020 14:07:18 7.9 C 31 %
1670 14-02-2020 14:17:18 7.9 C 31 %
1671 14-02-2020 14:27:18 7.9 C 30 %
1672 14-02-2020 14:37:17 7.9 C 30 %
1673 14-02-2020 14:47:18 7.9 C 30 %
1674 14-02-2020 14:57:18 7.9 C 30 %
1675 14-02-2020 15:07:17 7.9 C 30 %
Sensor: Nr:Datum:Temp:Feuchte:
Aussen-T/F 1676 14-02-2020 15:17:17 7.8 C 30 %
1677 14-02-2020 15:27:17 8 C 30 %
1678 14-02-2020 15:37:17 8.1 C 30 %
1679 14-02-2020 15:47:17 8.2 C 30 %
1680 14-02-2020 15:57:17 8.1 C 29 %
1681 14-02-2020 16:07:17 8.2 C 29 %
1682 14-02-2020 16:17:17 8.1 C 30 %
1683 14-02-2020 16:27:17 8.1 C 30 %
1684 14-02-2020 16:37:18 7.9 C 31 %
1685 14-02-2020 16:47:18 7.7 C 33 %
1686 14-02-2020 16:57:18 7.5 C 34 %
1687 14-02-2020 17:07:18 7.1 C 34 %
1688 14-02-2020 17:17:17 6.9 C 36 %
1689 14-02-2020 17:27:17 6.7 C 36 %
1690 14-02-2020 17:37:17 6.4 C 36 %
1691 14-02-2020 17:47:17 6.2 C 37 %
1692 14-02-2020 17:57:17 6.2 C 37 %
1693 14-02-2020 18:07:17 6.2 C 37 %
1694 14-02-2020 18:17:17 6.2 C 37 %
1695 14-02-2020 18:27:18 6.1 C 37 %
1696 14-02-2020 18:37:17 6.2 C 37 %
1697 14-02-2020 18:47:17 6.2 C 37 %
1698 14-02-2020 18:57:17 5.8 C 38 %
1699 14-02-2020 19:07:18 5.7 C 38 %
1700 14-02-2020 19:17:17 5.4 C 38 %
Sensor: Nr:Datum:Temp:Feuchte:
Aussen-T/F 1701 14-02-2020 19:27:17 5 C 38 %
1702 14-02-2020 19:37:17 4.7 C 40 %
1703 14-02-2020 19:47:17 4.7 C 41 %
1704 14-02-2020 19:57:17 4.5 C 42 %
1705 14-02-2020 20:07:17 4.6 C 42 %
1706 14-02-2020 20:17:17 4.3 C 41 %
1707 14-02-2020 20:27:17 3.9 C 42 %
1708 14-02-2020 20:37:18 3.6 C 45 %
1709 14-02-2020 20:47:17 3.5 C 44 %
1710 14-02-2020 20:57:17 3.3 C 45 %
1711 14-02-2020 21:07:17 3.4 C 46 %
1712 14-02-2020 21:17:17 3.3 C 45 %
1713 14-02-2020 21:27:17 2.8 C 46 %
1714 14-02-2020 21:37:17 2.7 C 46 %
1715 14-02-2020 21:47:17 2.7 C 46 %
1716 14-02-2020 21:57:17 2.5 C 46 %
1717 14-02-2020 22:07:17 2.3 C 46 %
1718 14-02-2020 22:17:17 2.5 C 47 %
1719 14-02-2020 22:27:17 2.5 C 46 %
1720 14-02-2020 22:37:17 2.1 C 46 %
1721 14-02-2020 22:47:17 2 C 46 %
1722 14-02-2020 22:57:17 1.8 C 47 %
1723 14-02-2020 23:07:18 2.1 C 46 %
1724 14-02-2020 23:17:18 2.1 C 46 %
1725 14-02-2020 23:27:18 2.5 C 47 %
Sensor: Nr:Datum:Temp:Feuchte:
Aussen-T/F 1726 14-02-2020 23:37:17 1.9 C 47 %
1727 14-02-2020 23:47:18 1.6 C 47 %
1728 14-02-2020 23:57:18 1.7 C 47 %
1729 15-02-2020 00:07:18 1.6 C 47 %
1730 15-02-2020 00:17:17 1.7 C 47 %
1731 15-02-2020 00:27:17 1.7 C 47 %
1732 15-02-2020 00:37:17 1.7 C 47 %
1733 15-02-2020 00:47:17 1.8 C 47 %
1734 15-02-2020 00:57:17 1.9 C 47 %
1735 15-02-2020 01:07:17 2.1 C 46 %
1736 15-02-2020 01:17:17 2.5 C 46 %
1737 15-02-2020 01:27:17 2.4 C 46 %
1738 15-02-2020 01:37:18 2.4 C 46 %
1739 15-02-2020 01:47:17 2.6 C 46 %
1740 15-02-2020 01:57:17 2.4 C 46 %
1741 15-02-2020 02:07:18 2.3 C 46 %
1742 15-02-2020 02:17:17 2.6 C 46 %
1743 15-02-2020 02:27:17 2.3 C 46 %
1744 15-02-2020 02:37:17 2.2 C 46 %
1745 15-02-2020 02:47:17 2 C 45 %
1746 15-02-2020 02:57:17 2 C 46 %
1747 15-02-2020 03:07:18 1.9 C 47 %
1748 15-02-2020 03:17:18 1.7 C 46 %
1749 15-02-2020 03:27:18 1.7 C 46 %
1750 15-02-2020 03:37:17 1.8 C 47 %
Sensor: Nr:Datum:Temp:Feuchte:
Aussen-T/F 1751 15-02-2020 03:47:18 1.3 C 46 %
1752 15-02-2020 03:57:18 1.3 C 46 %
1753 15-02-2020 04:07:17 1.4 C 46 %
1754 15-02-2020 04:17:17 1.2 C 46 %
1755 15-02-2020 04:27:17 1.3 C 46 %
1756 15-02-2020 04:37:17 1.2 C 46 %
1757 15-02-2020 04:47:17 1.5 C 46 %
1758 15-02-2020 04:57:17 1.4 C 46 %
1759 15-02-2020 05:07:17 1.1 C 46 %
1760 15-02-2020 05:17:17 1 C 46 %
1761 15-02-2020 05:27:17 0.9 C 47 %
1762 15-02-2020 05:37:18 1.2 C 46 %
1763 15-02-2020 05:47:17 0.8 C 47 %
1764 15-02-2020 05:57:17 0.8 C 47 %
1765 15-02-2020 06:07:18 1 C 46 %
1766 15-02-2020 06:17:17 0.7 C 47 %
1767 15-02-2020 06:27:18 0.6 C 47 %
1768 15-02-2020 06:37:18 0.5 C 47 %
1769 15-02-2020 06:47:17 0.7 C 47 %
1770 15-02-2020 06:57:17 0.7 C 47 %
1771 15-02-2020 07:07:18 0.7 C 47 %
1772 15-02-2020 07:17:18 0.3 C 47 %
1773 15-02-2020 07:27:18 0.3 C 47 %
1774 15-02-2020 07:37:18 0.8 C 47 %
1775 15-02-2020 07:47:17 1.1 C 46 %
Sensor: Nr:Datum:Temp:Feuchte:
Aussen-T/F 1776 15-02-2020 07:57:18 1.1 C 46 %
1777 15-02-2020 08:07:17 0.9 C 47 %
1778 15-02-2020 08:17:18 1.3 C 46 %
1779 15-02-2020 08:27:18 1.8 C 46 %
1780 15-02-2020 08:37:18 2 C 45 %
1781 15-02-2020 08:47:17 2 C 45 %
1782 15-02-2020 08:57:18 2.6 C 45 %
1783 15-02-2020 09:07:18 2.8 C 45 %
1784 15-02-2020 09:17:17 3.1 C 45 %
1785 15-02-2020 09:27:17 3.2 C 45 %
1786 15-02-2020 09:37:17 3.6 C 45 %
1787 15-02-2020 09:47:17 3.7 C 45 %
1788 15-02-2020 09:57:17 4.2 C 44 %
1789 15-02-2020 10:07:17 3.7 C 44 %
1790 15-02-2020 10:17:17 4.4 C 44 %
1791 15-02-2020 10:27:17 4.6 C 44 %
1792 15-02-2020 10:37:18 5.1 C 43 %
1793 15-02-2020 10:47:17 5.4 C 43 %
1794 15-02-2020 10:57:17 5.6 C 42 %
1795 15-02-2020 11:07:18 6.4 C 40 %
1796 15-02-2020 11:17:18 6.9 C 41 %
1797 15-02-2020 11:27:18 6.8 C 40 %
1798 15-02-2020 11:37:17 7.3 C 41 %
1799 15-02-2020 11:47:18 8 C 40 %
1800 15-02-2020 11:57:18 8.4 C 36 %
Sensor: Nr:Datum:Temp:Feuchte:
Aussen-T/F 1801 15-02-2020 12:07:18 8.7 C 36 %
1802 15-02-2020 12:17:17 9.1 C 37 %
1803 15-02-2020 12:27:17 9.9 C 36 %
1804 15-02-2020 12:37:17 10.3 C 33 %
1805 15-02-2020 12:47:17 10.7 C 32 %
1806 15-02-2020 12:57:17 11.3 C 30 %
1807 15-02-2020 13:07:18 11.6 C 30 %
1808 15-02-2020 13:17:17 13.7 C 21 %
1809 15-02-2020 13:27:17 14.7 C 20 %
1810 15-02-2020 13:37:17 15.7 C 20 %
1811 15-02-2020 13:47:17 14.1 C 20 %
1812 15-02-2020 13:57:17 13 C 20 %
1813 15-02-2020 14:07:18 11.4 C 24 %
1814 15-02-2020 14:17:17 11.2 C 25 %
1815 15-02-2020 14:27:17 11.2 C 25 %
1816 15-02-2020 14:37:17 11.3 C 25 %
1817 15-02-2020 14:47:17 11 C 25 %
1818 15-02-2020 14:57:17 11.9 C 23 %
1819 15-02-2020 15:07:17 11.3 C 26 %
1820 15-02-2020 15:17:17 12.5 C 21 %
1821 15-02-2020 15:27:17 12.7 C 20 %
1822 15-02-2020 15:37:18 12.1 C 21 %
1823 15-02-2020 15:47:17 11.9 C 23 %
1824 15-02-2020 15:57:18 11.7 C 25 %
1825 15-02-2020 16:07:18 12.1 C 21 %
Sensor: Nr:Datum:Temp:Feuchte:
Aussen-T/F 1826 15-02-2020 16:17:18 12.1 C 23 %
1827 15-02-2020 16:27:18 11.4 C 25 %
1828 15-02-2020 16:37:18 9.8 C 30 %
1829 15-02-2020 16:47:18 9.3 C 30 %
1830 15-02-2020 16:57:18 9.2 C 30 %
1831 15-02-2020 17:07:17 8.5 C 32 %
1832 15-02-2020 17:17:17 8.4 C 33 %
1833 15-02-2020 17:27:17 7.8 C 35 %
1834 15-02-2020 17:37:18 7.4 C 35 %
1835 15-02-2020 17:47:18 7.3 C 35 %
1836 15-02-2020 17:57:18 7.3 C 36 %
1837 15-02-2020 18:07:17 7.3 C 36 %
1838 15-02-2020 18:17:17 7.1 C 36 %
1839 15-02-2020 18:27:17 7.1 C 36 %
1840 15-02-2020 18:37:17 6.8 C 36 %
1841 15-02-2020 18:47:17 7.1 C 36 %
1842 15-02-2020 18:57:17 7 C 36 %
1843 15-02-2020 19:07:17 6.9 C 36 %
1844 15-02-2020 19:17:18 6.8 C 36 %
1845 15-02-2020 19:27:18 6.9 C 37 %
1846 15-02-2020 19:37:18 7.1 C 36 %
1847 15-02-2020 19:47:17 6.7 C 37 %
1848 15-02-2020 19:57:17 6.7 C 37 %
1849 15-02-2020 20:07:17 7.1 C 35 %
1850 15-02-2020 20:17:17 7.1 C 35 %
Sensor: Nr:Datum:Temp:Feuchte:
Aussen-T/F 1851 15-02-2020 20:27:17 7.4 C 35 %
1852 15-02-2020 20:37:18 7.4 C 35 %
1853 15-02-2020 20:47:17 7.6 C 35 %
1854 15-02-2020 20:57:18 7.8 C 35 %
1855 15-02-2020 21:07:18 7.6 C 35 %
1856 15-02-2020 21:17:18 7.6 C 35 %
1857 15-02-2020 21:27:18 8.1 C 33 %
1858 15-02-2020 21:37:17 7.8 C 34 %
1859 15-02-2020 21:47:17 7.6 C 34 %
1860 15-02-2020 21:57:17 7.7 C 34 %
1861 15-02-2020 22:07:17 7.9 C 33 %
1862 15-02-2020 22:17:18 7.7 C 34 %
1863 15-02-2020 22:27:18 8.4 C 32 %
1864 15-02-2020 22:37:18 8.2 C 32 %
1865 15-02-2020 22:47:18 8.4 C 32 %
1866 15-02-2020 22:57:18 8.6 C 32 %
1867 15-02-2020 23:07:18 10.6 C 29 %
1868 15-02-2020 23:17:17 9.7 C 30 %
1869 15-02-2020 23:27:17 9.2 C 31 %
1870 15-02-2020 23:37:17 9.1 C 31 %
1871 15-02-2020 23:47:18 10 C 29 %
1872 15-02-2020 23:57:18 9.8 C 30 %
1873 16-02-2020 00:07:18 9.3 C 30 %
1874 16-02-2020 00:17:17 9.8 C 30 %
1875 16-02-2020 00:27:17 9.2 C 30 %
Sensor: Nr:Datum:Temp:Feuchte:
Aussen-T/F 1876 16-02-2020 00:37:17 9.2 C 30 %
1877 16-02-2020 00:47:17 10 C 29 %
1878 16-02-2020 00:57:17 9.7 C 30 %
1879 16-02-2020 01:07:18 9.7 C 30 %
1880 16-02-2020 01:17:18 10.5 C 29 %
1881 16-02-2020 01:27:18 10.4 C 29 %
1882 16-02-2020 01:37:18 9.7 C 30 %
1883 16-02-2020 01:47:18 9.7 C 30 %
1884 16-02-2020 01:57:18 10 C 30 %
1885 16-02-2020 02:07:17 10.5 C 30 %
1886 16-02-2020 02:17:17 10.5 C 30 %
1887 16-02-2020 02:27:18 10.8 C 29 %
1888 16-02-2020 02:37:18 10.6 C 30 %
1889 16-02-2020 02:47:18 10.9 C 30 %
1890 16-02-2020 02:57:18 11.1 C 28 %
1891 16-02-2020 03:07:17 11.4 C 28 %
1892 16-02-2020 03:17:17 11.4 C 28 %
1893 16-02-2020 03:27:17 12.1 C 27 %
1894 16-02-2020 03:37:18 12 C 27 %
1895 16-02-2020 03:47:17 12.3 C 27 %
1896 16-02-2020 03:57:18 12.4 C 26 %
1897 16-02-2020 04:07:18 12.1 C 26 %
1898 16-02-2020 04:17:18 12.2 C 26 %
1899 16-02-2020 04:27:18 12 C 26 %
1900 16-02-2020 04:37:17 11.7 C 27 %
Sensor: Nr:Datum:Temp:Feuchte:
Aussen-T/F 1901 16-02-2020 04:47:17 11.8 C 26 %
1902 16-02-2020 04:57:17 11.7 C 26 %
1903 16-02-2020 05:07:17 11.5 C 27 %
1904 16-02-2020 05:17:17 11.3 C 27 %
1905 16-02-2020 05:27:18 11.5 C 27 %
1906 16-02-2020 05:37:18 11.4 C 27 %
1907 16-02-2020 05:47:17 11.6 C 27 %
1908 16-02-2020 05:57:18 12.2 C 25 %
1909 16-02-2020 06:07:17 12.6 C 25 %
1910 16-02-2020 06:17:17 12.6 C 25 %
1911 16-02-2020 06:27:17 12.9 C 24 %
1912 16-02-2020 06:37:18 13.1 C 21 %
1913 16-02-2020 06:47:17 13.6 C 21 %
1914 16-02-2020 06:57:17 13.2 C 21 %
1915 16-02-2020 07:07:17 13.5 C 22 %
1916 16-02-2020 07:17:17 13.5 C 23 %
1917 16-02-2020 07:27:17 13.8 C 23 %
1918 16-02-2020 07:37:17 14.1 C 23 %
1919 16-02-2020 07:47:17 13.9 C 24 %
1920 16-02-2020 07:57:17 13.7 C 25 %
1921 16-02-2020 08:07:18 13.8 C 25 %
1922 16-02-2020 08:17:17 13.4 C 25 %
1923 16-02-2020 08:27:17 13.3 C 25 %
1924 16-02-2020 08:37:18 13.4 C 25 %
1925 16-02-2020 08:47:17 13.6 C 25 %
Sensor: Nr:Datum:Temp:Feuchte:
Aussen-T/F 1926 16-02-2020 08:57:17 13.6 C 25 %
1927 16-02-2020 09:07:18 13.7 C 25 %
1928 16-02-2020 09:17:17 13.9 C 25 %
1929 16-02-2020 09:27:17 14 C 25 %
1930 16-02-2020 09:37:17 14 C 23 %
1931 16-02-2020 09:47:18 14.1 C 23 %
1932 16-02-2020 09:57:18 14.2 C 23 %
1933 16-02-2020 10:07:18 14.3 C 23 %
1934 16-02-2020 10:17:18 14.2 C 23 %
1935 16-02-2020 10:27:18 14.5 C 23 %
1936 16-02-2020 10:37:18 14.7 C 22 %
1937 16-02-2020 10:47:18 15.1 C 21 %
1938 16-02-2020 10:57:18 15.2 C 21 %
1939 16-02-2020 11:07:17 15.2 C 20 %
1940 16-02-2020 11:17:17 15.8 C 20 %
1941 16-02-2020 11:27:17 16.1 C 20 %
1942 16-02-2020 11:37:17 16.1 C 20 %
1943 16-02-2020 11:47:17 16.4 C 20 %
1944 16-02-2020 11:57:17 16.3 C 20 %
1945 16-02-2020 12:07:17 16.4 C 20 %
1946 16-02-2020 12:17:17 17 C 20 %
1947 16-02-2020 12:27:17 17.3 C 20 %
1948 16-02-2020 12:37:18 17.2 C 20 %
1949 16-02-2020 12:47:18 17.9 C 20 %
1950 16-02-2020 12:57:18 18.6 C 20 %
Sensor: Nr:Datum:Temp:Feuchte:
Aussen-T/F 1951 16-02-2020 13:07:18 17.9 C 20 %
1952 16-02-2020 13:17:18 18.6 C 20 %
1953 16-02-2020 13:27:18 18.1 C 20 %
1954 16-02-2020 13:37:17 20 C 20 %
1955 16-02-2020 13:47:17 19.1 C 20 %
1956 16-02-2020 13:57:17 18 C 20 %
1957 16-02-2020 14:07:17 18 C 20 %
1958 16-02-2020 14:17:17 18.2 C 20 %
1959 16-02-2020 14:27:17 18.5 C 20 %
1960 16-02-2020 14:37:18 18.3 C 20 %
1961 16-02-2020 14:47:17 18.6 C 20 %
1962 16-02-2020 14:57:17 18.5 C 20 %
1963 16-02-2020 15:07:18 18.1 C 20 %
1964 16-02-2020 15:17:17 18 C 20 %
1965 16-02-2020 15:27:17 17.9 C 20 %
1966 16-02-2020 15:37:17 18 C 20 %
1967 16-02-2020 15:47:17 18.4 C 20 %
1968 16-02-2020 15:57:17 18.7 C 20 %
1969 16-02-2020 16:07:18 18.6 C 20 %
1970 16-02-2020 16:17:17 18.4 C 20 %
1971 16-02-2020 16:27:17 18.4 C 20 %
1972 16-02-2020 16:37:17 17.8 C 20 %
1973 16-02-2020 16:47:17 17.2 C 20 %
1974 16-02-2020 16:57:17 16.6 C 20 %
1975 16-02-2020 17:07:17 16.3 C 20 %
Sensor: Nr:Datum:Temp:Feuchte:
Aussen-T/F 1976 16-02-2020 17:17:18 16 C 20 %
1977 16-02-2020 17:27:18 15.3 C 20 %
1978 16-02-2020 17:37:17 15 C 20 %
1979 16-02-2020 17:47:18 14.9 C 20 %
1980 16-02-2020 17:57:18 14.7 C 20 %
1981 16-02-2020 18:07:17 15.3 C 20 %
1982 16-02-2020 18:17:17 14.9 C 20 %
1983 16-02-2020 18:27:17 15.1 C 20 %
1984 16-02-2020 18:37:18 15 C 20 %
1985 16-02-2020 18:47:17 15.7 C 20 %
1986 16-02-2020 18:57:18 14.9 C 20 %
1987 16-02-2020 19:07:18 15.9 C 20 %
1988 16-02-2020 19:17:17 15.4 C 20 %
1989 16-02-2020 19:27:17 15.9 C 20 %
1990 16-02-2020 19:37:18 15.5 C 20 %
1991 16-02-2020 19:47:17 15.8 C 20 %
1992 16-02-2020 19:57:18 15.4 C 20 %
1993 16-02-2020 20:07:18 15.7 C 20 %
1994 16-02-2020 20:17:17 15.9 C 20 %
1995 16-02-2020 20:27:17 15.9 C 20 %
1996 16-02-2020 20:37:17 15.8 C 20 %
1997 16-02-2020 20:47:17 16 C 20 %
1998 16-02-2020 20:57:17 16.1 C 20 %
1999 16-02-2020 21:07:18 16.2 C 20 %
2000 16-02-2020 21:17:17 16.1 C 20 %
Sensor: Nr:Datum:Temp:Feuchte:
Aussen-T/F 2001 16-02-2020 21:27:17 16.3 C 20 %
2002 16-02-2020 21:37:17 16.3 C 20 %
2003 16-02-2020 21:47:17 16.8 C 20 %
2004 16-02-2020 21:57:17 16.5 C 20 %
2005 16-02-2020 22:07:18 16.3 C 20 %
2006 16-02-2020 22:17:18 16.2 C 20 %
2007 16-02-2020 22:27:18 16.1 C 20 %
2008 16-02-2020 22:37:17 16.1 C 20 %
2009 16-02-2020 22:47:17 16 C 20 %
2010 16-02-2020 22:57:17 15.8 C 20 %
2011 16-02-2020 23:07:17 15.2 C 20 %
2012 16-02-2020 23:17:18 12.5 C 30 %
2013 16-02-2020 23:27:18 10.5 C 34 %
2014 16-02-2020 23:37:18 10.1 C 35 %
2015 16-02-2020 23:47:18 9.8 C 35 %
2016 16-02-2020 23:57:18 9.6 C 35 %
2017 17-02-2020 00:07:18 9.3 C 36 %
2018 17-02-2020 00:17:17 9.1 C 39 %
2019 17-02-2020 00:27:17 9.1 C 37 %
2020 17-02-2020 00:37:17 9.4 C 36 %
2021 17-02-2020 00:47:18 9.1 C 35 %
2022 17-02-2020 00:57:18 9.1 C 35 %
2023 17-02-2020 01:07:18 8.9 C 36 %
2024 17-02-2020 01:17:17 8.9 C 36 %
2025 17-02-2020 01:27:17 9 C 35 %
Sensor: Nr:Datum:Temp:Feuchte:
Aussen-T/F 2026 17-02-2020 01:37:18 8.4 C 36 %
2027 17-02-2020 01:47:17 8.2 C 37 %
2028 17-02-2020 01:57:18 7.9 C 41 %
2029 17-02-2020 02:07:18 8.2 C 39 %
2030 17-02-2020 02:17:17 8.4 C 35 %
2031 17-02-2020 02:27:17 8.2 C 33 %
2032 17-02-2020 02:37:17 8.1 C 32 %
2033 17-02-2020 02:47:17 8 C 32 %
2034 17-02-2020 02:57:17 8.1 C 31 %
2035 17-02-2020 03:07:17 8.1 C 32 %
2036 17-02-2020 03:17:17 8 C 32 %
2037 17-02-2020 03:27:17 7.9 C 32 %
2038 17-02-2020 03:37:17 8.1 C 32 %
2039 17-02-2020 03:47:17 8.1 C 32 %
2040 17-02-2020 03:57:17 8.1 C 32 %
2041 17-02-2020 04:07:17 7.9 C 32 %
2042 17-02-2020 04:17:18 7.9 C 32 %
2043 17-02-2020 04:27:18 8.1 C 32 %
2044 17-02-2020 04:37:17 7.8 C 33 %
2045 17-02-2020 04:47:17 7.8 C 33 %
2046 17-02-2020 04:57:17 7.8 C 33 %
2047 17-02-2020 05:07:17 7.6 C 33 %
2048 17-02-2020 05:17:18 7.6 C 33 %
2049 17-02-2020 05:27:18 7.5 C 34 %
2050 17-02-2020 05:37:17 7.5 C 34 %
Sensor: Nr:Datum:Temp:Feuchte:
Aussen-T/F 2051 17-02-2020 05:47:17 7.6 C 34 %
2052 17-02-2020 05:57:17 7.4 C 34 %
2053 17-02-2020 06:07:17 7.4 C 34 %
2054 17-02-2020 06:17:17 7.5 C 35 %
2055 17-02-2020 06:27:17 7.9 C 34 %
2056 17-02-2020 06:37:17 7.6 C 34 %
2057 17-02-2020 06:47:17 7.9 C 34 %
2058 17-02-2020 06:57:17 8 C 33 %
2059 17-02-2020 07:07:18 7.9 C 34 %
2060 17-02-2020 07:17:17 7.7 C 34 %
2061 17-02-2020 07:27:17 7.5 C 35 %
2062 17-02-2020 07:37:17 7.5 C 35 %
2063 17-02-2020 07:47:17 7.3 C 35 %
2064 17-02-2020 07:57:17 7.3 C 35 %
2065 17-02-2020 08:07:18 7.7 C 35 %
2066 17-02-2020 08:17:17 7.8 C 34 %
2067 17-02-2020 08:27:17 7.9 C 34 %
2068 17-02-2020 08:37:17 7.7 C 35 %
2069 17-02-2020 08:47:17 8.2 C 33 %
2070 17-02-2020 08:57:17 8.2 C 33 %
2071 17-02-2020 09:07:17 8.3 C 33 %
2072 17-02-2020 09:17:17 8.4 C 33 %
2073 17-02-2020 09:27:17 8.4 C 33 %
2074 17-02-2020 09:37:18 8.4 C 33 %
2075 17-02-2020 09:47:17 8.3 C 33 %
Sensor: Nr:Datum:Temp:Feuchte:
Aussen-T/F 2076 17-02-2020 09:57:18 8.4 C 32 %
2077 17-02-2020 10:07:18 8.5 C 32 %
2078 17-02-2020 10:17:17 8.6 C 32 %
2079 17-02-2020 10:27:17 8.8 C 32 %
2080 17-02-2020 10:37:17 9 C 32 %
2081 17-02-2020 10:47:17 9.1 C 32 %
2082 17-02-2020 10:57:17 9.1 C 31 %
2083 17-02-2020 11:07:17 9.2 C 31 %
2084 17-02-2020 11:17:17 9.2 C 31 %
2085 17-02-2020 11:27:17 9.4 C 30 %
2086 17-02-2020 11:37:17 9.4 C 30 %
2087 17-02-2020 11:47:18 9.3 C 30 %
2088 17-02-2020 11:57:18 9.4 C 30 %
2089 17-02-2020 12:07:17 9.3 C 30 %
2090 17-02-2020 12:17:17 9.3 C 30 %
2091 17-02-2020 12:27:17 9.2 C 30 %
2092 17-02-2020 12:37:17 9.5 C 29 %
2093 17-02-2020 12:47:17 9.5 C 28 %
2094 17-02-2020 12:57:17 9.6 C 28 %
2095 17-02-2020 13:07:18 10 C 26 %
2096 17-02-2020 13:17:17 10.4 C 26 %
2097 17-02-2020 13:27:17 10.5 C 25 %
2098 17-02-2020 13:37:17 11.2 C 24 %
2099 17-02-2020 13:47:17 10.7 C 25 %
2100 17-02-2020 13:57:17 10.4 C 25 %
Sensor: Nr:Datum:Temp:Feuchte:
Aussen-T/F 2101 17-02-2020 14:07:17 10.5 C 25 %
2102 17-02-2020 14:17:18 10.5 C 25 %
2103 17-02-2020 14:27:18 11.1 C 25 %
2104 17-02-2020 14:37:18 10.6 C 25 %
2105 17-02-2020 14:47:18 10.5 C 25 %
2106 17-02-2020 14:57:18 10.3 C 25 %
2107 17-02-2020 15:07:17 11.1 C 25 %
2108 17-02-2020 15:17:17 10.9 C 25 %
2109 17-02-2020 15:27:17 11.2 C 24 %
2110 17-02-2020 15:37:17 11.3 C 24 %
2111 17-02-2020 15:47:17 11.2 C 24 %
2112 17-02-2020 15:57:17 11.4 C 24 %
2113 17-02-2020 16:07:17 10.8 C 25 %
2114 17-02-2020 16:17:17 11.7 C 24 %
2115 17-02-2020 16:27:17 11.1 C 24 %
2116 17-02-2020 16:37:17 12.8 C 20 %
2117 17-02-2020 16:47:17 12.9 C 20 %
2118 17-02-2020 16:57:17 11.2 C 21 %
2119 17-02-2020 17:07:18 10.2 C 25 %
2120 17-02-2020 17:17:17 10.3 C 25 %
2121 17-02-2020 17:27:17 9.5 C 27 %
2122 17-02-2020 17:37:17 7 C 36 %
2123 17-02-2020 17:47:17 7.1 C 35 %
2124 17-02-2020 17:57:17 7.2 C 34 %
2125 17-02-2020 18:07:18 7.1 C 33 %
Sensor: Nr:Datum:Temp:Feuchte:
Aussen-T/F 2126 17-02-2020 18:17:18 7.3 C 32 %
2127 17-02-2020 18:27:18 7 C 33 %
2128 17-02-2020 18:37:18 6.7 C 33 %
2129 17-02-2020 18:47:17 6.8 C 33 %
2130 17-02-2020 18:57:18 6.8 C 33 %
2131 17-02-2020 19:07:18 6.4 C 33 %
2132 17-02-2020 19:17:17 5.7 C 35 %
2133 17-02-2020 19:27:17 5.6 C 36 %
2134 17-02-2020 19:37:17 5.7 C 36 %
2135 17-02-2020 19:47:17 6.3 C 35 %
2136 17-02-2020 19:57:17 5.3 C 36 %
2137 17-02-2020 20:07:17 4.8 C 38 %
2138 17-02-2020 20:17:17 4.6 C 40 %
2139 17-02-2020 20:27:17 4.5 C 41 %
2140 17-02-2020 20:37:17 4.4 C 42 %
2141 17-02-2020 20:47:17 3.8 C 43 %
2142 17-02-2020 20:57:17 4.1 C 44 %
2143 17-02-2020 21:07:18 4.3 C 45 %
2144 17-02-2020 21:17:17 5 C 43 %
2145 17-02-2020 21:27:17 5.7 C 40 %
2146 17-02-2020 21:37:17 5 C 39 %
2147 17-02-2020 21:47:17 5.2 C 40 %
2148 17-02-2020 21:57:17 5.1 C 40 %
2149 17-02-2020 22:07:18 6.3 C 38 %
2150 17-02-2020 22:17:17 7.1 C 35 %
Sensor: Nr:Datum:Temp:Feuchte:
Aussen-T/F 2151 17-02-2020 22:27:17 7.5 C 35 %
2152 17-02-2020 22:37:17 7.7 C 34 %
2153 17-02-2020 22:47:17 7.9 C 34 %
2154 17-02-2020 22:57:17 8 C 33 %
2155 17-02-2020 23:07:17 8 C 33 %
2156 17-02-2020 23:17:18 7.8 C 33 %
2157 17-02-2020 23:27:18 6.9 C 35 %
2158 17-02-2020 23:37:17 7.2 C 35 %
2159 17-02-2020 23:47:18 7.7 C 33 %
2160 17-02-2020 23:57:18 7.6 C 33 %
2161 18-02-2020 00:07:18 7.8 C 32 %
2162 18-02-2020 00:17:17 7.8 C 32 %
2163 18-02-2020 00:27:17 7.9 C 32 %
2164 18-02-2020 00:37:18 7.8 C 31 %
2165 18-02-2020 00:47:18 7.9 C 31 %
2166 18-02-2020 00:57:18 7.8 C 31 %
2167 18-02-2020 01:07:18 7.8 C 31 %
2168 18-02-2020 01:17:17 7.8 C 31 %
2169 18-02-2020 01:27:17 7.7 C 31 %
2170 18-02-2020 01:37:17 7.7 C 32 %
2171 18-02-2020 01:47:17 7.5 C 32 %
2172 18-02-2020 01:57:17 7.5 C 32 %
2173 18-02-2020 02:07:18 7.4 C 32 %
2174 18-02-2020 02:17:17 7.2 C 32 %
2175 18-02-2020 02:27:17 7 C 32 %
Sensor: Nr:Datum:Temp:Feuchte:
Aussen-T/F 2176 18-02-2020 02:37:17 7 C 32 %
2177 18-02-2020 02:47:18 6.8 C 33 %
2178 18-02-2020 02:57:18 7.1 C 32 %
2179 18-02-2020 03:07:18 7.1 C 32 %
2180 18-02-2020 03:17:17 7.3 C 32 %
2181 18-02-2020 03:27:17 7.3 C 31 %
2182 18-02-2020 03:37:17 7.1 C 32 %
2183 18-02-2020 03:47:17 6.6 C 33 %
2184 18-02-2020 03:57:17 6.6 C 33 %
2185 18-02-2020 04:07:17 6.4 C 33 %
2186 18-02-2020 04:17:17 6.2 C 33 %
2187 18-02-2020 04:27:17 6.2 C 33 %
2188 18-02-2020 04:37:18 5.9 C 34 %
2189 18-02-2020 04:47:17 6.3 C 33 %
2190 18-02-2020 04:57:18 6 C 33 %
2191 18-02-2020 05:07:18 5.9 C 33 %
2192 18-02-2020 05:17:17 5.8 C 33 %
2193 18-02-2020 05:27:17 6 C 33 %
2194 18-02-2020 05:37:17 5.7 C 33 %
2195 18-02-2020 05:47:18 5.7 C 33 %
2196 18-02-2020 05:57:18 5.8 C 34 %
2197 18-02-2020 06:07:18 5.6 C 34 %
2198 18-02-2020 06:17:17 5.6 C 34 %
2199 18-02-2020 06:27:17 5.7 C 34 %
2200 18-02-2020 06:37:18 5.6 C 34 %
Sensor: Nr:Datum:Temp:Feuchte:
Aussen-T/F 2201 18-02-2020 06:47:17 5.6 C 34 %
2202 18-02-2020 06:57:17 5.4 C 34 %
2203 18-02-2020 07:07:18 5.2 C 34 %
2204 18-02-2020 07:17:18 5.4 C 34 %
2205 18-02-2020 07:27:18 5.3 C 35 %
2206 18-02-2020 07:37:17 5.1 C 35 %
2207 18-02-2020 07:47:17 5 C 35 %
2208 18-02-2020 07:57:17 5.3 C 35 %
2209 18-02-2020 08:07:17 4.8 C 35 %
2210 18-02-2020 08:17:17 5.4 C 34 %
2211 18-02-2020 08:27:17 5.1 C 35 %
2212 18-02-2020 08:37:18 5.1 C 35 %
2213 18-02-2020 08:47:18 5.3 C 35 %
2214 18-02-2020 08:57:18 5.3 C 35 %
2215 18-02-2020 09:07:18 5.4 C 35 %
2216 18-02-2020 09:17:18 5.6 C 35 %
2217 18-02-2020 09:27:18 5.6 C 34 %
2218 18-02-2020 09:37:17 5.8 C 34 %
2219 18-02-2020 09:47:17 6 C 33 %
2220 18-02-2020 09:57:17 6.2 C 32 %
2221 18-02-2020 10:07:17 6.1 C 32 %
2222 18-02-2020 10:17:18 6.1 C 32 %
2223 18-02-2020 10:27:18 6.3 C 32 %
2224 18-02-2020 10:37:17 6.7 C 32 %
2225 18-02-2020 10:47:18 6.9 C 31 %
Sensor: Nr:Datum:Temp:Feuchte:
Aussen-T/F 2226 18-02-2020 10:57:18 7 C 30 %
2227 18-02-2020 11:07:17 7.4 C 30 %
2228 18-02-2020 11:17:17 8.1 C 30 %
2229 18-02-2020 11:27:17 8.2 C 29 %
2230 18-02-2020 11:37:17 7.6 C 29 %
2231 18-02-2020 11:47:17 7.7 C 29 %
2232 18-02-2020 11:57:17 7.5 C 29 %
2233 18-02-2020 12:07:17 7.8 C 29 %
2234 18-02-2020 12:17:18 8.1 C 29 %
2235 18-02-2020 12:27:18 8 C 28 %
2236 18-02-2020 12:37:17 7.9 C 28 %
2237 18-02-2020 12:47:17 8.5 C 28 %
2238 18-02-2020 12:57:17 9.7 C 25 %
2239 18-02-2020 13:07:17 10 C 20 %
2240 18-02-2020 13:17:17 8.5 C 25 %
2241 18-02-2020 13:27:17 7.8 C 26 %
2242 18-02-2020 13:37:18 8.6 C 26 %
2243 18-02-2020 13:47:17 9.2 C 25 %
2244 18-02-2020 13:57:17 8.2 C 26 %
2245 18-02-2020 14:07:18 8.4 C 26 %
2246 18-02-2020 14:17:17 8.1 C 26 %
2247 18-02-2020 14:27:17 8.1 C 26 %
2248 18-02-2020 14:37:17 8 C 26 %
2249 18-02-2020 14:47:17 8.1 C 26 %
2250 18-02-2020 14:57:17 9 C 25 %
Sensor: Nr:Datum:Temp:Feuchte:
Aussen-T/F 2251 18-02-2020 15:07:17 8.5 C 25 %
2252 18-02-2020 15:17:17 8.8 C 26 %
2253 18-02-2020 15:27:17 8.5 C 25 %
2254 18-02-2020 15:37:18 8.4 C 25 %
2255 18-02-2020 15:47:18 8.3 C 26 %
2256 18-02-2020 15:57:18 8.9 C 25 %
2257 18-02-2020 16:07:18 8.4 C 25 %
2258 18-02-2020 16:17:18 8.2 C 26 %
2259 18-02-2020 16:27:18 8.1 C 26 %
2260 18-02-2020 16:37:17 8.1 C 26 %
2261 18-02-2020 16:47:17 7.9 C 26 %
2262 18-02-2020 16:57:17 7.8 C 26 %
2263 18-02-2020 17:07:17 7.8 C 27 %
2264 18-02-2020 17:17:18 7.9 C 26 %
2265 18-02-2020 17:27:18 7.9 C 26 %
2266 18-02-2020 17:37:18 7.7 C 27 %
2267 18-02-2020 17:47:17 7.6 C 27 %
2268 18-02-2020 17:57:18 7.6 C 27 %
2269 18-02-2020 18:07:18 7.4 C 29 %
2270 18-02-2020 18:17:18 7 C 29 %
2271 18-02-2020 18:27:18 7 C 30 %
2272 18-02-2020 18:37:17 6.4 C 31 %
2273 18-02-2020 18:47:18 6.6 C 31 %
2274 18-02-2020 18:57:18 6.1 C 32 %
2275 18-02-2020 19:07:18 5.8 C 33 %
Sensor: Nr:Datum:Temp:Feuchte:
Aussen-T/F 2276 18-02-2020 19:17:17 5.3 C 34 %
2277 18-02-2020 19:27:17 5.5 C 35 %
2278 18-02-2020 19:37:17 5.5 C 35 %
2279 18-02-2020 19:47:17 5.9 C 34 %
2280 18-02-2020 19:57:17 5.7 C 34 %
2281 18-02-2020 20:07:18 5.5 C 34 %
2282 18-02-2020 20:17:18 5.7 C 35 %
2283 18-02-2020 20:27:18 6.4 C 33 %
2284 18-02-2020 20:37:17 6.7 C 32 %
2285 18-02-2020 20:47:17 6.5 C 32 %
2286 18-02-2020 20:57:17 6 C 33 %
2287 18-02-2020 21:07:17 6.3 C 33 %
2288 18-02-2020 21:17:17 6.3 C 33 %
2289 18-02-2020 21:27:17 6.5 C 32 %
2290 18-02-2020 21:37:17 6.3 C 33 %
2291 18-02-2020 21:47:17 6.2 C 33 %
2292 18-02-2020 21:57:17 6.5 C 33 %
2293 18-02-2020 22:07:17 6.9 C 32 %
2294 18-02-2020 22:17:17 6.9 C 33 %
2295 18-02-2020 22:27:17 7 C 32 %
2296 18-02-2020 22:37:17 6.9 C 33 %
2297 18-02-2020 22:47:17 6.8 C 33 %
2298 18-02-2020 22:57:17 6.8 C 33 %
2299 18-02-2020 23:07:18 6.7 C 33 %
2300 18-02-2020 23:17:17 6.5 C 33 %
Sensor: Nr:Datum:Temp:Feuchte:
Aussen-T/F 2301 18-02-2020 23:27:17 6.2 C 34 %
2302 18-02-2020 23:37:18 6.1 C 34 %
2303 18-02-2020 23:47:17 6.4 C 34 %
2304 18-02-2020 23:57:17 6.2 C 34 %
2305 19-02-2020 00:07:18 6.8 C 33 %
2306 19-02-2020 00:17:17 6.8 C 33 %
2307 19-02-2020 00:27:17 6.7 C 32 %
2308 19-02-2020 00:37:17 6.9 C 32 %
2309 19-02-2020 00:47:17 7 C 31 %
2310 19-02-2020 00:57:17 6.8 C 32 %
2311 19-02-2020 01:07:17 7 C 32 %
2312 19-02-2020 01:17:17 7 C 31 %
2313 19-02-2020 01:27:17 6.8 C 32 %
2314 19-02-2020 01:37:17 7 C 31 %
2315 19-02-2020 01:47:17 6.8 C 32 %
2316 19-02-2020 01:57:17 7 C 31 %
2317 19-02-2020 02:07:18 6.9 C 32 %
2318 19-02-2020 02:17:17 7.2 C 31 %
2319 19-02-2020 02:27:17 7 C 31 %
2320 19-02-2020 02:37:17 6.8 C 32 %
2321 19-02-2020 02:47:18 6.8 C 32 %
2322 19-02-2020 02:57:18 6.9 C 32 %
2323 19-02-2020 03:07:17 6.9 C 32 %
2324 19-02-2020 03:17:17 6.7 C 33 %
2325 19-02-2020 03:27:17 6.6 C 33 %
Sensor: Nr:Datum:Temp:Feuchte:
Aussen-T/F 2326 19-02-2020 03:37:17 6.4 C 34 %
2327 19-02-2020 03:47:17 6.2 C 35 %
2328 19-02-2020 03:57:17 5.9 C 36 %
2329 19-02-2020 04:07:18 6 C 36 %
2330 19-02-2020 04:17:17 6 C 36 %
2331 19-02-2020 04:27:18 5.9 C 37 %
2332 19-02-2020 04:37:18 5.8 C 37 %
2333 19-02-2020 04:47:17 5.9 C 37 %
2334 19-02-2020 04:57:17 6.2 C 36 %
2335 19-02-2020 05:07:18 6.3 C 36 %
2336 19-02-2020 05:17:17 6.4 C 35 %
2337 19-02-2020 05:27:17 6.4 C 35 %
2338 19-02-2020 05:37:17 6.3 C 35 %
2339 19-02-2020 05:47:17 6.3 C 34 %
2340 19-02-2020 05:57:17 6 C 34 %
2341 19-02-2020 06:07:18 6 C 34 %
2342 19-02-2020 06:17:17 5.9 C 35 %
2343 19-02-2020 06:27:17 5.9 C 35 %
2344 19-02-2020 06:37:18 5.8 C 35 %
2345 19-02-2020 06:47:17 5.7 C 35 %
2346 19-02-2020 06:57:17 5.4 C 35 %
2347 19-02-2020 07:07:17 5.4 C 34 %
2348 19-02-2020 07:17:17 5.6 C 34 %
2349 19-02-2020 07:27:18 5.6 C 34 %
2350 19-02-2020 07:37:18 5.3 C 35 %
Sensor: Nr:Datum:Temp:Feuchte:
Aussen-T/F 2351 19-02-2020 07:47:18 5.4 C 34 %
2352 19-02-2020 07:57:18 5.3 C 34 %
2353 19-02-2020 08:07:18 5.2 C 33 %
2354 19-02-2020 08:17:17 5.3 C 34 %
2355 19-02-2020 08:27:17 4.9 C 35 %
2356 19-02-2020 08:37:17 4.9 C 34 %
2357 19-02-2020 08:47:17 4.8 C 34 %
2358 19-02-2020 08:57:17 5 C 33 %
2359 19-02-2020 09:07:17 5.1 C 33 %
2360 19-02-2020 09:17:18 4.9 C 34 %
2361 19-02-2020 09:27:18 5.1 C 33 %
2362 19-02-2020 09:37:18 5.3 C 32 %
2363 19-02-2020 09:47:17 5.3 C 32 %
2364 19-02-2020 09:57:17 5.1 C 33 %
2365 19-02-2020 10:07:18 4.2 C 35 %
2366 19-02-2020 10:17:17 4.7 C 34 %
2367 19-02-2020 10:27:17 5.2 C 33 %
2368 19-02-2020 10:37:17 5.7 C 32 %
2369 19-02-2020 10:47:17 5.8 C 31 %
2370 19-02-2020 10:57:17 5.9 C 31 %
2371 19-02-2020 11:07:18 6.4 C 31 %
2372 19-02-2020 11:17:17 6.9 C 30 %
2373 19-02-2020 11:27:17 6.7 C 30 %
2374 19-02-2020 11:37:17 6.4 C 28 %
2375 19-02-2020 11:47:18 6.5 C 27 %
Sensor: Nr:Datum:Temp:Feuchte:
Aussen-T/F 2376 19-02-2020 11:57:18 6.6 C 27 %
2377 19-02-2020 12:07:18 6.7 C 27 %
2378 19-02-2020 12:17:17 6.6 C 26 %
2379 19-02-2020 12:27:18 6.8 C 26 %
2380 19-02-2020 12:37:18 6.8 C 25 %
2381 19-02-2020 12:47:18 6.9 C 25 %
2382 19-02-2020 12:57:18 7 C 25 %
2383 19-02-2020 13:07:17 7.2 C 25 %
2384 19-02-2020 13:17:17 7.1 C 20 %
2385 19-02-2020 13:27:17 7.1 C 20 %
2386 19-02-2020 13:37:18 7.3 C 20 %
2387 19-02-2020 13:47:18 7.8 C 20 %
2388 19-02-2020 13:57:18 7.7 C 20 %
2389 19-02-2020 14:07:17 7.7 C 20 %
2390 19-02-2020 14:17:17 7.7 C 20 %
2391 19-02-2020 14:27:17 7.4 C 20 %
2392 19-02-2020 14:37:17 7.1 C 20 %
2393 19-02-2020 14:47:18 7.2 C 20 %
2394 19-02-2020 14:57:18 7.2 C 20 %
2395 19-02-2020 15:07:17 8.1 C 20 %
2396 19-02-2020 15:17:17 8.2 C 20 %
2397 19-02-2020 15:27:17 8.3 C 20 %
2398 19-02-2020 15:37:17 7.5 C 20 %
2399 19-02-2020 15:47:17 7.6 C 20 %
2400 19-02-2020 15:57:17 8.5 C 20 %
Sensor: Nr:Datum:Temp:Feuchte:
Aussen-T/F 2401 19-02-2020 16:07:17 8 C 20 %
2402 19-02-2020 16:17:17 8.2 C 20 %
2403 19-02-2020 16:27:17 7.9 C 20 %
2404 19-02-2020 16:37:18 7.5 C 20 %
2405 19-02-2020 16:47:18 7.4 C 20 %
2406 19-02-2020 16:57:18 7.2 C 20 %
2407 19-02-2020 17:07:18 7.1 C 20 %
2408 19-02-2020 17:17:18 6.9 C 20 %
2409 19-02-2020 17:27:18 6.5 C 20 %
2410 19-02-2020 17:37:17 6.2 C 20 %
2411 19-02-2020 17:47:18 5.6 C 20 %
2412 19-02-2020 17:57:18 5 C 23 %
2413 19-02-2020 18:07:17 4.5 C 28 %
2414 19-02-2020 18:17:17 4.5 C 28 %
2415 19-02-2020 18:27:17 4.2 C 30 %
2416 19-02-2020 18:37:17 3.7 C 32 %
2417 19-02-2020 18:47:17 3.3 C 32 %
2418 19-02-2020 18:57:17 2.9 C 34 %
2419 19-02-2020 19:07:17 2.8 C 35 %
2420 19-02-2020 19:17:17 2.4 C 35 %
2421 19-02-2020 19:27:17 2.3 C 35 %
2422 19-02-2020 19:37:17 2 C 35 %
2423 19-02-2020 19:47:17 1.7 C 37 %
2424 19-02-2020 19:57:17 2 C 36 %
2425 19-02-2020 20:07:17 1.7 C 37 %
Sensor: Nr:Datum:Temp:Feuchte:
Aussen-T/F 2426 19-02-2020 20:17:17 1.8 C 37 %
2427 19-02-2020 20:27:17 2.1 C 35 %
2428 19-02-2020 20:37:17 2 C 35 %
2429 19-02-2020 20:47:17 2.2 C 35 %
2430 19-02-2020 20:57:17 2.8 C 35 %
2431 19-02-2020 21:07:18 3.4 C 33 %
2432 19-02-2020 21:17:17 3.4 C 33 %
2433 19-02-2020 21:27:17 3 C 33 %
2434 19-02-2020 21:37:17 4 C 31 %
2435 19-02-2020 21:47:17 4.1 C 31 %
2436 19-02-2020 21:57:17 4.5 C 31 %
2437 19-02-2020 22:07:17 4.9 C 31 %
2438 19-02-2020 22:17:18 5.5 C 30 %
2439 19-02-2020 22:27:18 5.5 C 30 %
2440 19-02-2020 22:37:18 5.5 C 30 %
2441 19-02-2020 22:47:17 5.2 C 30 %
2442 19-02-2020 22:57:18 5.1 C 31 %
2443 19-02-2020 23:07:18 4.6 C 33 %
2444 19-02-2020 23:17:17 4.5 C 35 %
2445 19-02-2020 23:27:17 4.2 C 37 %
2446 19-02-2020 23:37:17 4.3 C 37 %
2447 19-02-2020 23:47:17 4.6 C 36 %
2448 19-02-2020 23:57:17 4.6 C 36 %
2449 20-02-2020 00:07:17 4.9 C 36 %
2450 20-02-2020 00:17:17 4.9 C 36 %
Sensor: Nr:Datum:Temp:Feuchte:
Aussen-T/F 2451 20-02-2020 00:27:18 5.2 C 35 %
2452 20-02-2020 00:37:18 5.4 C 35 %
2453 20-02-2020 00:47:17 5.5 C 35 %
2454 20-02-2020 00:57:17 4.9 C 36 %
2455 20-02-2020 01:07:17 4.8 C 38 %
2456 20-02-2020 01:17:17 4.8 C 38 %
2457 20-02-2020 01:27:18 4.8 C 38 %
2458 20-02-2020 01:37:18 5 C 37 %
2459 20-02-2020 01:47:17 5.3 C 37 %
2460 20-02-2020 01:57:17 5.4 C 36 %
2461 20-02-2020 02:07:18 5.6 C 36 %
2462 20-02-2020 02:17:17 5.6 C 36 %
2463 20-02-2020 02:27:17 5.8 C 36 %
2464 20-02-2020 02:37:17 5.7 C 35 %
2465 20-02-2020 02:47:17 5.8 C 35 %
2466 20-02-2020 02:57:17 5.9 C 35 %
2467 20-02-2020 03:07:17 6 C 35 %
2468 20-02-2020 03:17:17 6.2 C 35 %
2469 20-02-2020 03:27:17 6.3 C 35 %
2470 20-02-2020 03:37:18 6.3 C 35 %
2471 20-02-2020 03:47:17 6.4 C 35 %
2472 20-02-2020 03:57:17 6.3 C 35 %
2473 20-02-2020 04:07:18 6.4 C 35 %
2474 20-02-2020 04:17:17 6.5 C 35 %
2475 20-02-2020 04:27:17 6.5 C 35 %
Sensor: Nr:Datum:Temp:Feuchte:
Aussen-T/F 2476 20-02-2020 04:37:17 6.6 C 35 %
2477 20-02-2020 04:47:18 6.5 C 35 %
2478 20-02-2020 04:57:18 6.5 C 35 %
2479 20-02-2020 05:07:18 6.5 C 35 %
2480 20-02-2020 05:17:17 6.5 C 35 %
2481 20-02-2020 05:27:17 6.5 C 35 %
2482 20-02-2020 05:37:17 6.7 C 35 %
2483 20-02-2020 05:47:17 6.5 C 35 %
2484 20-02-2020 05:57:17 6.6 C 35 %
2485 20-02-2020 06:07:17 6.5 C 35 %
2486 20-02-2020 06:17:17 6.3 C 36 %
2487 20-02-2020 06:27:17 6.3 C 36 %
2488 20-02-2020 06:37:17 6.5 C 36 %
2489 20-02-2020 06:47:17 6.6 C 36 %
2490 20-02-2020 06:57:17 6.5 C 36 %
2491 20-02-2020 07:07:17 6.5 C 36 %
2492 20-02-2020 07:17:17 6.3 C 37 %
2493 20-02-2020 07:27:17 6.5 C 37 %
2494 20-02-2020 07:37:17 6.6 C 36 %
2495 20-02-2020 07:47:17 6.7 C 36 %
2496 20-02-2020 07:57:17 6.6 C 37 %
2497 20-02-2020 08:07:17 6.5 C 37 %
2498 20-02-2020 08:17:17 6.6 C 37 %
2499 20-02-2020 08:27:17 6.6 C 37 %
2500 20-02-2020 08:37:17 6.6 C 37 %
Sensor: Nr:Datum:Temp:Feuchte:
Aussen-T/F 2501 20-02-2020 08:47:18 6.7 C 37 %
2502 20-02-2020 08:57:18 6.8 C 37 %
2503 20-02-2020 09:07:18 7.2 C 36 %
2504 20-02-2020 09:17:18 7.3 C 36 %
2505 20-02-2020 09:27:18 7.6 C 35 %
2506 20-02-2020 09:37:17 7.8 C 35 %
2507 20-02-2020 09:47:17 7.9 C 35 %
2508 20-02-2020 09:57:17 8.1 C 34 %
2509 20-02-2020 10:07:18 8.1 C 34 %
2510 20-02-2020 10:17:17 8.3 C 34 %
2511 20-02-2020 10:27:17 8.5 C 33 %
2512 20-02-2020 10:37:17 9 C 32 %
2513 20-02-2020 10:47:17 8.8 C 32 %
2514 20-02-2020 10:57:17 8.9 C 32 %
2515 20-02-2020 11:07:18 9.1 C 32 %
2516 20-02-2020 11:17:18 10.1 C 30 %
2517 20-02-2020 11:27:18 10 C 30 %
2518 20-02-2020 11:37:18 9.4 C 30 %
2519 20-02-2020 11:47:17 9.1 C 30 %
2520 20-02-2020 11:57:18 9.2 C 30 %
2521 20-02-2020 12:07:18 9.3 C 30 %
2522 20-02-2020 12:17:18 9.8 C 30 %
2523 20-02-2020 12:27:18 10.1 C 28 %
2524 20-02-2020 12:37:18 9.2 C 30 %
2525 20-02-2020 12:47:18 8.2 C 33 %
Sensor: Nr:Datum:Temp:Feuchte:
Aussen-T/F 2526 20-02-2020 12:57:18 8.6 C 33 %
2527 20-02-2020 13:07:18 9.1 C 32 %
2528 20-02-2020 13:17:18 9.7 C 31 %
2529 20-02-2020 13:27:18 9.6 C 30 %
2530 20-02-2020 13:37:18 9.6 C 30 %
2531 20-02-2020 13:47:17 9.4 C 31 %
2532 20-02-2020 13:57:17 10.3 C 29 %
2533 20-02-2020 14:07:17 10.2 C 29 %
2534 20-02-2020 14:17:17 10.1 C 28 %
2535 20-02-2020 14:27:18 10 C 28 %
2536 20-02-2020 14:37:18 10.7 C 28 %
2537 20-02-2020 14:47:17 9.8 C 29 %
2538 20-02-2020 14:57:17 9.8 C 29 %
2539 20-02-2020 15:07:18 9.6 C 30 %
2540 20-02-2020 15:17:17 10.1 C 28 %
2541 20-02-2020 15:27:18 10.1 C 28 %
2542 20-02-2020 15:37:18 10.5 C 28 %
2543 20-02-2020 15:47:17 10.5 C 28 %
2544 20-02-2020 15:57:17 9.6 C 29 %
2545 20-02-2020 16:07:17 9.5 C 29 %
2546 20-02-2020 16:17:17 9.5 C 29 %
2547 20-02-2020 16:27:18 9.3 C 29 %
2548 20-02-2020 16:37:18 9.1 C 30 %
2549 20-02-2020 16:47:17 9.1 C 29 %
2550 20-02-2020 16:57:17 9.1 C 29 %
Sensor: Nr:Datum:Temp:Feuchte:
Aussen-T/F 2551 20-02-2020 17:07:18 9 C 29 %
2552 20-02-2020 17:17:17 9.2 C 29 %
2553 20-02-2020 17:27:18 9.2 C 29 %
2554 20-02-2020 17:37:18 9.2 C 29 %
2555 20-02-2020 17:47:17 9.1 C 29 %
2556 20-02-2020 17:57:17 9.1 C 29 %
2557 20-02-2020 18:07:18 9.1 C 29 %
2558 20-02-2020 18:17:18 9 C 29 %
2559 20-02-2020 18:27:18 8.9 C 30 %
2560 20-02-2020 18:37:18 8.3 C 30 %
2561 20-02-2020 18:47:18 8.1 C 31 %
2562 20-02-2020 18:57:18 7.7 C 33 %
2563 20-02-2020 19:07:18 7.7 C 33 %
2564 20-02-2020 19:17:18 7.8 C 32 %
2565 20-02-2020 19:27:18 8.1 C 31 %
2566 20-02-2020 19:37:17 8.6 C 30 %
2567 20-02-2020 19:47:18 9 C 30 %
2568 20-02-2020 19:57:18 9.1 C 30 %
2569 20-02-2020 20:07:18 9 C 30 %
2570 20-02-2020 20:17:18 9 C 30 %
2571 20-02-2020 20:27:18 9.3 C 29 %
2572 20-02-2020 20:37:18 9.3 C 29 %
2573 20-02-2020 20:47:18 9.2 C 29 %
2574 20-02-2020 20:57:18 9.2 C 29 %
2575 20-02-2020 21:07:18 8.8 C 30 %
Sensor: Nr:Datum:Temp:Feuchte:
Aussen-T/F 2576 20-02-2020 21:17:18 8.6 C 30 %
2577 20-02-2020 21:27:18 8.6 C 31 %
2578 20-02-2020 21:37:18 8.2 C 31 %
2579 20-02-2020 21:47:17 8.2 C 32 %
2580 20-02-2020 21:57:18 7.8 C 33 %
2581 20-02-2020 22:07:18 7.9 C 33 %
2582 20-02-2020 22:17:17 7.8 C 35 %
2583 20-02-2020 22:27:18 7.4 C 35 %
2584 20-02-2020 22:37:18 7.1 C 38 %
2585 20-02-2020 22:47:18 6 C 37 %
2586 20-02-2020 22:57:18 5.8 C 37 %
2587 20-02-2020 23:07:18 5.7 C 39 %
2588 20-02-2020 23:17:18 5.8 C 37 %
2589 20-02-2020 23:27:18 5.8 C 37 %
2590 20-02-2020 23:37:17 6.1 C 35 %
2591 20-02-2020 23:47:17 5.9 C 35 %
2592 20-02-2020 23:57:17 5.2 C 35 %
2593 21-02-2020 00:07:17 4.6 C 38 %
2594 21-02-2020 00:17:18 4.5 C 39 %
2595 21-02-2020 00:27:18 4.4 C 37 %
2596 21-02-2020 00:37:18 4.8 C 36 %
2597 21-02-2020 00:47:18 4.7 C 35 %
2598 21-02-2020 00:57:18 4.6 C 35 %
2599 21-02-2020 01:07:18 4.5 C 35 %
2600 21-02-2020 01:17:17 4.1 C 35 %
Sensor: Nr:Datum:Temp:Feuchte:
Aussen-T/F 2601 21-02-2020 01:27:17 4.1 C 34 %
2602 21-02-2020 01:37:17 4 C 34 %
2603 21-02-2020 01:47:17 3.6 C 35 %
2604 21-02-2020 01:57:17 3.6 C 35 %
2605 21-02-2020 02:07:18 3.5 C 35 %
2606 21-02-2020 02:17:18 3.8 C 35 %
2607 21-02-2020 02:27:18 3.4 C 36 %
2608 21-02-2020 02:37:18 4 C 35 %
2609 21-02-2020 02:47:17 3.9 C 35 %
2610 21-02-2020 02:57:18 3.6 C 35 %
2611 21-02-2020 03:07:18 4 C 34 %
2612 21-02-2020 03:17:18 3.3 C 35 %
2613 21-02-2020 03:27:18 2.9 C 37 %
2614 21-02-2020 03:37:18 2.4 C 39 %
2615 21-02-2020 03:47:17 2.7 C 38 %
2616 21-02-2020 03:57:17 2.1 C 40 %
2617 21-02-2020 04:07:18 2.1 C 40 %
2618 21-02-2020 04:17:18 2.2 C 39 %
2619 21-02-2020 04:27:18 2.4 C 39 %
2620 21-02-2020 04:37:18 2 C 40 %
2621 21-02-2020 04:47:17 2.5 C 39 %
2622 21-02-2020 04:57:17 2.3 C 39 %
2623 21-02-2020 05:07:17 2 C 39 %
2624 21-02-2020 05:17:17 1.6 C 41 %
2625 21-02-2020 05:27:17 2.1 C 39 %
Sensor: Nr:Datum:Temp:Feuchte:
Aussen-T/F 2626 21-02-2020 05:37:17 2.5 C 38 %
2627 21-02-2020 05:47:17 1.9 C 40 %
2628 21-02-2020 05:57:17 2.4 C 38 %
2629 21-02-2020 06:07:17 2.3 C 38 %
2630 21-02-2020 06:17:17 1.7 C 40 %
2631 21-02-2020 06:27:17 1.9 C 40 %
2632 21-02-2020 06:37:18 1.4 C 41 %
2633 21-02-2020 06:47:17 1.6 C 40 %
2634 21-02-2020 06:57:17 2.1 C 38 %
2635 21-02-2020 07:07:17 2.4 C 37 %
2636 21-02-2020 07:17:18 2.8 C 36 %
2637 21-02-2020 07:27:18 2.7 C 36 %
2638 21-02-2020 07:37:18 3 C 35 %
2639 21-02-2020 07:47:17 2.5 C 36 %
2640 21-02-2020 07:57:17 2.2 C 37 %
2641 21-02-2020 08:07:17 1.5 C 39 %
2642 21-02-2020 08:17:17 1.3 C 40 %
2643 21-02-2020 08:27:17 1.1 C 40 %
2644 21-02-2020 08:37:17 1.7 C 40 %
2645 21-02-2020 08:47:17 2.2 C 38 %
2646 21-02-2020 08:57:17 2.7 C 37 %
2647 21-02-2020 09:07:17 2.6 C 37 %
2648 21-02-2020 09:17:17 3.1 C 36 %
2649 21-02-2020 09:27:17 2.9 C 37 %
2650 21-02-2020 09:37:17 2.9 C 36 %
Sensor: Nr:Datum:Temp:Feuchte:
Aussen-T/F 2651 21-02-2020 09:47:17 3.1 C 36 %
2652 21-02-2020 09:57:17 3.6 C 35 %
2653 21-02-2020 10:07:17 3.5 C 36 %
2654 21-02-2020 10:17:17 3.5 C 36 %
2655 21-02-2020 10:27:17 3.9 C 35 %
2656 21-02-2020 10:37:18 4.5 C 34 %
2657 21-02-2020 10:47:17 4.7 C 34 %
2658 21-02-2020 10:57:17 4.8 C 34 %
2659 21-02-2020 11:07:18 5.9 C 32 %
2660 21-02-2020 11:17:17 6.3 C 31 %
2661 21-02-2020 11:27:17 6.8 C 30 %
2662 21-02-2020 11:37:18 5.9 C 31 %
2663 21-02-2020 11:47:17 6.7 C 30 %
2664 21-02-2020 11:57:17 7.1 C 30 %
2665 21-02-2020 12:07:18 7.3 C 30 %
2666 21-02-2020 12:17:18 7.3 C 29 %
2667 21-02-2020 12:27:18 7.3 C 29 %
2668 21-02-2020 12:37:18 7.4 C 29 %
2669 21-02-2020 12:47:17 7.4 C 29 %
2670 21-02-2020 12:57:17 7.9 C 30 %
2671 21-02-2020 13:07:17 8.3 C 27 %
2672 21-02-2020 13:17:18 7.8 C 27 %
2673 21-02-2020 13:27:18 8.9 C 27 %
2674 21-02-2020 13:37:18 8.2 C 27 %
2675 21-02-2020 13:47:17 7.5 C 27 %
Sensor: Nr:Datum:Temp:Feuchte:
Aussen-T/F 2676 21-02-2020 13:57:17 7.9 C 27 %
2677 21-02-2020 14:07:18 7.8 C 27 %
2678 21-02-2020 14:17:17 7.9 C 27 %
2679 21-02-2020 14:27:18 8.8 C 27 %
2680 21-02-2020 14:37:18 8.4 C 27 %
2681 21-02-2020 14:47:17 8.7 C 27 %
2682 21-02-2020 14:57:17 9 C 26 %
2683 21-02-2020 15:07:18 9 C 26 %
2684 21-02-2020 15:17:18 8.4 C 26 %
2685 21-02-2020 15:27:18 8.7 C 26 %
2686 21-02-2020 15:37:18 8.1 C 26 %
2687 21-02-2020 15:47:17 8.3 C 26 %
2688 21-02-2020 15:57:17 8.3 C 26 %
2689 21-02-2020 16:07:17 8.1 C 26 %
2690 21-02-2020 16:17:17 8 C 27 %
2691 21-02-2020 16:27:17 8 C 26 %
2692 21-02-2020 16:37:17 8.1 C 26 %
2693 21-02-2020 16:47:17 7.9 C 26 %
2694 21-02-2020 16:57:17 7.9 C 26 %
2695 21-02-2020 17:07:18 7.7 C 26 %
2696 21-02-2020 17:17:17 7.3 C 26 %
2697 21-02-2020 17:27:17 7.3 C 26 %
2698 21-02-2020 17:37:18 6.8 C 28 %
2699 21-02-2020 17:47:17 6.5 C 28 %
2700 21-02-2020 17:57:18 6.4 C 29 %
Sensor: Nr:Datum:Temp:Feuchte:
Aussen-T/F 2701 21-02-2020 18:07:18 5.9 C 30 %
2702 21-02-2020 18:17:17 5.6 C 31 %
2703 21-02-2020 18:27:17 4.9 C 33 %
2704 21-02-2020 18:37:17 4.5 C 33 %
2705 21-02-2020 18:47:17 4.3 C 34 %
2706 21-02-2020 18:57:17 4.2 C 34 %
2707 21-02-2020 19:07:17 4.7 C 34 %
2708 21-02-2020 19:17:17 4 C 34 %
2709 21-02-2020 19:27:17 4 C 35 %
2710 21-02-2020 19:37:17 3.8 C 35 %
2711 21-02-2020 19:47:17 4 C 34 %
2712 21-02-2020 19:57:17 4.7 C 33 %
2713 21-02-2020 20:07:18 4.9 C 33 %
2714 21-02-2020 20:17:18 4.4 C 33 %
2715 21-02-2020 20:27:18 4.4 C 33 %
2716 21-02-2020 20:37:18 5.6 C 31 %
2717 21-02-2020 20:47:17 5.8 C 31 %
2718 21-02-2020 20:57:17 5.7 C 31 %
2719 21-02-2020 21:07:18 5.4 C 31 %
2720 21-02-2020 21:17:18 5.1 C 31 %
2721 21-02-2020 21:27:18 4.9 C 32 %
2722 21-02-2020 21:37:18 4.3 C 34 %
2723 21-02-2020 21:47:18 4.3 C 35 %
2724 21-02-2020 21:57:18 4.6 C 34 %
2725 21-02-2020 22:07:18 4 C 35 %
Sensor: Nr:Datum:Temp:Feuchte:
Aussen-T/F 2726 21-02-2020 22:17:17 3.4 C 36 %
2727 21-02-2020 22:27:17 3.6 C 38 %
2728 21-02-2020 22:37:17 3.8 C 37 %
2729 21-02-2020 22:47:17 3.7 C 37 %
2730 21-02-2020 22:57:17 3.2 C 37 %
2731 21-02-2020 23:07:17 3 C 38 %
2732 21-02-2020 23:17:17 3.6 C 38 %
2733 21-02-2020 23:27:18 3.3 C 38 %
2734 21-02-2020 23:37:18 3.9 C 37 %
2735 21-02-2020 23:47:18 4.2 C 36 %
2736 21-02-2020 23:57:18 4 C 36 %
2737 22-02-2020 00:07:18 3.3 C 37 %
2738 22-02-2020 00:17:17 3.4 C 38 %
2739 22-02-2020 00:27:17 3.7 C 37 %
2740 22-02-2020 00:37:17 3.8 C 37 %
2741 22-02-2020 00:47:18 4.1 C 36 %
2742 22-02-2020 00:57:18 3.6 C 37 %
2743 22-02-2020 01:07:18 3.8 C 37 %
2744 22-02-2020 01:17:18 4 C 35 %
2745 22-02-2020 01:27:18 3.8 C 37 %
2746 22-02-2020 01:37:18 3.4 C 37 %
2747 22-02-2020 01:47:17 3.1 C 37 %
2748 22-02-2020 01:57:18 3.1 C 38 %
2749 22-02-2020 02:07:18 4.6 C 36 %
2750 22-02-2020 02:17:18 4.7 C 35 %
Sensor: Nr:Datum:Temp:Feuchte:
Aussen-T/F 2751 22-02-2020 02:27:18 4.4 C 35 %
2752 22-02-2020 02:37:17 4.8 C 35 %
2753 22-02-2020 02:47:17 5.1 C 34 %
2754 22-02-2020 02:57:17 4.7 C 35 %
2755 22-02-2020 03:07:17 4.8 C 35 %
2756 22-02-2020 03:17:17 5 C 34 %
2757 22-02-2020 03:27:17 4.7 C 35 %
2758 22-02-2020 03:37:17 5.2 C 34 %
2759 22-02-2020 03:47:17 4.9 C 35 %
2760 22-02-2020 03:57:18 4.6 C 35 %
2761 22-02-2020 04:07:18 4.5 C 35 %
2762 22-02-2020 04:17:18 4.7 C 35 %
2763 22-02-2020 04:27:18 4.2 C 35 %
2764 22-02-2020 04:37:18 4.2 C 35 %
2765 22-02-2020 04:47:17 4.7 C 35 %
2766 22-02-2020 04:57:18 5 C 34 %
2767 22-02-2020 05:07:18 5 C 34 %
2768 22-02-2020 05:17:18 5.2 C 34 %
2769 22-02-2020 05:27:18 5.4 C 34 %
2770 22-02-2020 05:37:17 5.4 C 33 %
2771 22-02-2020 05:47:18 5.4 C 33 %
2772 22-02-2020 05:57:18 5.2 C 34 %
2773 22-02-2020 06:07:18 5.2 C 33 %
2774 22-02-2020 06:17:17 5.3 C 34 %
2775 22-02-2020 06:27:17 5.3 C 34 %
Sensor: Nr:Datum:Temp:Feuchte:
Aussen-T/F 2776 22-02-2020 06:37:17 5.5 C 33 %
2777 22-02-2020 06:47:18 5.3 C 33 %
2778 22-02-2020 06:57:18 5.4 C 33 %
2779 22-02-2020 07:07:18 5.2 C 33 %
2780 22-02-2020 07:17:18 5 C 33 %
2781 22-02-2020 07:27:18 5 C 34 %
2782 22-02-2020 07:37:18 4.8 C 35 %
2783 22-02-2020 07:47:17 5.3 C 34 %
2784 22-02-2020 07:57:18 5 C 34 %
2785 22-02-2020 08:07:18 5.4 C 33 %
2786 22-02-2020 08:17:18 5.4 C 33 %
2787 22-02-2020 08:27:18 5.2 C 33 %
2788 22-02-2020 08:37:18 5.4 C 33 %
2789 22-02-2020 08:47:17 5.7 C 33 %
2790 22-02-2020 08:57:17 5.9 C 33 %
2791 22-02-2020 09:07:17 6.1 C 32 %
2792 22-02-2020 09:17:17 6.3 C 32 %
2793 22-02-2020 09:27:17 6.4 C 32 %
2794 22-02-2020 09:37:17 6.4 C 31 %
2795 22-02-2020 09:47:17 6.5 C 31 %
2796 22-02-2020 09:57:17 6.9 C 31 %
2797 22-02-2020 10:07:17 7 C 30 %
2798 22-02-2020 10:17:17 7.2 C 30 %
2799 22-02-2020 10:27:17 7.2 C 30 %
2800 22-02-2020 10:37:17 7.3 C 30 %
Sensor: Nr:Datum:Temp:Feuchte:
Aussen-T/F 2801 22-02-2020 10:47:18 7.2 C 30 %
2802 22-02-2020 10:57:18 7.4 C 30 %
2803 22-02-2020 11:07:18 7.5 C 30 %
2804 22-02-2020 11:17:18 7.5 C 30 %
2805 22-02-2020 11:27:18 7.6 C 29 %
2806 22-02-2020 11:37:18 7.7 C 28 %
2807 22-02-2020 11:47:17 7.9 C 28 %
2808 22-02-2020 11:57:17 8.1 C 27 %
2809 22-02-2020 12:07:18 8.4 C 27 %
2810 22-02-2020 12:17:18 8.5 C 26 %
2811 22-02-2020 12:27:18 8.6 C 27 %
2812 22-02-2020 12:37:18 8.8 C 26 %
2813 22-02-2020 12:47:18 8.8 C 26 %
2814 22-02-2020 12:57:18 9 C 25 %
2815 22-02-2020 13:07:18 9.3 C 25 %
2816 22-02-2020 13:17:18 9.7 C 25 %
2817 22-02-2020 13:27:18 10.2 C 21 %
2818 22-02-2020 13:37:18 10.2 C 20 %
2819 22-02-2020 13:47:17 10.2 C 20 %
2820 22-02-2020 13:57:18 10.2 C 20 %
2821 22-02-2020 14:07:18 10.2 C 20 %
2822 22-02-2020 14:17:17 10.1 C 20 %
2823 22-02-2020 14:27:18 10.1 C 20 %
2824 22-02-2020 14:37:18 10.2 C 20 %
2825 22-02-2020 14:47:17 10.2 C 20 %
Sensor: Nr:Datum:Temp:Feuchte:
Aussen-T/F 2826 22-02-2020 14:57:17 10.1 C 20 %
2827 22-02-2020 15:07:17 10.2 C 20 %
2828 22-02-2020 15:17:17 10.2 C 20 %
2829 22-02-2020 15:27:18 10.4 C 20 %
2830 22-02-2020 15:37:18 10.6 C 21 %
2831 22-02-2020 15:47:17 10.7 C 20 %
2832 22-02-2020 15:57:17 10.8 C 21 %
2833 22-02-2020 16:07:18 10.7 C 21 %
2834 22-02-2020 16:17:18 10.6 C 22 %
2835 22-02-2020 16:27:18 10.4 C 22 %
2836 22-02-2020 16:37:18 10.2 C 23 %
2837 22-02-2020 16:47:18 10.3 C 25 %
2838 22-02-2020 16:57:18 10.2 C 25 %
2839 22-02-2020 17:07:17 10.1 C 25 %
2840 22-02-2020 17:17:18 10.1 C 25 %
2841 22-02-2020 17:27:18 10.2 C 25 %
2842 22-02-2020 17:37:18 10.2 C 25 %
2843 22-02-2020 17:47:18 10.2 C 25 %
2844 22-02-2020 17:57:18 10 C 25 %
2845 22-02-2020 18:07:18 9.9 C 26 %
2846 22-02-2020 18:17:18 9.9 C 27 %
2847 22-02-2020 18:27:18 9.8 C 27 %
2848 22-02-2020 18:37:18 9.7 C 28 %
2849 22-02-2020 18:47:18 9.7 C 29 %
2850 22-02-2020 18:57:18 9.5 C 30 %
Sensor: Nr:Datum:Temp:Feuchte:
Aussen-T/F 2851 22-02-2020 19:07:18 9.6 C 30 %
2852 22-02-2020 19:17:17 9.6 C 30 %
2853 22-02-2020 19:27:17 9.6 C 31 %
2854 22-02-2020 19:37:17 9.6 C 30 %
2855 22-02-2020 19:47:18 9.9 C 30 %
2856 22-02-2020 19:57:18 9.8 C 31 %
2857 22-02-2020 20:07:18 10 C 30 %
2858 22-02-2020 20:17:18 9.9 C 31 %
2859 22-02-2020 20:27:18 10 C 30 %
2860 22-02-2020 20:37:18 9.9 C 31 %
2861 22-02-2020 20:47:17 10 C 31 %
2862 22-02-2020 20:57:17 9.9 C 32 %
2863 22-02-2020 21:07:18 9.9 C 32 %
2864 22-02-2020 21:17:17 10.2 C 31 %
2865 22-02-2020 21:27:17 10.2 C 31 %
2866 22-02-2020 21:37:18 10.3 C 31 %
2867 22-02-2020 21:47:17 10.2 C 31 %
2868 22-02-2020 21:57:17 10.3 C 31 %
2869 22-02-2020 22:07:17 10.4 C 31 %
2870 22-02-2020 22:17:17 10.6 C 31 %
2871 22-02-2020 22:27:17 10.7 C 31 %
2872 22-02-2020 22:37:18 10.7 C 31 %
2873 22-02-2020 22:47:17 10.6 C 31 %
2874 22-02-2020 22:57:17 10.5 C 31 %
2875 22-02-2020 23:07:17 10.5 C 31 %
Sensor: Nr:Datum:Temp:Feuchte:
Aussen-T/F 2876 22-02-2020 23:17:17 10.5 C 31 %
2877 22-02-2020 23:27:17 10.5 C 31 %
2878 22-02-2020 23:37:17 10.5 C 31 %
2879 22-02-2020 23:47:17 10.6 C 31 %
2880 22-02-2020 23:57:18 10.5 C 31 %
2881 23-02-2020 00:07:18 10.7 C 31 %
2882 23-02-2020 00:17:18 10.8 C 31 %
2883 23-02-2020 00:27:18 10 C 31 %
2884 23-02-2020 00:37:18 9.7 C 33 %
2885 23-02-2020 00:47:17 9.4 C 35 %
2886 23-02-2020 00:57:18 9.2 C 36 %
2887 23-02-2020 01:07:18 9 C 38 %
2888 23-02-2020 01:17:18 9.3 C 37 %
2889 23-02-2020 01:27:18 9.3 C 37 %
2890 23-02-2020 01:37:18 9.6 C 36 %
2891 23-02-2020 01:47:17 9.6 C 36 %
2892 23-02-2020 01:57:17 9.7 C 36 %
2893 23-02-2020 02:07:18 9.4 C 36 %
2894 23-02-2020 02:17:18 9.3 C 36 %
2895 23-02-2020 02:27:18 9.5 C 36 %
2896 23-02-2020 02:37:18 9.8 C 35 %
2897 23-02-2020 02:47:17 10 C 34 %
2898 23-02-2020 02:57:17 10 C 34 %
2899 23-02-2020 03:07:18 10 C 33 %
2900 23-02-2020 03:17:17 10.2 C 33 %
Sensor: Nr:Datum:Temp:Feuchte:
Aussen-T/F 2901 23-02-2020 03:27:17 9.8 C 35 %
2902 23-02-2020 03:37:17 9.6 C 35 %
2903 23-02-2020 03:47:17 9.7 C 35 %
2904 23-02-2020 03:57:17 9.7 C 35 %
2905 23-02-2020 04:07:17 10.3 C 33 %
2906 23-02-2020 04:17:17 10.2 C 33 %
2907 23-02-2020 04:27:17 10.1 C 33 %
2908 23-02-2020 04:37:17 10.2 C 33 %
2909 23-02-2020 04:47:17 10 C 33 %
2910 23-02-2020 04:57:17 10.1 C 33 %
2911 23-02-2020 05:07:18 9.6 C 35 %
2912 23-02-2020 05:17:17 9.8 C 35 %
2913 23-02-2020 05:27:17 10 C 34 %
2914 23-02-2020 05:37:18 10.2 C 34 %
2915 23-02-2020 05:47:17 10.2 C 34 %
2916 23-02-2020 05:57:17 9.6 C 35 %
2917 23-02-2020 06:07:18 9.5 C 35 %
2918 23-02-2020 06:17:17 9.7 C 35 %
2919 23-02-2020 06:27:17 9.8 C 35 %
2920 23-02-2020 06:37:18 10 C 34 %
2921 23-02-2020 06:47:17 9.7 C 35 %
2922 23-02-2020 06:57:17 9.3 C 35 %
2923 23-02-2020 07:07:18 9.3 C 35 %
2924 23-02-2020 07:17:18 9.5 C 36 %
2925 23-02-2020 07:27:18 9.8 C 35 %
Sensor: Nr:Datum:Temp:Feuchte:
Aussen-T/F 2926 23-02-2020 07:37:18 9.6 C 36 %
2927 23-02-2020 07:47:17 9.6 C 36 %
2928 23-02-2020 07:57:17 9.8 C 36 %
2929 23-02-2020 08:07:17 9.8 C 36 %
2930 23-02-2020 08:17:17 9.8 C 36 %
2931 23-02-2020 08:27:17 10.1 C 35 %
2932 23-02-2020 08:37:17 10.1 C 35 %
2933 23-02-2020 08:47:17 10.2 C 35 %
2934 23-02-2020 08:57:17 10.1 C 35 %
2935 23-02-2020 09:07:17 10.1 C 35 %
2936 23-02-2020 09:17:17 10 C 35 %
2937 23-02-2020 09:27:17 10 C 35 %
2938 23-02-2020 09:37:17 10 C 35 %
2939 23-02-2020 09:47:18 10.1 C 35 %
2940 23-02-2020 09:57:18 10.1 C 36 %
2941 23-02-2020 10:07:17 10.1 C 36 %
2942 23-02-2020 10:17:17 10.5 C 35 %
2943 23-02-2020 10:27:18 10.6 C 35 %
2944 23-02-2020 10:37:17 10.9 C 35 %
2945 23-02-2020 10:47:17 10.9 C 35 %
2946 23-02-2020 10:57:17 10.9 C 35 %
2947 23-02-2020 11:07:17 11 C 34 %
2948 23-02-2020 11:17:17 11.1 C 34 %
2949 23-02-2020 11:27:17 11 C 34 %
2950 23-02-2020 11:37:17 11.1 C 34 %
Sensor: Nr:Datum:Temp:Feuchte:
Aussen-T/F 2951 23-02-2020 11:47:17 11.2 C 34 %
2952 23-02-2020 11:57:17 11.4 C 34 %
2953 23-02-2020 12:07:17 11.5 C 34 %
2954 23-02-2020 12:17:17 11.5 C 34 %
2955 23-02-2020 12:27:17 11.6 C 34 %
2956 23-02-2020 12:37:18 11.6 C 34 %
2957 23-02-2020 12:47:17 11.7 C 34 %
2958 23-02-2020 12:57:17 11.7 C 34 %
2959 23-02-2020 13:07:17 11.8 C 33 %
2960 23-02-2020 13:17:17 11.8 C 33 %
2961 23-02-2020 13:27:17 11.8 C 33 %
2962 23-02-2020 13:37:18 11.8 C 33 %
2963 23-02-2020 13:47:17 11.8 C 33 %
2964 23-02-2020 13:57:18 11.8 C 33 %
2965 23-02-2020 14:07:17 11.8 C 33 %
2966 23-02-2020 14:17:17 11.7 C 33 %
2967 23-02-2020 14:27:17 11.8 C 34 %
2968 23-02-2020 14:37:18 11.9 C 34 %
2969 23-02-2020 14:47:17 11.9 C 34 %
2970 23-02-2020 14:57:17 11.9 C 34 %
2971 23-02-2020 15:07:17 11.9 C 34 %
2972 23-02-2020 15:17:17 11.9 C 34 %
2973 23-02-2020 15:27:17 12 C 33 %
2974 23-02-2020 15:37:18 11.8 C 34 %
2975 23-02-2020 15:47:17 11.9 C 34 %
Sensor: Nr:Datum:Temp:Feuchte:
Aussen-T/F 2976 23-02-2020 15:57:17 11.8 C 34 %
2977 23-02-2020 16:07:18 11.8 C 34 %
2978 23-02-2020 16:17:17 11.8 C 34 %
2979 23-02-2020 16:27:17 11.7 C 35 %
2980 23-02-2020 16:37:17 11.8 C 35 %
2981 23-02-2020 16:47:17 11.8 C 34 %
2982 23-02-2020 16:57:17 11.8 C 34 %
2983 23-02-2020 17:07:18 11.8 C 34 %
2984 23-02-2020 17:17:17 11.5 C 35 %
2985 23-02-2020 17:27:17 11.3 C 36 %
2986 23-02-2020 17:37:18 10.9 C 38 %
2987 23-02-2020 17:47:17 10.8 C 38 %
2988 23-02-2020 17:57:17 10.9 C 38 %
2989 23-02-2020 18:07:18 10.8 C 38 %
2990 23-02-2020 18:17:17 10.8 C 39 %
2991 23-02-2020 18:27:17 10.7 C 40 %
2992 23-02-2020 18:37:18 10.6 C 41 %
2993 23-02-2020 18:47:18 10.5 C 42 %
2994 23-02-2020 18:57:18 10.5 C 41 %
2995 23-02-2020 19:07:18 10.8 C 40 %
2996 23-02-2020 19:17:17 10.8 C 40 %
2997 23-02-2020 19:27:17 11.1 C 40 %
2998 23-02-2020 19:37:17 9.2 C 40 %
2999 23-02-2020 19:47:17 8.6 C 41 %
3000 23-02-2020 19:57:17 8.3 C 40 %
Sensor: Nr:Datum:Temp:Feuchte:
Aussen-T/F 3001 23-02-2020 20:07:17 7.9 C 41 %
3002 23-02-2020 20:17:17 7.8 C 40 %
3003 23-02-2020 20:27:17 7.6 C 40 %
3004 23-02-2020 20:37:17 7.6 C 40 %
3005 23-02-2020 20:47:17 7.6 C 40 %
3006 23-02-2020 20:57:17 7.6 C 39 %
3007 23-02-2020 21:07:17 7.4 C 39 %
3008 23-02-2020 21:17:17 7.7 C 37 %
3009 23-02-2020 21:27:17 7.3 C 37 %
3010 23-02-2020 21:37:17 7.4 C 37 %
3011 23-02-2020 21:47:18 7.4 C 36 %
3012 23-02-2020 21:57:18 7.6 C 37 %
3013 23-02-2020 22:07:18 7.7 C 36 %
3014 23-02-2020 22:17:18 7.7 C 36 %
3015 23-02-2020 22:27:18 7.6 C 35 %
3016 23-02-2020 22:37:18 7.6 C 35 %
3017 23-02-2020 22:47:17 7.6 C 35 %
3018 23-02-2020 22:57:18 7.3 C 35 %
3019 23-02-2020 23:07:18 7 C 34 %
3020 23-02-2020 23:17:18 6.7 C 36 %
3021 23-02-2020 23:27:18 7.2 C 33 %
3022 23-02-2020 23:37:18 7.1 C 32 %
3023 23-02-2020 23:47:17 7.2 C 32 %
3024 23-02-2020 23:57:18 6.8 C 33 %
3025 24-02-2020 00:07:18 6.7 C 32 %
Sensor: Nr:Datum:Temp:Feuchte:
Aussen-T/F 3026 24-02-2020 00:17:18 6.3 C 34 %
3027 24-02-2020 00:27:18 6.5 C 34 %
3028 24-02-2020 00:37:18 6.4 C 34 %
3029 24-02-2020 00:47:18 6 C 34 %
3030 24-02-2020 00:57:18 6.1 C 34 %
3031 24-02-2020 01:07:18 5.5 C 35 %
3032 24-02-2020 01:17:18 5.8 C 35 %
3033 24-02-2020 01:27:18 5.8 C 35 %
3034 24-02-2020 01:37:17 5.3 C 35 %
3035 24-02-2020 01:47:17 5.2 C 35 %
3036 24-02-2020 01:57:18 5 C 36 %
3037 24-02-2020 02:07:18 4.6 C 37 %
3038 24-02-2020 02:17:17 4.4 C 37 %
3039 24-02-2020 02:27:17 3.9 C 39 %
3040 24-02-2020 02:37:18 3.7 C 40 %
3041 24-02-2020 02:47:17 4 C 38 %
3042 24-02-2020 02:57:17 4.2 C 38 %
3043 24-02-2020 03:07:17 4.3 C 38 %
3044 24-02-2020 03:17:17 4.7 C 36 %
3045 24-02-2020 03:27:17 4.6 C 37 %
3046 24-02-2020 03:37:18 4.5 C 37 %
3047 24-02-2020 03:47:17 4.5 C 36 %
3048 24-02-2020 03:57:17 4.5 C 36 %
3049 24-02-2020 04:07:17 4.6 C 36 %
3050 24-02-2020 04:17:17 4.4 C 38 %
Sensor: Nr:Datum:Temp:Feuchte:
Aussen-T/F 3051 24-02-2020 04:27:17 4.3 C 38 %
3052 24-02-2020 04:37:17 4 C 39 %
3053 24-02-2020 04:47:17 3.7 C 41 %
3054 24-02-2020 04:57:17 3.8 C 41 %
3055 24-02-2020 05:07:17 3.8 C 42 %
3056 24-02-2020 05:17:17 4.1 C 41 %
3057 24-02-2020 05:27:17 4 C 40 %
3058 24-02-2020 05:37:17 3.8 C 41 %
3059 24-02-2020 05:47:18 4 C 40 %
3060 24-02-2020 05:57:18 4 C 40 %
3061 24-02-2020 06:07:17 4 C 40 %
3062 24-02-2020 06:17:18 4 C 41 %
3063 24-02-2020 06:27:18 3.9 C 42 %
3064 24-02-2020 06:37:17 4 C 41 %
3065 24-02-2020 06:47:18 3.9 C 42 %
3066 24-02-2020 06:57:18 4.2 C 40 %
3067 24-02-2020 07:07:18 4.2 C 40 %
3068 24-02-2020 07:17:18 4.3 C 40 %
3069 24-02-2020 07:27:18 4.3 C 40 %
3070 24-02-2020 07:37:18 4.4 C 39 %
3071 24-02-2020 07:47:17 4.5 C 39 %
3072 24-02-2020 07:57:17 5.1 C 37 %
3073 24-02-2020 08:07:18 5.2 C 37 %
3074 24-02-2020 08:17:18 5.4 C 37 %
3075 24-02-2020 08:27:18 5.7 C 36 %
Sensor: Nr:Datum:Temp:Feuchte:
Aussen-T/F 3076 24-02-2020 08:37:18 5.9 C 36 %
3077 24-02-2020 08:47:18 6 C 35 %
3078 24-02-2020 08:57:18 6.2 C 35 %
3079 24-02-2020 09:07:18 6.3 C 35 %
3080 24-02-2020 09:17:18 6.3 C 35 %
3081 24-02-2020 09:27:18 6.1 C 35 %
3082 24-02-2020 09:37:18 6 C 35 %
3083 24-02-2020 09:47:18 6 C 35 %
3084 24-02-2020 09:57:18 6 C 36 %
3085 24-02-2020 10:07:18 5.9 C 37 %
3086 24-02-2020 10:17:18 5.7 C 38 %
3087 24-02-2020 10:27:18 5.7 C 39 %
3088 24-02-2020 10:37:17 5.6 C 40 %
3089 24-02-2020 10:47:18 5.7 C 40 %
3090 24-02-2020 10:57:18 5.9 C 40 %
3091 24-02-2020 11:07:18 6 C 40 %
3092 24-02-2020 11:17:18 6 C 40 %
3093 24-02-2020 11:27:18 6.1 C 40 %
3094 24-02-2020 11:37:18 6.1 C 40 %
3095 24-02-2020 11:47:18 6.1 C 40 %
3096 24-02-2020 11:57:18 6.5 C 40 %
3097 24-02-2020 12:07:17 6.7 C 40 %
3098 24-02-2020 12:17:17 6.9 C 40 %
3099 24-02-2020 12:27:17 6.7 C 40 %
3100 24-02-2020 12:37:18 6.8 C 40 %
Sensor: Nr:Datum:Temp:Feuchte:
Aussen-T/F 3101 24-02-2020 12:47:17 7.1 C 41 %
3102 24-02-2020 12:57:18 7.3 C 40 %
3103 24-02-2020 13:07:18 7.7 C 40 %
3104 24-02-2020 13:17:18 7.9 C 40 %
3105 24-02-2020 13:27:18 8.2 C 39 %
3106 24-02-2020 13:37:18 8.2 C 39 %
3107 24-02-2020 13:47:17 8.2 C 40 %
3108 24-02-2020 13:57:17 8.4 C 40 %
3109 24-02-2020 14:07:18 8.8 C 40 %
3110 24-02-2020 14:17:17 9.3 C 40 %
3111 24-02-2020 14:27:18 9.6 C 39 %
3112 24-02-2020 14:37:18 10.2 C 37 %
3113 24-02-2020 14:47:17 10.8 C 37 %
3114 24-02-2020 14:57:17 10.9 C 37 %
3115 24-02-2020 15:07:18 10.7 C 37 %
3116 24-02-2020 15:17:18 10.7 C 37 %
3117 24-02-2020 15:27:18 10.8 C 37 %
3118 24-02-2020 15:37:18 11 C 36 %
3119 24-02-2020 15:47:17 11.3 C 36 %
3120 24-02-2020 15:57:18 11.5 C 36 %
3121 24-02-2020 16:07:18 11.5 C 35 %
3122 24-02-2020 16:17:18 11.8 C 35 %
3123 24-02-2020 16:27:18 11.9 C 35 %
3124 24-02-2020 16:37:18 11.7 C 35 %
3125 24-02-2020 16:47:17 11.3 C 35 %
Sensor: Nr:Datum:Temp:Feuchte:
Aussen-T/F 3126 24-02-2020 16:57:17 11.5 C 35 %
3127 24-02-2020 17:07:18 11.5 C 35 %
3128 24-02-2020 17:17:18 11.5 C 35 %
3129 24-02-2020 17:27:18 11.5 C 34 %
3130 24-02-2020 17:37:18 11.4 C 34 %
3131 24-02-2020 17:47:18 11.5 C 33 %
3132 24-02-2020 17:57:18 11.4 C 33 %
3133 24-02-2020 18:07:18 11.3 C 33 %
3134 24-02-2020 18:17:18 11.2 C 33 %
3135 24-02-2020 18:27:18 11.2 C 33 %
3136 24-02-2020 18:37:17 11 C 33 %
3137 24-02-2020 18:47:17 11 C 33 %
3138 24-02-2020 18:57:17 11 C 33 %
3139 24-02-2020 19:07:17 11.1 C 33 %
3140 24-02-2020 19:17:17 10.8 C 34 %
3141 24-02-2020 19:27:17 11.2 C 32 %
3142 24-02-2020 19:37:18 11.2 C 32 %
3143 24-02-2020 19:47:18 11.1 C 32 %
3144 24-02-2020 19:57:18 11.3 C 32 %
3145 24-02-2020 20:07:18 11.4 C 32 %
3146 24-02-2020 20:17:18 11.2 C 31 %
3147 24-02-2020 20:27:18 11.3 C 31 %
3148 24-02-2020 20:37:18 11.2 C 31 %
3149 24-02-2020 20:47:17 11.2 C 31 %
3150 24-02-2020 20:57:18 11 C 31 %
Sensor: Nr:Datum:Temp:Feuchte:
Aussen-T/F 3151 24-02-2020 21:07:18 10.9 C 32 %
3152 24-02-2020 21:18:17 11 C 32 %
3153 24-02-2020 21:27:17 10.9 C 33 %
3154 24-02-2020 21:37:17 10.9 C 33 %
3155 24-02-2020 21:48:17 10.9 C 33 %
3156 24-02-2020 21:57:17 10.8 C 33 %
3157 24-02-2020 22:07:17 11 C 32 %
3158 24-02-2020 22:17:17 10.9 C 33 %
3159 24-02-2020 22:27:17 11 C 32 %
3160 24-02-2020 22:37:17 10.9 C 33 %
3161 24-02-2020 22:47:17 11.1 C 32 %
3162 24-02-2020 22:57:17 11.1 C 32 %
3163 24-02-2020 23:08:17 11 C 32 %
3164 24-02-2020 23:18:17 10.9 C 33 %
3165 24-02-2020 23:28:17 11 C 32 %
3166 24-02-2020 23:37:18 10.9 C 33 %
3167 24-02-2020 23:48:17 10.8 C 33 %
3168 24-02-2020 23:58:17 10.4 C 34 %
3169 25-02-2020 00:08:17 10.5 C 34 %
3170 25-02-2020 00:17:17 10.4 C 34 %
3171 25-02-2020 00:27:17 10.2 C 35 %
3172 25-02-2020 00:37:18 10.4 C 35 %
3173 25-02-2020 00:47:17 10.6 C 35 %
3174 25-02-2020 00:57:17 10.5 C 35 %
3175 25-02-2020 01:08:17 10.5 C 35 %
Sensor: Nr:Datum:Temp:Feuchte:
Aussen-T/F 3176 25-02-2020 01:18:17 10.5 C 35 %
3177 25-02-2020 01:28:17 10.5 C 35 %
3178 25-02-2020 01:38:17 10.6 C 35 %
3179 25-02-2020 01:48:17 10.4 C 35 %
3180 25-02-2020 01:58:17 10.5 C 35 %
3181 25-02-2020 02:08:17 10.4 C 35 %
3182 25-02-2020 02:18:17 10.3 C 35 %
3183 25-02-2020 02:28:17 10.4 C 35 %
3184 25-02-2020 02:38:17 10.3 C 35 %
3185 25-02-2020 02:48:17 10.3 C 35 %
3186 25-02-2020 02:58:17 10.1 C 35 %
3187 25-02-2020 03:08:17 9.7 C 36 %
3188 25-02-2020 03:18:17 9.8 C 36 %
3189 25-02-2020 03:28:18 10 C 36 %
3190 25-02-2020 03:38:18 10 C 35 %
3191 25-02-2020 03:48:17 10 C 35 %
3192 25-02-2020 03:58:18 10 C 35 %
3193 25-02-2020 04:08:18 10 C 35 %
3194 25-02-2020 04:18:18 9.9 C 36 %
3195 25-02-2020 04:28:18 9.9 C 36 %
3196 25-02-2020 04:38:18 9.9 C 36 %
3197 25-02-2020 04:48:17 9.9 C 36 %
3198 25-02-2020 04:58:17 9.9 C 36 %
3199 25-02-2020 05:08:18 9.9 C 36 %
3200 25-02-2020 05:18:17 9.8 C 36 %
Sensor: Nr:Datum:Temp:Feuchte:
Aussen-T/F 3201 25-02-2020 05:28:18 9.7 C 36 %
3202 25-02-2020 05:38:18 9.7 C 36 %
3203 25-02-2020 05:48:18 9.7 C 36 %
3204 25-02-2020 05:58:18 9.7 C 35 %
3205 25-02-2020 06:08:18 9.7 C 35 %
3206 25-02-2020 06:18:17 9.6 C 35 %
3207 25-02-2020 06:28:18 9.5 C 35 %
3208 25-02-2020 06:38:18 9.4 C 36 %
3209 25-02-2020 06:48:17 9.4 C 36 %
3210 25-02-2020 06:58:17 9.3 C 36 %
3211 25-02-2020 07:08:17 9.2 C 36 %
3212 25-02-2020 07:18:17 9.1 C 36 %
3213 25-02-2020 07:28:18 9.1 C 36 %
3214 25-02-2020 07:38:18 8.6 C 38 %
3215 25-02-2020 07:48:17 8.4 C 40 %
3216 25-02-2020 07:58:17 8.2 C 42 %
3217 25-02-2020 08:08:18 8.1 C 43 %
3218 25-02-2020 08:18:17 8 C 44 %
3219 25-02-2020 08:28:17 8 C 42 %
3220 25-02-2020 08:38:17 8 C 42 %
3221 25-02-2020 08:48:17 8.1 C 42 %
3222 25-02-2020 08:58:17 8.2 C 41 %
3223 25-02-2020 09:08:18 8.2 C 41 %
3224 25-02-2020 09:18:17 8.2 C 40 %
3225 25-02-2020 09:28:17 8.5 C 38 %
Sensor: Nr:Datum:Temp:Feuchte:
Aussen-T/F 3226 25-02-2020 09:38:18 8.7 C 38 %
3227 25-02-2020 09:48:17 8.7 C 36 %
3228 25-02-2020 09:58:17 8.6 C 34 %
3229 25-02-2020 10:08:17 8.6 C 33 %
3230 25-02-2020 10:18:17 8.2 C 33 %
3231 25-02-2020 10:28:17 8.7 C 33 %
3232 25-02-2020 10:38:18 8.7 C 33 %
3233 25-02-2020 10:48:17 9.2 C 32 %
3234 25-02-2020 10:58:17 9.6 C 31 %
3235 25-02-2020 11:08:18 9.1 C 32 %
3236 25-02-2020 11:18:17 8 C 32 %
3237 25-02-2020 11:28:17 8.3 C 32 %
3238 25-02-2020 11:38:17 8.2 C 31 %
3239 25-02-2020 11:48:17 8.5 C 31 %
3240 25-02-2020 11:58:18 8.9 C 30 %
3241 25-02-2020 12:08:18 11.2 C 26 %
3242 25-02-2020 12:18:18 10.4 C 22 %
3243 25-02-2020 12:28:18 10.7 C 21 %
3244 25-02-2020 12:38:18 10.2 C 23 %
3245 25-02-2020 12:48:18 10.2 C 22 %
3246 25-02-2020 12:58:18 10.6 C 25 %
3247 25-02-2020 13:08:18 10.1 C 25 %
3248 25-02-2020 13:18:17 11.1 C 25 %
3249 25-02-2020 13:28:17 11.1 C 25 %
3250 25-02-2020 13:38:17 11.4 C 23 %
Sensor: Nr:Datum:Temp:Feuchte:
Aussen-T/F 3251 25-02-2020 13:48:17 10 C 22 %
3252 25-02-2020 13:58:17 10.7 C 23 %
3253 25-02-2020 14:08:17 10.7 C 22 %
3254 25-02-2020 14:18:17 10.4 C 20 %
3255 25-02-2020 14:28:17 10.2 C 22 %
3256 25-02-2020 14:38:18 10.2 C 21 %
3257 25-02-2020 14:48:17 11 C 21 %
3258 25-02-2020 14:58:17 10.4 C 22 %
3259 25-02-2020 15:08:17 10.1 C 25 %
3260 25-02-2020 15:18:17 11.1 C 22 %
3261 25-02-2020 15:28:17 11.1 C 22 %
3262 25-02-2020 15:38:17 11.2 C 20 %
3263 25-02-2020 15:48:18 11.5 C 20 %
3264 25-02-2020 15:58:18 11.7 C 20 %
3265 25-02-2020 16:08:18 10.3 C 21 %
3266 25-02-2020 16:18:18 10.1 C 21 %
3267 25-02-2020 16:28:18 10.1 C 20 %
3268 25-02-2020 16:38:18 12.4 C 20 %
3269 25-02-2020 16:48:17 11.5 C 20 %
3270 25-02-2020 16:58:18 10 C 20 %
3271 25-02-2020 17:08:18 9.9 C 20 %
3272 25-02-2020 17:18:17 10.8 C 20 %
3273 25-02-2020 17:28:18 9.5 C 25 %
3274 25-02-2020 17:38:18 9.1 C 25 %
3275 25-02-2020 17:48:18 9 C 25 %
Sensor: Nr:Datum:Temp:Feuchte:
Aussen-T/F 3276 25-02-2020 17:58:18 8.9 C 27 %
3277 25-02-2020 18:08:18 8.8 C 26 %
3278 25-02-2020 18:18:18 8.5 C 27 %
3279 25-02-2020 18:28:18 8.4 C 28 %
3280 25-02-2020 18:38:18 8.6 C 27 %
3281 25-02-2020 18:48:17 8.4 C 28 %
3282 25-02-2020 18:58:17 7.1 C 31 %
3283 25-02-2020 19:08:18 6.5 C 35 %
3284 25-02-2020 19:18:18 6.3 C 35 %
3285 25-02-2020 19:28:18 6.2 C 35 %
3286 25-02-2020 19:38:18 6 C 37 %
3287 25-02-2020 19:48:17 5.8 C 40 %
3288 25-02-2020 19:58:17 5.7 C 40 %
3289 25-02-2020 20:08:18 5.6 C 40 %
3290 25-02-2020 20:18:17 5.5 C 41 %
3291 25-02-2020 20:28:18 5.6 C 41 %
3292 25-02-2020 20:38:18 5.9 C 39 %
3293 25-02-2020 20:48:17 6 C 38 %
3294 25-02-2020 20:58:17 5.9 C 39 %
3295 25-02-2020 21:08:17 5.3 C 40 %
3296 25-02-2020 21:18:17 5.3 C 40 %
3297 25-02-2020 21:28:17 5.3 C 40 %
3298 25-02-2020 21:38:17 5.2 C 41 %
3299 25-02-2020 21:48:18 5.8 C 36 %
3300 25-02-2020 21:58:18 5.8 C 35 %
Sensor: Nr:Datum:Temp:Feuchte:
Aussen-T/F 3301 25-02-2020 22:08:18 5.6 C 34 %
3302 25-02-2020 22:18:17 5.6 C 33 %
3303 25-02-2020 22:28:17 5.3 C 33 %
3304 25-02-2020 22:38:17 4.8 C 34 %
3305 25-02-2020 22:48:18 4.4 C 35 %
3306 25-02-2020 22:58:18 4.2 C 35 %
3307 25-02-2020 23:08:18 4.2 C 35 %
3308 25-02-2020 23:18:18 4.4 C 35 %
3309 25-02-2020 23:28:18 4.6 C 35 %
3310 25-02-2020 23:38:18 5.4 C 34 %
3311 25-02-2020 23:48:17 5.5 C 34 %
3312 25-02-2020 23:58:17 5.4 C 33 %
3313 26-02-2020 00:08:17 5.3 C 35 %
3314 26-02-2020 00:18:17 5 C 35 %
3315 26-02-2020 00:28:17 4.9 C 36 %
3316 26-02-2020 00:38:18 5.1 C 35 %
3317 26-02-2020 00:48:17 5.4 C 35 %
3318 26-02-2020 00:58:17 5.3 C 35 %
3319 26-02-2020 01:08:17 5.4 C 35 %
3320 26-02-2020 01:18:17 5.5 C 35 %
3321 26-02-2020 01:28:17 5.4 C 35 %
3322 26-02-2020 01:38:17 5.3 C 35 %
3323 26-02-2020 01:48:17 5.1 C 35 %
3324 26-02-2020 01:58:17 5 C 35 %
3325 26-02-2020 02:08:18 5.2 C 35 %
Sensor: Nr:Datum:Temp:Feuchte:
Aussen-T/F 3326 26-02-2020 02:18:18 5.2 C 34 %
3327 26-02-2020 02:28:18 5.2 C 34 %
3328 26-02-2020 02:38:17 5 C 34 %
3329 26-02-2020 02:48:18 5.1 C 33 %
3330 26-02-2020 02:58:18 5 C 32 %
3331 26-02-2020 03:08:17 4.8 C 33 %
3332 26-02-2020 03:18:17 4.7 C 33 %
3333 26-02-2020 03:28:17 4.3 C 34 %
3334 26-02-2020 03:38:18 3.8 C 35 %
3335 26-02-2020 03:48:18 3.7 C 35 %
3336 26-02-2020 03:58:18 4 C 34 %
3337 26-02-2020 04:08:18 3.9 C 35 %
3338 26-02-2020 04:18:18 3.9 C 35 %
3339 26-02-2020 04:28:18 3.9 C 35 %
3340 26-02-2020 04:38:18 3.8 C 35 %
3341 26-02-2020 04:48:17 3.9 C 35 %
3342 26-02-2020 04:58:18 3.9 C 35 %
3343 26-02-2020 05:08:18 4 C 33 %
3344 26-02-2020 05:18:18 3.9 C 35 %
3345 26-02-2020 05:28:18 4 C 33 %
3346 26-02-2020 05:38:18 3.9 C 35 %
3347 26-02-2020 05:48:17 3.7 C 35 %
3348 26-02-2020 05:58:18 3.9 C 34 %
3349 26-02-2020 06:08:18 3.9 C 34 %
3350 26-02-2020 06:18:18 4 C 32 %
Sensor: Nr:Datum:Temp:Feuchte:
Aussen-T/F 3351 26-02-2020 06:28:18 3.7 C 34 %
3352 26-02-2020 06:38:18 3.9 C 33 %
3353 26-02-2020 06:48:17 3.7 C 33 %
3354 26-02-2020 06:58:17 3.6 C 33 %
3355 26-02-2020 07:08:18 3.4 C 34 %
3356 26-02-2020 07:18:18 3.4 C 34 %
3357 26-02-2020 07:28:18 3.2 C 35 %
3358 26-02-2020 07:38:17 3.4 C 35 %
3359 26-02-2020 07:48:18 3.4 C 35 %
3360 26-02-2020 07:58:18 3.4 C 35 %
3361 26-02-2020 08:08:18 3.5 C 35 %
3362 26-02-2020 08:18:17 3.5 C 35 %
3363 26-02-2020 08:28:17 3.6 C 35 %
3364 26-02-2020 08:38:18 3.6 C 34 %
3365 26-02-2020 08:48:18 3.5 C 35 %
3366 26-02-2020 08:58:18 3.3 C 35 %
3367 26-02-2020 09:08:17 2.9 C 36 %
3368 26-02-2020 09:18:17 2.9 C 37 %
3369 26-02-2020 09:28:17 3 C 37 %
3370 26-02-2020 09:38:18 3.2 C 36 %
3371 26-02-2020 09:48:18 3.6 C 36 %
3372 26-02-2020 09:58:18 3.4 C 36 %
3373 26-02-2020 10:08:18 3.4 C 36 %
3374 26-02-2020 10:18:17 3.4 C 36 %
3375 26-02-2020 10:28:17 3.3 C 37 %
Sensor: Nr:Datum:Temp:Feuchte:
Aussen-T/F 3376 26-02-2020 10:38:17 3.5 C 36 %
3377 26-02-2020 10:48:17 4.2 C 35 %
3378 26-02-2020 10:58:17 4.4 C 35 %
3379 26-02-2020 11:08:17 4.5 C 34 %
3380 26-02-2020 11:18:17 5 C 33 %
3381 26-02-2020 11:28:17 5.1 C 33 %
3382 26-02-2020 11:38:18 5.4 C 32 %
3383 26-02-2020 11:48:18 5.3 C 32 %
3384 26-02-2020 11:58:18 5.9 C 32 %
3385 26-02-2020 12:08:17 6.1 C 31 %
3386 26-02-2020 12:18:17 6.4 C 31 %
3387 26-02-2020 12:28:17 5.7 C 31 %
3388 26-02-2020 12:38:17 5.7 C 31 %
3389 26-02-2020 12:48:17 5.7 C 31 %
3390 26-02-2020 12:58:17 6.7 C 29 %
3391 26-02-2020 13:08:17 6.7 C 29 %
3392 26-02-2020 13:18:18 6.1 C 30 %
3393 26-02-2020 13:28:18 5 C 31 %
3394 26-02-2020 13:38:17 5.3 C 31 %
3395 26-02-2020 13:48:17 5.3 C 31 %
3396 26-02-2020 13:58:17 5.1 C 31 %
3397 26-02-2020 14:08:17 5.1 C 32 %
3398 26-02-2020 14:18:17 5.1 C 32 %
3399 26-02-2020 14:28:17 5.1 C 32 %
3400 26-02-2020 14:38:17 5.6 C 32 %
Sensor: Nr:Datum:Temp:Feuchte:
Aussen-T/F 3401 26-02-2020 14:48:17 5.8 C 32 %
3402 26-02-2020 14:58:17 5.6 C 32 %
3403 26-02-2020 15:08:17 5.6 C 32 %
3404 26-02-2020 15:18:17 6.4 C 31 %
3405 26-02-2020 15:28:17 7.6 C 29 %
3406 26-02-2020 15:38:17 6.3 C 30 %
3407 26-02-2020 15:48:17 6.2 C 30 %
3408 26-02-2020 15:58:17 5.8 C 30 %
3409 26-02-2020 16:08:17 5.9 C 30 %
3410 26-02-2020 16:18:17 5.5 C 30 %
3411 26-02-2020 16:28:17 5.5 C 30 %
3412 26-02-2020 16:38:17 5.4 C 30 %
3413 26-02-2020 16:48:18 5.6 C 30 %
3414 26-02-2020 16:58:18 5.4 C 30 %
3415 26-02-2020 17:08:18 5.3 C 30 %
3416 26-02-2020 17:18:18 5.1 C 30 %
3417 26-02-2020 17:28:18 5.1 C 30 %
3418 26-02-2020 17:38:17 4.8 C 30 %
3419 26-02-2020 17:48:18 4.5 C 31 %
3420 26-02-2020 17:58:18 4.2 C 31 %
3421 26-02-2020 18:08:18 4 C 32 %
3422 26-02-2020 18:18:18 4 C 32 %
3423 26-02-2020 18:28:18 4 C 32 %
3424 26-02-2020 18:38:18 4 C 32 %
3425 26-02-2020 18:48:18 4.1 C 32 %
Sensor: Nr:Datum:Temp:Feuchte:
Aussen-T/F 3426 26-02-2020 18:58:18 4.1 C 32 %
3427 26-02-2020 19:08:18 4 C 32 %
3428 26-02-2020 19:18:17 4 C 33 %
3429 26-02-2020 19:28:17 3.9 C 35 %
3430 26-02-2020 19:38:17 3.8 C 35 %
3431 26-02-2020 19:48:17 3.6 C 35 %
3432 26-02-2020 19:58:17 3.4 C 35 %
3433 26-02-2020 20:08:17 3.3 C 35 %
3434 26-02-2020 20:18:17 3.6 C 35 %
3435 26-02-2020 20:28:17 3.6 C 35 %
3436 26-02-2020 20:38:17 3.6 C 35 %
3437 26-02-2020 20:48:17 3.4 C 35 %
3438 26-02-2020 20:58:17 3.6 C 35 %
3439 26-02-2020 21:08:18 3.6 C 35 %
3440 26-02-2020 21:18:18 3.5 C 35 %
3441 26-02-2020 21:28:18 3.2 C 35 %
3442 26-02-2020 21:38:18 3.4 C 35 %
3443 26-02-2020 21:48:17 3.4 C 35 %
3444 26-02-2020 21:58:17 3.5 C 35 %
3445 26-02-2020 22:08:18 3.3 C 36 %
3446 26-02-2020 22:18:18 3.3 C 36 %
3447 26-02-2020 22:28:18 3.3 C 36 %
3448 26-02-2020 22:38:18 3.4 C 36 %
3449 26-02-2020 22:48:17 3.2 C 37 %
3450 26-02-2020 22:58:17 3.3 C 37 %
Sensor: Nr:Datum:Temp:Feuchte:
Aussen-T/F 3451 26-02-2020 23:08:18 3.1 C 37 %
3452 26-02-2020 23:18:18 3 C 37 %
3453 26-02-2020 23:28:18 2.9 C 38 %
3454 26-02-2020 23:38:17 2.8 C 38 %
3455 26-02-2020 23:48:17 2.9 C 37 %
3456 26-02-2020 23:58:17 2.7 C 38 %
3457 27-02-2020 00:08:17 2.9 C 37 %
3458 27-02-2020 00:18:17 3.1 C 37 %
3459 27-02-2020 00:28:17 2.8 C 37 %
3460 27-02-2020 00:38:18 3.1 C 36 %
3461 27-02-2020 00:48:18 2.9 C 37 %
3462 27-02-2020 00:58:18 2.8 C 37 %
3463 27-02-2020 01:08:18 2.3 C 38 %
3464 27-02-2020 01:18:18 2.2 C 38 %
3465 27-02-2020 01:28:18 2.2 C 38 %
3466 27-02-2020 01:38:18 2 C 38 %
3467 27-02-2020 01:48:17 2.6 C 38 %
3468 27-02-2020 01:58:17 2.7 C 38 %
3469 27-02-2020 02:08:18 2.6 C 38 %
3470 27-02-2020 02:18:17 2.9 C 37 %
3471 27-02-2020 02:28:17 2.9 C 37 %
3472 27-02-2020 02:38:17 2.5 C 38 %
3473 27-02-2020 02:48:17 2.7 C 38 %
3474 27-02-2020 02:58:17 3.1 C 36 %
3475 27-02-2020 03:08:18 3.1 C 37 %
Sensor: Nr:Datum:Temp:Feuchte:
Aussen-T/F 3476 27-02-2020 03:18:17 2.6 C 40 %
3477 27-02-2020 03:28:17 2.6 C 40 %
3478 27-02-2020 03:38:17 2.6 C 40 %
3479 27-02-2020 03:48:17 2.7 C 40 %
3480 27-02-2020 03:58:17 2.7 C 40 %
3481 27-02-2020 04:08:18 2.7 C 40 %
3482 27-02-2020 04:18:18 2.7 C 40 %
3483 27-02-2020 04:28:18 2.6 C 40 %
3484 27-02-2020 04:38:18 2.7 C 39 %
3485 27-02-2020 04:48:17 2.3 C 40 %
3486 27-02-2020 04:58:17 2.3 C 39 %
3487 27-02-2020 05:08:18 2.1 C 40 %
3488 27-02-2020 05:18:17 2.3 C 40 %
3489 27-02-2020 05:28:18 2 C 40 %
3490 27-02-2020 05:38:17 2 C 40 %
3491 27-02-2020 05:48:17 2.3 C 40 %
3492 27-02-2020 05:58:17 2.4 C 39 %
3493 27-02-2020 06:08:17 2.2 C 39 %
3494 27-02-2020 06:18:17 2.2 C 38 %
3495 27-02-2020 06:28:17 2.3 C 38 %
3496 27-02-2020 06:38:18 2.3 C 38 %
3497 27-02-2020 06:48:17 2.3 C 38 %
3498 27-02-2020 06:58:17 2.1 C 38 %
3499 27-02-2020 07:08:18 2.3 C 38 %
3500 27-02-2020 07:18:18 2.3 C 38 %
Sensor: Nr:Datum:Temp:Feuchte:
Aussen-T/F 3501 27-02-2020 07:28:18 2.4 C 39 %
3502 27-02-2020 07:38:18 2.5 C 38 %
3503 27-02-2020 07:48:17 2.4 C 39 %
3504 27-02-2020 07:58:17 2.6 C 39 %
3505 27-02-2020 08:08:17 2.5 C 39 %
3506 27-02-2020 08:18:17 2.6 C 40 %
3507 27-02-2020 08:28:17 2.9 C 40 %
3508 27-02-2020 08:38:17 3.2 C 38 %
3509 27-02-2020 08:48:17 3.5 C 37 %
3510 27-02-2020 08:58:17 3.8 C 37 %
3511 27-02-2020 09:08:17 4.2 C 35 %
3512 27-02-2020 09:18:17 4.3 C 35 %
3513 27-02-2020 09:28:17 4.6 C 35 %
3514 27-02-2020 09:38:17 4.7 C 35 %
3515 27-02-2020 09:48:17 4.9 C 35 %
3516 27-02-2020 09:58:17 5.2 C 34 %
3517 27-02-2020 10:08:17 5.1 C 34 %
3518 27-02-2020 10:18:17 5.3 C 33 %
3519 27-02-2020 10:28:17 5.2 C 33 %
3520 27-02-2020 10:38:17 5.4 C 33 %
3521 27-02-2020 10:48:17 5.4 C 33 %
3522 27-02-2020 10:58:17 5 C 33 %
3523 27-02-2020 11:08:17 4.6 C 35 %
3524 27-02-2020 11:18:17 4.2 C 35 %
3525 27-02-2020 11:28:17 3.7 C 36 %
Sensor: Nr:Datum:Temp:Feuchte:
Aussen-T/F 3526 27-02-2020 11:38:17 3.7 C 38 %
3527 27-02-2020 11:48:18 3.9 C 39 %
3528 27-02-2020 11:58:18 3.9 C 39 %
3529 27-02-2020 12:08:18 3.8 C 39 %
3530 27-02-2020 12:18:18 3.9 C 39 %
3531 27-02-2020 12:28:18 3.8 C 40 %
3532 27-02-2020 12:38:18 3.8 C 40 %
3533 27-02-2020 12:48:17 3.5 C 40 %
3534 27-02-2020 12:58:17 3.4 C 41 %
3535 27-02-2020 13:08:18 3.3 C 41 %
3536 27-02-2020 13:18:18 3.2 C 41 %
3537 27-02-2020 13:28:18 3 C 42 %
3538 27-02-2020 13:38:17 2.8 C 42 %
3539 27-02-2020 13:48:17 2.6 C 43 %
3540 27-02-2020 13:58:17 2.6 C 43 %
3541 27-02-2020 14:08:17 2.6 C 44 %
3542 27-02-2020 14:18:17 2.7 C 44 %
3543 27-02-2020 14:28:17 2.5 C 44 %
3544 27-02-2020 14:38:18 2.5 C 44 %
3545 27-02-2020 14:48:18 2.5 C 44 %
3546 27-02-2020 14:58:18 2.4 C 44 %
3547 27-02-2020 15:08:18 2.3 C 44 %
3548 27-02-2020 15:18:18 2.2 C 44 %
3549 27-02-2020 15:28:18 2.3 C 45 %
3550 27-02-2020 15:38:18 2.1 C 44 %
Sensor: Nr:Datum:Temp:Feuchte:
Aussen-T/F 3551 27-02-2020 15:48:17 2.1 C 45 %
3552 27-02-2020 15:58:17 1.8 C 46 %
3553 27-02-2020 16:08:17 1.6 C 46 %
3554 27-02-2020 16:18:17 1.1 C 46 %
3555 27-02-2020 16:28:17 0.8 C 47 %
3556 27-02-2020 16:38:18 0.4 C 48 %
3557 27-02-2020 16:48:17 0.2 C 48 %
3558 27-02-2020 16:58:17 0.2 C 48 %
3559 27-02-2020 17:08:18 0 C 49 %
3560 27-02-2020 17:18:18 0 C 48 %
3561 27-02-2020 17:28:18 0 C 48 %
3562 27-02-2020 17:38:17 0 C 48 %
3563 27-02-2020 17:48:17 0 C 48 %
3564 27-02-2020 17:58:17 0 C 48 %
3565 27-02-2020 18:08:18 0.1 C 48 %
3566 27-02-2020 18:18:17 0.1 C 48 %
3567 27-02-2020 18:28:17 0.1 C 48 %
3568 27-02-2020 18:38:17 0.1 C 48 %
3569 27-02-2020 18:48:18 0.1 C 48 %
3570 27-02-2020 18:58:18 0.1 C 48 %
3571 27-02-2020 19:08:18 0.3 C 48 %
3572 27-02-2020 19:18:18 0.4 C 48 %
3573 27-02-2020 19:28:18 0.3 C 48 %
3574 27-02-2020 19:38:18 0.6 C 48 %
3575 27-02-2020 19:48:18 0.6 C 48 %
Sensor: Nr:Datum:Temp:Feuchte:
Aussen-T/F 3576 27-02-2020 19:58:18 0.6 C 48 %
3577 27-02-2020 20:08:18 0.7 C 48 %
3578 27-02-2020 20:18:18 0.6 C 48 %
3579 27-02-2020 20:28:18 0.8 C 48 %
3580 27-02-2020 20:38:17 0.6 C 48 %
3581 27-02-2020 20:48:17 0.5 C 48 %
3582 27-02-2020 20:58:17 0.6 C 48 %
3583 27-02-2020 21:08:17 0.6 C 48 %
3584 27-02-2020 21:18:17 0.7 C 47 %
3585 27-02-2020 21:28:17 0.7 C 47 %
3586 27-02-2020 21:38:17 0.7 C 47 %
3587 27-02-2020 21:48:17 0.7 C 47 %
3588 27-02-2020 21:58:17 0.7 C 48 %
3589 27-02-2020 22:08:18 0.7 C 48 %
3590 27-02-2020 22:18:17 0.6 C 48 %
3591 27-02-2020 22:28:18 0.7 C 49 %
3592 27-02-2020 22:38:18 1 C 47 %
3593 27-02-2020 22:48:17 1 C 45 %
3594 27-02-2020 22:58:18 1 C 46 %
3595 27-02-2020 23:08:18 1.1 C 46 %
3596 27-02-2020 23:18:18 1.4 C 46 %
3597 27-02-2020 23:28:18 1.6 C 45 %
3598 27-02-2020 23:38:18 1.5 C 44 %
3599 27-02-2020 23:48:18 1.7 C 44 %
3600 27-02-2020 23:58:18 1.6 C 43 %
Sensor: Nr:Datum:Temp:Feuchte:
Aussen-T/F 3601 28-02-2020 00:08:18 1.7 C 43 %
3602 28-02-2020 00:18:17 1.9 C 43 %
3603 28-02-2020 00:28:17 1.7 C 43 %
3604 28-02-2020 00:38:18 1.6 C 45 %
3605 28-02-2020 00:48:17 1.5 C 45 %
3606 28-02-2020 00:58:17 1.7 C 45 %
3607 28-02-2020 01:08:17 1.4 C 46 %
3608 28-02-2020 01:18:17 1.4 C 46 %
3609 28-02-2020 01:28:17 1.3 C 46 %
3610 28-02-2020 01:38:17 1.5 C 45 %
3611 28-02-2020 01:48:18 1.5 C 45 %
3612 28-02-2020 01:58:18 1.4 C 45 %
3613 28-02-2020 02:08:18 1.4 C 46 %
3614 28-02-2020 02:18:18 1.4 C 45 %
3615 28-02-2020 02:28:18 1.5 C 45 %
3616 28-02-2020 02:38:18 1.4 C 44 %
3617 28-02-2020 02:48:17 1.4 C 44 %
3618 28-02-2020 02:58:18 1.4 C 43 %
3619 28-02-2020 03:08:18 1.5 C 42 %
3620 28-02-2020 03:18:18 1.3 C 43 %
3621 28-02-2020 03:28:18 1.1 C 43 %
3622 28-02-2020 03:38:18 1 C 43 %
3623 28-02-2020 03:48:17 0.9 C 44 %
3624 28-02-2020 03:58:17 1.1 C 44 %
3625 28-02-2020 04:08:17 1.2 C 43 %
Sensor: Nr:Datum:Temp:Feuchte:
Aussen-T/F 3626 28-02-2020 04:18:17 1.3 C 43 %
3627 28-02-2020 04:28:18 1.3 C 43 %
3628 28-02-2020 04:38:18 1.3 C 43 %
3629 28-02-2020 04:48:17 1.3 C 43 %
3630 28-02-2020 04:58:17 1.4 C 42 %
3631 28-02-2020 05:08:17 1.2 C 42 %
3632 28-02-2020 05:18:17 1 C 43 %
3633 28-02-2020 05:28:17 0.9 C 45 %
3634 28-02-2020 05:38:17 1 C 43 %
3635 28-02-2020 05:48:17 1.1 C 42 %
3636 28-02-2020 05:58:17 1.1 C 43 %
3637 28-02-2020 06:08:17 0.8 C 44 %
3638 28-02-2020 06:18:17 0.6 C 45 %
3639 28-02-2020 06:28:17 0.8 C 44 %
3640 28-02-2020 06:38:18 0.8 C 43 %
3641 28-02-2020 06:48:18 0.7 C 44 %
3642 28-02-2020 06:58:18 0.5 C 43 %
3643 28-02-2020 07:08:18 0.6 C 43 %
3644 28-02-2020 07:18:17 0.2 C 45 %
3645 28-02-2020 07:28:17 0.7 C 43 %
3646 28-02-2020 07:38:17 0.7 C 43 %
3647 28-02-2020 07:48:18 0.4 C 44 %
3648 28-02-2020 07:58:18 0.4 C 44 %
3649 28-02-2020 08:08:18 0.2 C 45 %
3650 28-02-2020 08:18:18 0.4 C 44 %
Sensor: Nr:Datum:Temp:Feuchte:
Aussen-T/F 3651 28-02-2020 08:28:18 0.2 C 45 %
3652 28-02-2020 08:38:17 0.7 C 44 %
3653 28-02-2020 08:48:17 0.8 C 43 %
3654 28-02-2020 08:58:17 1.1 C 42 %
3655 28-02-2020 09:08:17 1.4 C 41 %
3656 28-02-2020 09:18:17 1.3 C 42 %
3657 28-02-2020 09:28:17 1.5 C 41 %
3658 28-02-2020 09:38:17 1.7 C 41 %
3659 28-02-2020 09:48:18 1.8 C 41 %
3660 28-02-2020 09:58:18 1.9 C 41 %
3661 28-02-2020 10:08:18 2.1 C 40 %
3662 28-02-2020 10:18:18 2.5 C 40 %
3663 28-02-2020 10:28:18 2.8 C 39 %
3664 28-02-2020 10:38:17 3.2 C 37 %
3665 28-02-2020 10:48:17 3.1 C 37 %
3666 28-02-2020 10:58:17 3.3 C 37 %
3667 28-02-2020 11:08:17 3.6 C 37 %
3668 28-02-2020 11:18:17 3.8 C 37 %
3669 28-02-2020 11:28:17 4.2 C 36 %
3670 28-02-2020 11:38:17 4.5 C 36 %
3671 28-02-2020 11:48:18 3.8 C 37 %
3672 28-02-2020 11:58:18 4.1 C 35 %
3673 28-02-2020 12:08:18 4.3 C 35 %
3674 28-02-2020 12:18:18 4.3 C 36 %
3675 28-02-2020 12:28:18 4.6 C 35 %
Sensor: Nr:Datum:Temp:Feuchte:
Aussen-T/F 3676 28-02-2020 12:38:18 5.1 C 34 %
3677 28-02-2020 12:48:18 6.3 C 33 %
3678 28-02-2020 12:58:18 6.5 C 33 %
3679 28-02-2020 13:08:18 6.8 C 32 %
3680 28-02-2020 13:18:18 7.2 C 31 %
3681 28-02-2020 13:28:18 6.7 C 31 %
3682 28-02-2020 13:38:18 7 C 30 %
3683 28-02-2020 13:48:17 7.8 C 29 %
3684 28-02-2020 13:58:17 8 C 28 %
3685 28-02-2020 14:08:18 8.1 C 27 %
3686 28-02-2020 14:18:18 8 C 28 %
3687 28-02-2020 14:28:18 8.2 C 28 %
3688 28-02-2020 14:38:18 8.1 C 27 %
3689 28-02-2020 14:48:17 8.3 C 27 %
3690 28-02-2020 14:58:18 7.7 C 27 %
3691 28-02-2020 15:08:18 8 C 27 %
3692 28-02-2020 15:18:17 8 C 27 %
3693 28-02-2020 15:28:17 8.8 C 26 %
3694 28-02-2020 15:38:18 8.5 C 25 %
3695 28-02-2020 15:48:18 7.8 C 26 %
3696 28-02-2020 15:58:18 7.8 C 26 %
3697 28-02-2020 16:08:18 7.3 C 26 %
3698 28-02-2020 16:18:18 7.5 C 27 %
3699 28-02-2020 16:28:18 7 C 30 %
3700 28-02-2020 16:38:18 6.8 C 31 %
Sensor: Nr:Datum:Temp:Feuchte:
Aussen-T/F 3701 28-02-2020 16:48:17 6.6 C 32 %
3702 28-02-2020 16:58:18 6.7 C 31 %
3703 28-02-2020 17:08:18 6.1 C 32 %
3704 28-02-2020 17:18:18 5.8 C 35 %
3705 28-02-2020 17:28:18 5.1 C 35 %
3706 28-02-2020 17:38:18 5.2 C 35 %
3707 28-02-2020 17:48:17 4.8 C 37 %
3708 28-02-2020 17:58:18 4.6 C 37 %
3709 28-02-2020 18:08:17 4.5 C 37 %
3710 28-02-2020 18:18:17 4.5 C 37 %
3711 28-02-2020 18:28:17 4.7 C 36 %
3712 28-02-2020 18:38:18 5.1 C 34 %
3713 28-02-2020 18:48:17 5.1 C 33 %
3714 28-02-2020 18:58:17 4.9 C 35 %
3715 28-02-2020 19:08:17 5 C 32 %
3716 28-02-2020 19:18:17 5 C 32 %
3717 28-02-2020 19:28:18 4.8 C 35 %
3718 28-02-2020 19:38:17 5.3 C 33 %
3719 28-02-2020 19:48:17 5 C 34 %
3720 28-02-2020 19:58:17 5 C 34 %
3721 28-02-2020 20:08:17 4.7 C 35 %
3722 28-02-2020 20:18:18 4.9 C 33 %
3723 28-02-2020 20:28:18 4.5 C 35 %
3724 28-02-2020 20:38:18 4.4 C 36 %
3725 28-02-2020 20:48:17 4.1 C 36 %
Sensor: Nr:Datum:Temp:Feuchte:
Aussen-T/F 3726 28-02-2020 20:58:17 4 C 38 %
3727 28-02-2020 21:08:18 3.7 C 40 %
3728 28-02-2020 21:18:18 3.7 C 41 %
3729 28-02-2020 21:28:18 3.8 C 40 %
3730 28-02-2020 21:38:18 3.8 C 40 %
3731 28-02-2020 21:48:17 4.2 C 37 %
3732 28-02-2020 21:58:17 4 C 38 %
3733 28-02-2020 22:08:18 3.9 C 39 %
3734 28-02-2020 22:18:18 3.7 C 40 %
3735 28-02-2020 22:28:18 3.7 C 41 %
3736 28-02-2020 22:38:17 3.6 C 42 %
3737 28-02-2020 22:48:17 3.5 C 44 %
3738 28-02-2020 22:58:17 3.6 C 45 %
3739 28-02-2020 23:08:17 3.4 C 46 %
3740 28-02-2020 23:18:17 3.5 C 46 %
3741 28-02-2020 23:28:18 3.6 C 45 %
3742 28-02-2020 23:38:18 3.8 C 43 %
3743 28-02-2020 23:48:18 3.9 C 44 %
3744 28-02-2020 23:58:18 3.9 C 44 %
3745 29-02-2020 00:08:18 4.3 C 42 %
3746 29-02-2020 00:18:18 4.5 C 42 %
3747 29-02-2020 00:28:18 4.7 C 41 %
3748 29-02-2020 00:38:18 5.1 C 40 %
3749 29-02-2020 00:48:17 5 C 41 %
3750 29-02-2020 00:58:17 4.8 C 42 %
Sensor: Nr:Datum:Temp:Feuchte:
Aussen-T/F 3751 29-02-2020 01:08:18 5 C 42 %
3752 29-02-2020 01:18:18 4.8 C 43 %
3753 29-02-2020 01:28:18 4.9 C 45 %
3754 29-02-2020 01:38:18 5 C 44 %
3755 29-02-2020 01:48:17 5.1 C 45 %
3756 29-02-2020 01:58:17 5.1 C 45 %
3757 29-02-2020 02:08:18 5.2 C 44 %
3758 29-02-2020 02:18:18 5.2 C 45 %
3759 29-02-2020 02:28:18 5.3 C 45 %
3760 29-02-2020 02:38:18 5.6 C 44 %
3761 29-02-2020 02:48:17 5.9 C 43 %
3762 29-02-2020 02:58:17 7 C 41 %
3763 29-02-2020 03:08:18 7.5 C 40 %
3764 29-02-2020 03:18:18 7.8 C 39 %
3765 29-02-2020 03:28:18 8.5 C 38 %
3766 29-02-2020 03:38:18 8.3 C 38 %
3767 29-02-2020 03:48:17 8.8 C 38 %
3768 29-02-2020 03:58:17 8.9 C 38 %
3769 29-02-2020 04:08:18 9.1 C 37 %
3770 29-02-2020 04:18:17 9.4 C 37 %
3771 29-02-2020 04:28:18 9.5 C 37 %
3772 29-02-2020 04:38:18 9 C 37 %
3773 29-02-2020 04:48:17 9.3 C 37 %
3774 29-02-2020 04:58:17 9 C 37 %
3775 29-02-2020 05:08:18 9.1 C 37 %
Sensor: Nr:Datum:Temp:Feuchte:
Aussen-T/F 3776 29-02-2020 05:18:17 9 C 37 %
3777 29-02-2020 05:28:17 9.2 C 36 %
3778 29-02-2020 05:38:17 8.6 C 37 %
3779 29-02-2020 05:48:18 8.8 C 37 %
3780 29-02-2020 05:58:18 9.1 C 36 %
3781 29-02-2020 06:08:17 8.8 C 37 %
3782 29-02-2020 06:18:17 8.4 C 37 %
3783 29-02-2020 06:28:17 8.6 C 37 %
3784 29-02-2020 06:38:17 8.7 C 37 %
3785 29-02-2020 06:48:17 8.6 C 37 %
3786 29-02-2020 06:58:17 8.4 C 37 %
3787 29-02-2020 07:08:17 8.1 C 37 %
3788 29-02-2020 07:18:17 8 C 37 %
3789 29-02-2020 07:28:17 8.3 C 37 %
3790 29-02-2020 07:38:17 7.8 C 38 %
3791 29-02-2020 07:48:17 7.6 C 38 %
3792 29-02-2020 07:58:17 7.3 C 39 %
3793 29-02-2020 08:08:17 7.6 C 38 %
3794 29-02-2020 08:18:17 7.4 C 39 %
3795 29-02-2020 08:28:17 7.5 C 39 %
3796 29-02-2020 08:38:17 7.4 C 39 %
3797 29-02-2020 08:48:17 7.6 C 39 %
3798 29-02-2020 08:58:17 8 C 38 %
3799 29-02-2020 09:08:17 8.3 C 37 %
3800 29-02-2020 09:18:17 8.9 C 36 %
Sensor: Nr:Datum:Temp:Feuchte:
Aussen-T/F 3801 29-02-2020 09:28:17 9.2 C 36 %
3802 29-02-2020 09:38:17 9.6 C 35 %
3803 29-02-2020 09:48:17 10 C 33 %
3804 29-02-2020 09:58:17 10 C 32 %
3805 29-02-2020 10:08:17 10 C 32 %
3806 29-02-2020 10:18:17 9.9 C 33 %
3807 29-02-2020 10:28:17 10.1 C 31 %
3808 29-02-2020 10:38:18 10.4 C 31 %
3809 29-02-2020 10:48:17 10.7 C 31 %
3810 29-02-2020 10:58:17 10.7 C 31 %
3811 29-02-2020 11:08:18 11.1 C 30 %
3812 29-02-2020 11:18:17 12.1 C 30 %
3813 29-02-2020 11:28:17 13.9 C 25 %
3814 29-02-2020 11:38:17 13.7 C 23 %
3815 29-02-2020 11:48:17 13.4 C 24 %
3816 29-02-2020 11:58:17 14.3 C 23 %
3817 29-02-2020 12:08:17 15.5 C 20 %
3818 29-02-2020 12:18:18 15.4 C 20 %
3819 29-02-2020 12:28:18 15.1 C 20 %
3820 29-02-2020 12:38:17 16.2 C 20 %
3821 29-02-2020 12:48:17 15.1 C 20 %
3822 29-02-2020 12:58:17 15.4 C 20 %
3823 29-02-2020 13:08:17 15.5 C 20 %
3824 29-02-2020 13:18:17 15 C 20 %
3825 29-02-2020 13:28:17 14.8 C 20 %
Sensor: Nr:Datum:Temp:Feuchte:
Aussen-T/F 3826 29-02-2020 13:38:18 15.4 C 20 %
3827 29-02-2020 13:48:18 15.6 C 20 %
3828 29-02-2020 13:58:18 16.4 C 20 %
3829 29-02-2020 14:08:18 15.1 C 20 %
3830 29-02-2020 14:18:17 15.1 C 20 %
3831 29-02-2020 14:28:17 14.8 C 21 %
3832 29-02-2020 14:38:17 13.1 C 26 %
3833 29-02-2020 14:48:17 12 C 32 %
3834 29-02-2020 14:58:17 10.5 C 38 %
3835 29-02-2020 15:08:17 10.4 C 39 %
3836 29-02-2020 15:18:17 10.8 C 39 %
3837 29-02-2020 15:28:17 10.6 C 40 %
3838 29-02-2020 15:38:18 10.4 C 39 %
3839 29-02-2020 15:48:17 10.7 C 37 %
3840 29-02-2020 15:58:17 11.3 C 35 %
3841 29-02-2020 16:08:18 12.6 C 32 %
3842 29-02-2020 16:18:17 12 C 32 %
3843 29-02-2020 16:28:18 10.7 C 35 %
3844 29-02-2020 16:38:18 10.1 C 37 %
3845 29-02-2020 16:48:17 9.9 C 37 %
3846 29-02-2020 16:58:17 9.5 C 36 %
3847 29-02-2020 17:08:18 9 C 35 %
3848 29-02-2020 17:18:17 8.9 C 35 %
3849 29-02-2020 17:28:18 8.8 C 34 %
3850 29-02-2020 17:38:18 8.6 C 34 %
Sensor: Nr:Datum:Temp:Feuchte:
Aussen-T/F 3851 29-02-2020 17:48:18 8.6 C 35 %
3852 29-02-2020 17:58:18 8.7 C 34 %
3853 29-02-2020 18:08:18 8.6 C 35 %
3854 29-02-2020 18:18:18 8.2 C 35 %
3855 29-02-2020 18:28:18 8.1 C 35 %
3856 29-02-2020 18:38:18 8 C 35 %
3857 29-02-2020 18:48:17 6.7 C 36 %
3858 29-02-2020 18:58:17 5.9 C 36 %
3859 29-02-2020 19:08:17 5.9 C 37 %
3860 29-02-2020 19:18:18 6 C 36 %
3861 29-02-2020 19:28:18 6.3 C 35 %
3862 29-02-2020 19:38:18 6.7 C 34 %
3863 29-02-2020 19:48:18 6.6 C 34 %
3864 29-02-2020 19:58:18 6.7 C 34 %
3865 29-02-2020 20:08:18 6.6 C 34 %
3866 29-02-2020 20:18:18 6.3 C 34 %
3867 29-02-2020 20:28:18 6.3 C 34 %
3868 29-02-2020 20:38:18 5.9 C 35 %
3869 29-02-2020 20:48:18 5.7 C 35 %
3870 29-02-2020 20:58:18 5.3 C 35 %
3871 29-02-2020 21:08:18 5.2 C 35 %
3872 29-02-2020 21:18:17 5.7 C 34 %
3873 29-02-2020 21:28:17 5 C 35 %
3874 29-02-2020 21:38:17 5 C 35 %
3875 29-02-2020 21:48:17 4.3 C 36 %
Sensor: Nr:Datum:Temp:Feuchte:
Aussen-T/F 3876 29-02-2020 21:58:17 3.9 C 38 %
3877 29-02-2020 22:08:17 3.7 C 38 %
3878 29-02-2020 22:18:18 3.4 C 39 %
3879 29-02-2020 22:28:18 3.3 C 40 %
3880 29-02-2020 22:38:18 3.3 C 41 %
3881 29-02-2020 22:48:17 3.7 C 40 %
3882 29-02-2020 22:58:18 4 C 39 %
3883 29-02-2020 23:08:18 4.2 C 38 %
3884 29-02-2020 23:18:18 4.4 C 38 %
3885 29-02-2020 23:28:18 4.5 C 38 %
3886 29-02-2020 23:38:18 4.7 C 38 %
3887 29-02-2020 23:48:18 5.4 C 36 %
3888 29-02-2020 23:58:18 6.3 C 35 %
3889 01-03-2020 00:08:18 6.6 C 35 %
3890 01-03-2020 00:18:18 6.6 C 35 %
3891 01-03-2020 00:28:18 6.3 C 35 %
3892 01-03-2020 00:38:18 6.2 C 35 %
3893 01-03-2020 00:48:17 6.2 C 35 %
3894 01-03-2020 00:58:18 6.2 C 35 %
3895 01-03-2020 01:08:17 6.1 C 35 %
3896 01-03-2020 01:18:18 6 C 35 %
3897 01-03-2020 01:28:18 5.7 C 35 %
3898 01-03-2020 01:38:18 5.5 C 36 %
3899 01-03-2020 01:48:17 5.8 C 36 %
3900 01-03-2020 01:58:17 5.8 C 35 %
Sensor: Nr:Datum:Temp:Feuchte:
Aussen-T/F 3901 01-03-2020 02:08:17 5.3 C 36 %
3902 01-03-2020 02:18:17 5.8 C 36 %
3903 01-03-2020 02:28:17 5.7 C 36 %
3904 01-03-2020 02:38:17 5.8 C 36 %
3905 01-03-2020 02:48:17 6.2 C 35 %
3906 01-03-2020 02:58:17 6.5 C 35 %
3907 01-03-2020 03:08:18 6.5 C 35 %
3908 01-03-2020 03:18:17 6.6 C 35 %
3909 01-03-2020 03:28:17 6.7 C 35 %
3910 01-03-2020 03:38:18 6.5 C 35 %
3911 01-03-2020 03:48:17 6.4 C 35 %
3912 01-03-2020 03:58:17 6.8 C 35 %
3913 01-03-2020 04:08:17 6.6 C 35 %
3914 01-03-2020 04:18:17 6.9 C 34 %
3915 01-03-2020 04:28:17 7 C 33 %
3916 01-03-2020 04:38:18 6.9 C 34 %
3917 01-03-2020 04:48:17 7.1 C 33 %
3918 01-03-2020 04:58:17 7 C 33 %
3919 01-03-2020 05:08:17 7.1 C 33 %
3920 01-03-2020 05:18:18 6.8 C 34 %
3921 01-03-2020 05:28:18 7.2 C 32 %
3922 01-03-2020 05:38:18 6.8 C 34 %
3923 01-03-2020 05:48:17 6.9 C 34 %
3924 01-03-2020 05:58:18 6.6 C 34 %
3925 01-03-2020 06:08:18 6.7 C 34 %
Sensor: Nr:Datum:Temp:Feuchte:
Aussen-T/F 3926 01-03-2020 06:18:17 6.8 C 34 %
3927 01-03-2020 06:28:17 7 C 33 %
3928 01-03-2020 06:38:17 7.1 C 33 %
3929 01-03-2020 06:48:17 6.4 C 35 %
3930 01-03-2020 06:58:17 5.9 C 36 %
3931 01-03-2020 07:08:17 5.4 C 38 %
3932 01-03-2020 07:18:17 5.4 C 39 %
3933 01-03-2020 07:28:18 5.2 C 39 %
3934 01-03-2020 07:38:18 5.1 C 41 %
3935 01-03-2020 07:48:18 5.2 C 41 %
3936 01-03-2020 07:58:18 5.2 C 42 %
3937 01-03-2020 08:08:18 5.2 C 42 %
3938 01-03-2020 08:18:17 5.3 C 42 %
3939 01-03-2020 08:28:17 5 C 40 %
3940 01-03-2020 08:38:17 4.7 C 41 %
3941 01-03-2020 08:48:17 4 C 41 %
3942 01-03-2020 08:58:17 4 C 42 %
3943 01-03-2020 09:08:17 4.1 C 42 %
3944 01-03-2020 09:18:17 4.3 C 41 %
3945 01-03-2020 09:28:17 4.8 C 40 %
3946 01-03-2020 09:38:17 4.8 C 41 %
3947 01-03-2020 09:48:18 4.7 C 41 %
3948 01-03-2020 09:58:18 4.8 C 41 %
3949 01-03-2020 10:08:17 5.3 C 40 %
3950 01-03-2020 10:18:17 5.7 C 39 %
Sensor: Nr:Datum:Temp:Feuchte:
Aussen-T/F 3951 01-03-2020 10:28:17 7.1 C 36 %
3952 01-03-2020 10:38:17 7.6 C 36 %
3953 01-03-2020 10:48:17 7.8 C 35 %
3954 01-03-2020 10:58:17 8 C 34 %
3955 01-03-2020 11:08:17 8.1 C 33 %
3956 01-03-2020 11:18:17 8.6 C 33 %
3957 01-03-2020 11:28:18 10 C 30 %
3958 01-03-2020 11:38:18 10.2 C 28 %
3959 01-03-2020 11:48:17 8.8 C 29 %
3960 01-03-2020 11:58:17 10.2 C 27 %
3961 01-03-2020 12:08:17 8.9 C 30 %
3962 01-03-2020 12:18:17 9.3 C 28 %
3963 01-03-2020 12:28:17 9.7 C 27 %
3964 01-03-2020 12:38:18 9.2 C 28 %
3965 01-03-2020 12:48:18 11.4 C 26 %
3966 01-03-2020 12:58:18 12.3 C 21 %
3967 01-03-2020 13:08:18 11.4 C 24 %
3968 01-03-2020 13:18:17 10.4 C 25 %
3969 01-03-2020 13:28:17 10.4 C 25 %
3970 01-03-2020 13:38:17 10.6 C 22 %
3971 01-03-2020 13:48:17 10.2 C 22 %
3972 01-03-2020 13:58:17 10.8 C 22 %
3973 01-03-2020 14:08:18 10.1 C 23 %
3974 01-03-2020 14:18:18 9.9 C 25 %
3975 01-03-2020 14:28:18 10.9 C 25 %
Sensor: Nr:Datum:Temp:Feuchte:
Aussen-T/F 3976 01-03-2020 14:38:18 10.5 C 23 %
3977 01-03-2020 14:48:17 10.9 C 25 %
3978 01-03-2020 14:58:18 10.1 C 25 %
3979 01-03-2020 15:08:18 10.1 C 25 %
3980 01-03-2020 15:18:17 12.6 C 20 %
3981 01-03-2020 15:28:17 11.9 C 22 %
3982 01-03-2020 15:38:18 12 C 20 %
3983 01-03-2020 15:48:18 12.8 C 20 %
3984 01-03-2020 15:58:18 11.7 C 21 %
3985 01-03-2020 16:08:18 10.8 C 25 %
3986 01-03-2020 16:18:18 10.5 C 25 %
3987 01-03-2020 16:28:18 10.7 C 25 %
3988 01-03-2020 16:38:18 10.3 C 30 %
3989 01-03-2020 16:48:18 10.2 C 29 %
3990 01-03-2020 16:58:18 9.7 C 31 %
3991 01-03-2020 17:08:18 8.4 C 35 %
3992 01-03-2020 17:18:17 7.8 C 39 %
3993 01-03-2020 17:28:17 7.6 C 42 %
3994 01-03-2020 17:38:17 7.3 C 43 %
3995 01-03-2020 17:48:17 7 C 44 %
3996 01-03-2020 17:58:17 6.9 C 45 %
3997 01-03-2020 18:08:18 6.8 C 45 %
3998 01-03-2020 18:18:18 6.7 C 45 %
3999 01-03-2020 18:28:18 6.7 C 45 %
4000 01-03-2020 18:38:18 6.7 C 45 %
Sensor: Nr:Datum:Temp:Feuchte:
Aussen-T/F 4001 01-03-2020 18:48:18 6.6 C 45 %
4002 01-03-2020 18:58:18 6.5 C 45 %
4003 01-03-2020 19:08:18 6.5 C 45 %
4004 01-03-2020 19:18:17 6.5 C 45 %
4005 01-03-2020 19:28:17 6.4 C 45 %
4006 01-03-2020 19:38:17 6.3 C 45 %
4007 01-03-2020 19:48:17 6.3 C 45 %
4008 01-03-2020 19:58:17 6.2 C 45 %
4009 01-03-2020 20:08:17 6.3 C 45 %
4010 01-03-2020 20:18:17 6.2 C 45 %
4011 01-03-2020 20:28:17 6 C 45 %
4012 01-03-2020 20:38:17 5.8 C 45 %
4013 01-03-2020 20:48:17 5.7 C 45 %
4014 01-03-2020 20:58:17 5.6 C 45 %
4015 01-03-2020 21:08:17 5.6 C 45 %
4016 01-03-2020 21:18:17 5.5 C 45 %
4017 01-03-2020 21:28:17 5.4 C 45 %
4018 01-03-2020 21:38:17 5.7 C 45 %
4019 01-03-2020 21:48:17 5.8 C 45 %
4020 01-03-2020 21:58:17 5.9 C 45 %
4021 01-03-2020 22:08:17 6 C 45 %
4022 01-03-2020 22:18:17 6 C 45 %
4023 01-03-2020 22:28:17 6.1 C 45 %
4024 01-03-2020 22:38:18 6.2 C 45 %
4025 01-03-2020 22:48:17 6.2 C 45 %
Sensor: Nr:Datum:Temp:Feuchte:
Aussen-T/F 4026 01-03-2020 22:58:17 6.3 C 45 %
4027 01-03-2020 23:08:18 6.4 C 45 %
4028 01-03-2020 23:18:18 5.8 C 45 %
4029 01-03-2020 23:28:18 4.3 C 40 %
4030 01-03-2020 23:38:18 3.1 C 41 %
4031 01-03-2020 23:48:18 2.9 C 44 %
4032 01-03-2020 23:58:18 3.1 C 44 %
4033 02-03-2020 00:08:18 3.3 C 44 %
4034 02-03-2020 00:18:17 3.3 C 43 %
4035 02-03-2020 00:28:17 3.5 C 43 %
4036 02-03-2020 00:38:17 3.5 C 43 %
4037 02-03-2020 00:48:17 3.7 C 42 %
4038 02-03-2020 00:58:18 3.6 C 42 %
4039 02-03-2020 01:08:18 3.7 C 42 %
4040 02-03-2020 01:18:17 3.9 C 41 %
4041 02-03-2020 01:28:17 3.8 C 42 %
4042 02-03-2020 01:38:17 3.8 C 41 %
4043 02-03-2020 01:48:18 4 C 40 %
4044 02-03-2020 01:58:18 3.5 C 42 %
4045 02-03-2020 02:08:18 3.7 C 42 %
4046 02-03-2020 02:18:17 3.6 C 42 %
4047 02-03-2020 02:28:17 3.5 C 42 %
4048 02-03-2020 02:38:17 4 C 40 %
4049 02-03-2020 02:48:17 3.8 C 41 %
4050 02-03-2020 02:58:18 3.5 C 42 %
Sensor: Nr:Datum:Temp:Feuchte:
Aussen-T/F 4051 02-03-2020 03:08:18 3.3 C 43 %
4052 02-03-2020 03:18:18 3.4 C 42 %
4053 02-03-2020 03:28:18 2.9 C 44 %
4054 02-03-2020 03:38:18 2.4 C 45 %
4055 02-03-2020 03:48:18 2.9 C 45 %
4056 02-03-2020 03:58:18 2.6 C 45 %
4057 02-03-2020 04:08:18 2.3 C 45 %
4058 02-03-2020 04:18:17 2 C 46 %
4059 02-03-2020 04:28:17 2.2 C 46 %
4060 02-03-2020 04:38:18 2.3 C 47 %
4061 02-03-2020 04:48:18 2.2 C 46 %
4062 02-03-2020 04:58:18 1.9 C 48 %
4063 02-03-2020 05:08:18 1.7 C 48 %
4064 02-03-2020 05:18:17 1.5 C 48 %
4065 02-03-2020 05:28:17 1.3 C 48 %
4066 02-03-2020 05:38:18 1.4 C 48 %
4067 02-03-2020 05:48:18 1.4 C 48 %
4068 02-03-2020 05:58:18 1.3 C 48 %
4069 02-03-2020 06:08:18 1.1 C 48 %
4070 02-03-2020 06:18:18 1.3 C 48 %
4071 02-03-2020 06:28:18 1.3 C 48 %
4072 02-03-2020 06:38:18 1.4 C 48 %
4073 02-03-2020 06:48:17 1.4 C 48 %
4074 02-03-2020 06:58:17 1.5 C 48 %
4075 02-03-2020 07:08:18 1.5 C 48 %
Sensor: Nr:Datum:Temp:Feuchte:
Aussen-T/F 4076 02-03-2020 07:18:18 1.7 C 48 %
4077 02-03-2020 07:28:18 1.8 C 48 %
4078 02-03-2020 07:38:18 2.1 C 47 %
4079 02-03-2020 07:48:18 2.3 C 47 %
4080 02-03-2020 07:58:18 2.5 C 47 %
4081 02-03-2020 08:08:18 2.5 C 47 %
4082 02-03-2020 08:18:17 2.7 C 47 %
4083 02-03-2020 08:28:17 3 C 46 %
4084 02-03-2020 08:38:18 3.2 C 46 %
4085 02-03-2020 08:48:18 3.5 C 46 %
4086 02-03-2020 08:58:18 3.8 C 45 %
4087 02-03-2020 09:08:17 4.1 C 43 %
4088 02-03-2020 09:18:17 4.5 C 42 %
4089 02-03-2020 09:28:17 4.9 C 40 %
4090 02-03-2020 09:38:17 5.4 C 39 %
4091 02-03-2020 09:48:17 5.7 C 39 %
4092 02-03-2020 09:58:17 6.1 C 38 %
4093 02-03-2020 10:08:17 6.6 C 37 %
4094 02-03-2020 10:18:17 6.9 C 36 %
4095 02-03-2020 10:28:17 7.4 C 35 %
4096 02-03-2020 10:38:18 8.2 C 34 %
4097 02-03-2020 10:48:17 8.9 C 34 %
4098 02-03-2020 10:58:17 9 C 33 %
4099 02-03-2020 11:08:17 9 C 33 %
4100 02-03-2020 11:18:17 11.5 C 30 %
Sensor: Nr:Datum:Temp:Feuchte:
Aussen-T/F 4101 02-03-2020 11:28:17 13 C 26 %
4102 02-03-2020 11:38:17 13.9 C 25 %
4103 02-03-2020 11:48:17 11.8 C 27 %
4104 02-03-2020 11:58:17 13.6 C 24 %
4105 02-03-2020 12:08:17 13.3 C 21 %
4106 02-03-2020 12:18:17 13.2 C 21 %
4107 02-03-2020 12:28:17 12.3 C 23 %
4108 02-03-2020 12:38:18 13 C 23 %
4109 02-03-2020 12:48:18 11.8 C 24 %
4110 02-03-2020 12:58:18 11.7 C 25 %
4111 02-03-2020 13:08:18 12.4 C 23 %
4112 02-03-2020 13:18:18 14.7 C 20 %
4113 02-03-2020 13:28:18 14.2 C 20 %
4114 02-03-2020 13:38:17 15.6 C 20 %
4115 02-03-2020 13:48:17 14.1 C 20 %
4116 02-03-2020 13:58:17 12.3 C 21 %
4117 02-03-2020 14:08:17 11.8 C 23 %
4118 02-03-2020 14:18:17 12.1 C 23 %
4119 02-03-2020 14:28:17 11.7 C 25 %
4120 02-03-2020 14:38:17 11.2 C 25 %
4121 02-03-2020 14:48:17 10.9 C 25 %
4122 02-03-2020 14:58:17 10.8 C 26 %
4123 02-03-2020 15:08:18 10.9 C 26 %
4124 02-03-2020 15:18:18 10.9 C 26 %
4125 02-03-2020 15:28:18 10.2 C 26 %
Sensor: Nr:Datum:Temp:Feuchte:
Aussen-T/F 4126 02-03-2020 15:38:18 9.2 C 30 %
4127 02-03-2020 15:48:17 8.7 C 33 %
4128 02-03-2020 15:58:18 8.4 C 36 %
4129 02-03-2020 16:08:18 8 C 40 %
4130 02-03-2020 16:18:18 7.6 C 41 %
4131 02-03-2020 16:28:18 7.3 C 42 %
4132 02-03-2020 16:38:18 7.2 C 43 %
4133 02-03-2020 16:48:17 7.1 C 43 %
4134 02-03-2020 16:58:17 7 C 44 %
4135 02-03-2020 17:08:17 6.9 C 45 %
4136 02-03-2020 17:18:17 6.6 C 45 %
4137 02-03-2020 17:28:17 6.6 C 45 %
4138 02-03-2020 17:38:18 6.4 C 45 %
4139 02-03-2020 17:48:17 6.3 C 45 %
4140 02-03-2020 17:58:18 6.3 C 45 %
4141 02-03-2020 18:08:18 6.2 C 45 %
4142 02-03-2020 18:18:18 6.1 C 45 %
4143 02-03-2020 18:28:18 6 C 45 %
4144 02-03-2020 18:38:18 5.9 C 46 %
4145 02-03-2020 18:48:17 5.9 C 46 %
4146 02-03-2020 18:58:18 5.8 C 46 %
4147 02-03-2020 19:08:18 5.7 C 46 %
4148 02-03-2020 19:18:18 5.7 C 46 %
4149 02-03-2020 19:28:18 5.7 C 46 %
4150 02-03-2020 19:38:18 5.7 C 46 %
Sensor: Nr:Datum:Temp:Feuchte:
Aussen-T/F 4151 02-03-2020 19:48:17 5.7 C 45 %
4152 02-03-2020 19:58:18 5.7 C 45 %
4153 02-03-2020 20:08:18 5.7 C 45 %
4154 02-03-2020 20:18:17 5.7 C 45 %
4155 02-03-2020 20:28:18 5.6 C 45 %
4156 02-03-2020 20:38:18 5.6 C 45 %
4157 02-03-2020 20:48:17 5.6 C 45 %
4158 02-03-2020 20:58:17 5.5 C 45 %
4159 02-03-2020 21:08:18 5.4 C 45 %
4160 02-03-2020 21:18:18 5.4 C 45 %
4161 02-03-2020 21:28:18 5.4 C 45 %
4162 02-03-2020 21:38:18 5.4 C 45 %
4163 02-03-2020 21:48:18 5.4 C 45 %
4164 02-03-2020 21:58:18 5.4 C 45 %
4165 02-03-2020 22:08:18 5.4 C 45 %
4166 02-03-2020 22:18:17 5.4 C 45 %
4167 02-03-2020 22:28:17 5.5 C 45 %
4168 02-03-2020 22:38:17 5.4 C 45 %
4169 02-03-2020 22:48:17 5.5 C 45 %
4170 02-03-2020 22:58:17 5.5 C 45 %
4171 02-03-2020 23:08:17 5.5 C 45 %
4172 02-03-2020 23:18:17 5.2 C 45 %
4173 02-03-2020 23:28:17 5.2 C 45 %
4174 02-03-2020 23:38:17 5.2 C 45 %
4175 02-03-2020 23:48:17 5.3 C 45 %
Sensor: Nr:Datum:Temp:Feuchte:
Aussen-T/F 4176 02-03-2020 23:58:17 5.3 C 45 %
Sensor: Nr:Datum:Temp:Feuchte:
G-T/H 1 03-02-2020 00:06:18 11.4 C 75 %
2 03-02-2020 00:16:17 11.4 C 75 %
3 03-02-2020 00:26:17 11.4 C 75 %
4 03-02-2020 00:36:17 11.5 C 75 %
5 03-02-2020 00:46:17 11.5 C 75 %
6 03-02-2020 00:56:17 11.4 C 75 %
7 03-02-2020 01:06:18 11.4 C 75 %
8 03-02-2020 01:16:17 11.4 C 75 %
9 03-02-2020 01:26:17 11.4 C 75 %
10 03-02-2020 01:36:17 11.4 C 75 %
11 03-02-2020 01:46:17 11.5 C 75 %
12 03-02-2020 01:56:17 11.4 C 75 %
13 03-02-2020 02:06:18 11.4 C 75 %
14 03-02-2020 02:16:17 11.4 C 75 %
15 03-02-2020 02:26:17 11.4 C 75 %
16 03-02-2020 02:36:17 11.5 C 75 %
17 03-02-2020 02:46:17 11.4 C 75 %
18 03-02-2020 02:56:17 11.4 C 75 %
19 03-02-2020 03:06:18 11.5 C 75 %
20 03-02-2020 03:16:17 11.5 C 75 %
21 03-02-2020 03:26:17 11.5 C 75 %
22 03-02-2020 03:36:17 11.5 C 75 %
23 03-02-2020 03:46:17 11.5 C 75 %
24 03-02-2020 03:56:17 11.4 C 75 %
25 03-02-2020 04:06:17 11.5 C 75 %
Sensor: Nr:Datum:Temp:Feuchte:
G-T/H 26 03-02-2020 04:16:17 11.4 C 75 %
27 03-02-2020 04:26:18 11.4 C 75 %
28 03-02-2020 04:36:18 11.4 C 75 %
29 03-02-2020 04:46:17 11.4 C 75 %
30 03-02-2020 04:56:18 11.5 C 75 %
31 03-02-2020 05:06:18 11.5 C 75 %
32 03-02-2020 05:16:17 11.4 C 75 %
33 03-02-2020 05:26:17 11.5 C 75 %
34 03-02-2020 05:36:17 11.4 C 75 %
35 03-02-2020 05:46:17 11.4 C 75 %
36 03-02-2020 05:56:17 11.4 C 75 %
37 03-02-2020 06:06:17 11.4 C 75 %
38 03-02-2020 06:16:17 11.4 C 75 %
39 03-02-2020 06:26:17 11.4 C 75 %
40 03-02-2020 06:36:17 11.4 C 75 %
41 03-02-2020 06:46:17 11.4 C 75 %
42 03-02-2020 06:56:17 11.4 C 75 %
43 03-02-2020 07:06:18 11.4 C 75 %
44 03-02-2020 07:16:18 11.4 C 75 %
45 03-02-2020 07:26:18 11.4 C 75 %
46 03-02-2020 07:36:18 11.4 C 75 %
47 03-02-2020 07:46:18 11.4 C 75 %
48 03-02-2020 07:56:18 11.4 C 75 %
49 03-02-2020 08:06:17 11.4 C 75 %
50 03-02-2020 08:16:17 11.4 C 75 %
Sensor: Nr:Datum:Temp:Feuchte:
G-T/H 51 03-02-2020 08:26:17 11.4 C 75 %
52 03-02-2020 08:36:17 11.4 C 75 %
53 03-02-2020 08:46:17 11.4 C 75 %
54 03-02-2020 08:56:17 11.4 C 75 %
55 03-02-2020 09:06:17 11.4 C 75 %
56 03-02-2020 09:16:18 11.4 C 75 %
57 03-02-2020 09:26:18 11.4 C 75 %
58 03-02-2020 09:36:17 11.4 C 75 %
59 03-02-2020 09:46:17 11.4 C 75 %
60 03-02-2020 09:56:17 11.4 C 75 %
61 03-02-2020 10:06:17 11.4 C 75 %
62 03-02-2020 10:16:17 11.4 C 75 %
63 03-02-2020 10:26:17 11.4 C 75 %
64 03-02-2020 10:36:18 11.4 C 75 %
65 03-02-2020 10:46:18 11.4 C 75 %
66 03-02-2020 10:56:18 11.4 C 75 %
67 03-02-2020 11:06:18 11.4 C 75 %
68 03-02-2020 11:16:17 11.4 C 75 %
69 03-02-2020 11:26:17 11.4 C 75 %
70 03-02-2020 11:36:17 11.4 C 75 %
71 03-02-2020 11:46:17 11.4 C 75 %
72 03-02-2020 11:56:17 11.4 C 75 %
73 03-02-2020 12:06:17 11.4 C 75 %
74 03-02-2020 12:16:17 11.5 C 75 %
75 03-02-2020 12:26:17 11.5 C 75 %
Sensor: Nr:Datum:Temp:Feuchte:
G-T/H 76 03-02-2020 12:36:17 11.5 C 75 %
77 03-02-2020 12:46:18 11.5 C 75 %
78 03-02-2020 12:56:18 11.5 C 75 %
79 03-02-2020 13:06:18 11.5 C 75 %
80 03-02-2020 13:16:17 11.5 C 75 %
81 03-02-2020 13:26:17 11.5 C 75 %
82 03-02-2020 13:36:17 11.5 C 75 %
83 03-02-2020 13:46:17 11.5 C 75 %
84 03-02-2020 13:56:17 11.5 C 75 %
85 03-02-2020 14:06:18 11.5 C 75 %
86 03-02-2020 14:16:18 11.5 C 75 %
87 03-02-2020 14:26:18 11.5 C 75 %
88 03-02-2020 14:36:17 11.5 C 75 %
89 03-02-2020 14:46:17 11.5 C 75 %
90 03-02-2020 14:56:17 11.5 C 75 %
91 03-02-2020 15:06:17 11.5 C 75 %
92 03-02-2020 15:16:17 11.5 C 75 %
93 03-02-2020 15:26:17 11.5 C 75 %
94 03-02-2020 15:36:18 11.5 C 75 %
95 03-02-2020 15:46:18 11.6 C 75 %
96 03-02-2020 15:56:18 11.6 C 75 %
97 03-02-2020 16:06:17 11.5 C 75 %
98 03-02-2020 16:16:17 11.6 C 75 %
99 03-02-2020 16:26:17 11.6 C 75 %
100 03-02-2020 16:36:17 11.6 C 75 %
Sensor: Nr:Datum:Temp:Feuchte:
G-T/H 101 03-02-2020 16:46:17 11.6 C 75 %
102 03-02-2020 16:56:17 11.6 C 75 %
103 03-02-2020 17:06:17 11.6 C 75 %
104 03-02-2020 17:16:18 11.6 C 75 %
105 03-02-2020 17:26:18 11.6 C 75 %
106 03-02-2020 17:36:17 11.6 C 75 %
107 03-02-2020 17:46:18 11.6 C 75 %
108 03-02-2020 17:56:18 11.6 C 75 %
109 03-02-2020 18:06:17 11.6 C 75 %
110 03-02-2020 18:16:17 11.6 C 75 %
111 03-02-2020 18:26:17 11.6 C 75 %
112 03-02-2020 18:36:18 11.6 C 75 %
113 03-02-2020 18:46:18 11.6 C 75 %
114 03-02-2020 18:56:18 11.6 C 75 %
115 03-02-2020 19:06:18 11.6 C 75 %
116 03-02-2020 19:16:17 11.6 C 75 %
117 03-02-2020 19:26:17 11.6 C 75 %
118 03-02-2020 19:36:17 11.6 C 75 %
119 03-02-2020 19:46:17 11.5 C 75 %
120 03-02-2020 19:56:17 11.6 C 75 %
121 03-02-2020 20:06:18 11.6 C 75 %
122 03-02-2020 20:16:17 11.6 C 75 %
123 03-02-2020 20:26:17 11.6 C 75 %
124 03-02-2020 20:36:17 11.6 C 75 %
125 03-02-2020 20:46:17 11.6 C 75 %
Sensor: Nr:Datum:Temp:Feuchte:
G-T/H 126 03-02-2020 20:56:18 11.6 C 75 %
127 03-02-2020 21:06:18 11.6 C 75 %
128 03-02-2020 21:16:17 11.6 C 75 %
129 03-02-2020 21:26:17 11.6 C 75 %
130 03-02-2020 21:36:17 11.6 C 75 %
131 03-02-2020 21:46:17 11.6 C 75 %
132 03-02-2020 21:56:17 11.6 C 75 %
133 03-02-2020 22:06:17 11.6 C 75 %
134 03-02-2020 22:16:18 11.6 C 75 %
135 03-02-2020 22:26:18 11.6 C 75 %
136 03-02-2020 22:36:17 11.6 C 75 %
137 03-02-2020 22:46:18 11.6 C 75 %
138 03-02-2020 22:56:18 11.5 C 75 %
139 03-02-2020 23:06:18 11.6 C 75 %
140 03-02-2020 23:16:17 11.5 C 75 %
141 03-02-2020 23:26:17 11.5 C 75 %
142 03-02-2020 23:36:17 11.5 C 75 %
143 03-02-2020 23:46:17 11.5 C 75 %
144 03-02-2020 23:56:17 11.5 C 75 %
145 04-02-2020 00:06:17 11.5 C 75 %
146 04-02-2020 00:16:18 11.5 C 75 %
147 04-02-2020 00:26:18 11.5 C 75 %
148 04-02-2020 00:36:18 11.5 C 75 %
149 04-02-2020 00:46:18 11.5 C 75 %
150 04-02-2020 00:56:18 11.5 C 75 %
Sensor: Nr:Datum:Temp:Feuchte:
G-T/H 151 04-02-2020 01:06:17 11.5 C 75 %
152 04-02-2020 01:16:17 11.5 C 75 %
153 04-02-2020 01:26:17 11.5 C 75 %
154 04-02-2020 01:36:17 11.5 C 75 %
155 04-02-2020 01:46:17 11.4 C 74 %
156 04-02-2020 01:56:17 11.4 C 74 %
157 04-02-2020 02:06:18 11.4 C 74 %
158 04-02-2020 02:16:17 11.4 C 74 %
159 04-02-2020 02:26:17 11.4 C 74 %
160 04-02-2020 02:36:17 11.4 C 74 %
161 04-02-2020 02:46:17 11.4 C 74 %
162 04-02-2020 02:56:17 11.4 C 74 %
163 04-02-2020 03:06:18 11.4 C 74 %
164 04-02-2020 03:16:17 11.4 C 74 %
165 04-02-2020 03:26:17 11.3 C 74 %
166 04-02-2020 03:36:17 11.3 C 73 %
167 04-02-2020 03:46:17 11.3 C 73 %
168 04-02-2020 03:56:17 11.3 C 73 %
169 04-02-2020 04:06:17 11.3 C 73 %
170 04-02-2020 04:16:17 11.2 C 73 %
171 04-02-2020 04:26:17 11.2 C 73 %
172 04-02-2020 04:36:18 11.2 C 73 %
173 04-02-2020 04:46:18 11.1 C 72 %
174 04-02-2020 04:56:18 11.1 C 72 %
175 04-02-2020 05:06:17 11.1 C 72 %
Sensor: Nr:Datum:Temp:Feuchte:
G-T/H 176 04-02-2020 05:16:18 11.1 C 72 %
177 04-02-2020 05:26:18 11.1 C 71 %
178 04-02-2020 05:36:18 11 C 71 %
179 04-02-2020 05:46:17 11 C 71 %
180 04-02-2020 05:56:17 11 C 71 %
181 04-02-2020 06:06:17 11 C 71 %
182 04-02-2020 06:16:17 10.9 C 71 %
183 04-02-2020 06:26:17 10.9 C 71 %
184 04-02-2020 06:36:17 10.9 C 71 %
185 04-02-2020 06:46:17 10.9 C 71 %
186 04-02-2020 06:56:17 10.9 C 71 %
187 04-02-2020 07:06:18 10.8 C 71 %
188 04-02-2020 07:16:17 10.8 C 70 %
189 04-02-2020 07:26:17 10.8 C 70 %
190 04-02-2020 07:36:17 10.8 C 70 %
191 04-02-2020 07:46:17 10.7 C 70 %
192 04-02-2020 07:56:17 10.7 C 70 %
193 04-02-2020 08:06:17 10.7 C 69 %
194 04-02-2020 08:16:17 10.6 C 69 %
195 04-02-2020 08:26:17 10.6 C 69 %
196 04-02-2020 08:36:18 10.5 C 69 %
197 04-02-2020 08:46:18 10.5 C 69 %
198 04-02-2020 08:56:18 10.5 C 69 %
199 04-02-2020 09:06:18 10.5 C 68 %
200 04-02-2020 09:16:17 10.5 C 68 %
Sensor: Nr:Datum:Temp:Feuchte:
G-T/H 201 04-02-2020 09:26:17 10.5 C 68 %
202 04-02-2020 09:36:17 10.4 C 68 %
203 04-02-2020 09:46:17 10.4 C 68 %
204 04-02-2020 09:56:17 10.5 C 69 %
205 04-02-2020 10:06:18 10.5 C 69 %
206 04-02-2020 10:16:17 10.5 C 69 %
207 04-02-2020 10:26:17 10.5 C 69 %
208 04-02-2020 10:36:17 10.4 C 69 %
209 04-02-2020 10:46:17 10.4 C 70 %
210 04-02-2020 10:56:17 10.4 C 70 %
211 04-02-2020 11:06:17 10.4 C 70 %
212 04-02-2020 11:16:18 10.4 C 70 %
213 04-02-2020 11:26:18 10.5 C 70 %
214 04-02-2020 11:36:18 10.5 C 71 %
215 04-02-2020 11:46:18 10.4 C 71 %
216 04-02-2020 11:56:18 10.5 C 71 %
217 04-02-2020 12:06:17 10.4 C 71 %
218 04-02-2020 12:16:17 10.4 C 71 %
219 04-02-2020 12:26:17 10.4 C 71 %
220 04-02-2020 12:36:18 10.4 C 71 %
221 04-02-2020 12:46:17 10.4 C 71 %
222 04-02-2020 12:56:18 10.3 C 71 %
223 04-02-2020 13:06:18 10.3 C 71 %
224 04-02-2020 13:16:17 10.3 C 71 %
225 04-02-2020 13:26:17 10.3 C 71 %
Sensor: Nr:Datum:Temp:Feuchte:
G-T/H 226 04-02-2020 13:36:17 10.3 C 71 %
227 04-02-2020 13:46:17 10.3 C 71 %
228 04-02-2020 13:56:17 10.2 C 70 %
229 04-02-2020 14:06:18 10.2 C 70 %
230 04-02-2020 14:16:17 10.2 C 70 %
231 04-02-2020 14:26:17 10.2 C 70 %
232 04-02-2020 14:36:17 10.2 C 70 %
233 04-02-2020 14:46:18 10.2 C 69 %
234 04-02-2020 14:56:18 10.1 C 69 %
235 04-02-2020 15:06:17 10.1 C 69 %
236 04-02-2020 15:16:17 10.1 C 69 %
237 04-02-2020 15:26:17 10.2 C 69 %
238 04-02-2020 15:36:18 10.2 C 69 %
239 04-02-2020 15:46:18 10.2 C 70 %
240 04-02-2020 15:56:18 10.2 C 70 %
241 04-02-2020 16:06:17 10.2 C 70 %
242 04-02-2020 16:16:17 10.2 C 70 %
243 04-02-2020 16:26:17 10.2 C 70 %
244 04-02-2020 16:36:17 10.2 C 70 %
245 04-02-2020 16:46:17 10.2 C 70 %
246 04-02-2020 16:56:18 10.2 C 71 %
247 04-02-2020 17:06:17 10.2 C 71 %
248 04-02-2020 17:16:17 10.1 C 71 %
249 04-02-2020 17:26:17 10.2 C 71 %
250 04-02-2020 17:36:17 10.2 C 71 %
Sensor: Nr:Datum:Temp:Feuchte:
G-T/H 251 04-02-2020 17:46:17 10.1 C 71 %
252 04-02-2020 17:56:17 10.1 C 71 %
253 04-02-2020 18:06:18 10.1 C 71 %
254 04-02-2020 18:16:17 10.1 C 71 %
255 04-02-2020 18:26:17 10.1 C 71 %
256 04-02-2020 18:36:17 10.1 C 71 %
257 04-02-2020 18:46:17 10.1 C 71 %
258 04-02-2020 18:56:17 10.1 C 71 %
259 04-02-2020 19:06:18 10.1 C 71 %
260 04-02-2020 19:16:18 10.1 C 71 %
261 04-02-2020 19:26:18 10.1 C 71 %
262 04-02-2020 19:36:17 10.1 C 71 %
263 04-02-2020 19:46:18 10.1 C 71 %
264 04-02-2020 19:56:18 10.1 C 71 %
265 04-02-2020 20:06:17 10.1 C 71 %
266 04-02-2020 20:16:17 10.1 C 71 %
267 04-02-2020 20:26:17 10.1 C 71 %
268 04-02-2020 20:36:17 10 C 71 %
269 04-02-2020 20:46:17 10 C 71 %
270 04-02-2020 20:56:17 10 C 72 %
271 04-02-2020 21:06:18 10 C 72 %
272 04-02-2020 21:16:18 10 C 72 %
273 04-02-2020 21:26:18 10 C 72 %
274 04-02-2020 21:36:17 10 C 72 %
275 04-02-2020 21:46:17 10 C 72 %
Sensor: Nr:Datum:Temp:Feuchte:
G-T/H 276 04-02-2020 21:56:17 10 C 72 %
277 04-02-2020 22:06:17 10 C 72 %
278 04-02-2020 22:16:17 10 C 72 %
279 04-02-2020 22:26:17 10 C 72 %
280 04-02-2020 22:36:18 10 C 72 %
281 04-02-2020 22:46:18 10 C 72 %
282 04-02-2020 22:56:18 10 C 72 %
283 04-02-2020 23:06:17 10 C 72 %
284 04-02-2020 23:16:17 10 C 72 %
285 04-02-2020 23:26:17 10 C 72 %
286 04-02-2020 23:36:18 10 C 72 %
287 04-02-2020 23:46:17 9.9 C 73 %
288 04-02-2020 23:56:17 9.9 C 73 %
289 05-02-2020 00:06:17 9.9 C 73 %
290 05-02-2020 00:16:17 9.9 C 73 %
291 05-02-2020 00:26:17 9.9 C 73 %
292 05-02-2020 00:36:18 9.9 C 73 %
293 05-02-2020 00:46:17 9.9 C 73 %
294 05-02-2020 00:56:18 9.9 C 73 %
295 05-02-2020 01:06:18 9.9 C 73 %
296 05-02-2020 01:16:18 9.9 C 73 %
297 05-02-2020 01:26:18 9.9 C 73 %
298 05-02-2020 01:36:17 9.9 C 73 %
299 05-02-2020 01:46:18 9.8 C 73 %
300 05-02-2020 01:56:18 9.8 C 73 %
Sensor: Nr:Datum:Temp:Feuchte:
G-T/H 301 05-02-2020 02:06:17 9.8 C 73 %
302 05-02-2020 02:16:17 9.8 C 73 %
303 05-02-2020 02:26:17 9.8 C 73 %
304 05-02-2020 02:36:17 9.8 C 73 %
305 05-02-2020 02:46:17 9.8 C 73 %
306 05-02-2020 02:56:17 9.8 C 73 %
307 05-02-2020 03:06:18 9.8 C 73 %
308 05-02-2020 03:16:17 9.8 C 73 %
309 05-02-2020 03:26:17 9.8 C 73 %
310 05-02-2020 03:36:18 9.8 C 73 %
311 05-02-2020 03:46:17 9.8 C 73 %
312 05-02-2020 03:56:18 9.8 C 73 %
313 05-02-2020 04:06:18 9.8 C 73 %
314 05-02-2020 04:16:18 9.8 C 73 %
315 05-02-2020 04:26:18 9.8 C 73 %
316 05-02-2020 04:36:17 9.8 C 73 %
317 05-02-2020 04:46:17 9.7 C 73 %
318 05-02-2020 04:56:17 9.7 C 73 %
319 05-02-2020 05:06:18 9.7 C 73 %
320 05-02-2020 05:16:18 9.7 C 73 %
321 05-02-2020 05:26:18 9.7 C 73 %
322 05-02-2020 05:36:18 9.7 C 73 %
323 05-02-2020 05:46:18 9.7 C 73 %
324 05-02-2020 05:56:18 9.7 C 73 %
325 05-02-2020 06:06:17 9.7 C 73 %
Sensor: Nr:Datum:Temp:Feuchte:
G-T/H 326 05-02-2020 06:16:17 9.7 C 73 %
327 05-02-2020 06:26:17 9.7 C 73 %
328 05-02-2020 06:36:18 9.7 C 73 %
329 05-02-2020 06:46:17 9.7 C 73 %
330 05-02-2020 06:56:18 9.6 C 73 %
331 05-02-2020 07:06:18 9.6 C 73 %
332 05-02-2020 07:16:17 9.6 C 73 %
333 05-02-2020 07:26:17 9.6 C 73 %
334 05-02-2020 07:36:17 9.6 C 72 %
335 05-02-2020 07:46:17 9.6 C 72 %
336 05-02-2020 07:56:17 9.6 C 72 %
337 05-02-2020 08:06:18 9.6 C 72 %
338 05-02-2020 08:16:17 9.6 C 72 %
339 05-02-2020 08:26:17 9.6 C 72 %
340 05-02-2020 08:36:17 9.5 C 72 %
341 05-02-2020 08:46:17 9.5 C 72 %
342 05-02-2020 08:56:17 9.5 C 72 %
343 05-02-2020 09:06:17 9.5 C 72 %
344 05-02-2020 09:16:17 9.5 C 72 %
345 05-02-2020 09:26:17 9.5 C 72 %
346 05-02-2020 09:36:18 9.5 C 72 %
347 05-02-2020 09:46:18 9.5 C 72 %
348 05-02-2020 09:56:18 9.5 C 72 %
349 05-02-2020 10:06:17 9.5 C 72 %
350 05-02-2020 10:16:17 9.5 C 72 %
Sensor: Nr:Datum:Temp:Feuchte:
G-T/H 351 05-02-2020 10:26:17 9.5 C 72 %
352 05-02-2020 10:36:17 9.5 C 72 %
353 05-02-2020 10:46:17 9.5 C 72 %
354 05-02-2020 10:56:17 9.5 C 72 %
355 05-02-2020 11:06:17 9.5 C 72 %
356 05-02-2020 11:16:17 9.4 C 72 %
357 05-02-2020 11:26:17 9.4 C 72 %
358 05-02-2020 11:36:17 9.4 C 72 %
359 05-02-2020 11:46:17 9.4 C 72 %
360 05-02-2020 11:56:17 9.4 C 72 %
361 05-02-2020 12:06:17 9.4 C 72 %
362 05-02-2020 12:16:17 9.4 C 72 %
363 05-02-2020 12:26:17 9.4 C 72 %
364 05-02-2020 12:36:18 9.4 C 72 %
365 05-02-2020 12:46:17 9.4 C 72 %
366 05-02-2020 12:56:17 9.4 C 72 %
367 05-02-2020 13:06:17 9.4 C 72 %
368 05-02-2020 13:16:17 9.3 C 72 %
369 05-02-2020 13:26:17 9.4 C 72 %
370 05-02-2020 13:36:18 9.4 C 72 %
371 05-02-2020 13:46:18 9.3 C 72 %
372 05-02-2020 13:56:18 9.3 C 72 %
373 05-02-2020 14:06:17 9.3 C 72 %
374 05-02-2020 14:16:18 9.3 C 72 %
375 05-02-2020 14:26:18 9.3 C 72 %
Sensor: Nr:Datum:Temp:Feuchte:
G-T/H 376 05-02-2020 14:36:17 9.3 C 72 %
377 05-02-2020 14:46:17 9.3 C 72 %
378 05-02-2020 14:56:17 9.3 C 72 %
379 05-02-2020 15:06:17 9.3 C 72 %
380 05-02-2020 15:16:17 9.3 C 72 %
381 05-02-2020 15:26:17 9.3 C 72 %
382 05-02-2020 15:36:17 9.3 C 73 %
383 05-02-2020 15:46:17 9.3 C 73 %
384 05-02-2020 15:56:17 9.3 C 73 %
385 05-02-2020 16:06:17 9.4 C 73 %
386 05-02-2020 16:16:17 9.3 C 73 %
387 05-02-2020 16:26:17 9.3 C 73 %
388 05-02-2020 16:36:18 9.3 C 73 %
389 05-02-2020 16:46:18 9.3 C 73 %
390 05-02-2020 16:56:18 9.3 C 72 %
391 05-02-2020 17:06:17 9.3 C 72 %
392 05-02-2020 17:16:17 9.3 C 72 %
393 05-02-2020 17:26:17 9.3 C 72 %
394 05-02-2020 17:36:18 9.3 C 72 %
395 05-02-2020 17:46:18 9.3 C 72 %
396 05-02-2020 17:56:18 9.3 C 72 %
397 05-02-2020 18:06:17 9.3 C 72 %
398 05-02-2020 18:16:17 9.2 C 72 %
399 05-02-2020 18:26:17 9.2 C 72 %
400 05-02-2020 18:36:17 9.2 C 72 %
Sensor: Nr:Datum:Temp:Feuchte:
G-T/H 401 05-02-2020 18:46:17 9 C 70 %
402 05-02-2020 18:56:17 9.1 C 70 %
403 05-02-2020 19:06:18 9.2 C 70 %
404 05-02-2020 19:16:18 9.2 C 70 %
405 05-02-2020 19:26:18 9.2 C 70 %
406 05-02-2020 19:36:18 9.3 C 70 %
407 05-02-2020 19:46:17 9.3 C 70 %
408 05-02-2020 19:56:18 9.3 C 70 %
409 05-02-2020 20:06:18 9.3 C 70 %
410 05-02-2020 20:16:17 9.3 C 70 %
411 05-02-2020 20:26:17 9.3 C 70 %
412 05-02-2020 20:36:17 9.3 C 70 %
413 05-02-2020 20:46:17 9.3 C 70 %
414 05-02-2020 20:56:17 9.3 C 70 %
415 05-02-2020 21:06:17 9.3 C 70 %
416 05-02-2020 21:16:17 9.3 C 70 %
417 05-02-2020 21:26:17 9.3 C 70 %
418 05-02-2020 21:36:18 9.3 C 70 %
419 05-02-2020 21:46:18 9.2 C 70 %
420 05-02-2020 21:56:18 9.3 C 70 %
421 05-02-2020 22:06:18 9.2 C 70 %
422 05-02-2020 22:16:17 9.2 C 70 %
423 05-02-2020 22:26:17 9.2 C 70 %
424 05-02-2020 22:36:17 9.2 C 70 %
425 05-02-2020 22:46:17 9.2 C 70 %
Sensor: Nr:Datum:Temp:Feuchte:
G-T/H 426 05-02-2020 22:56:17 9.1 C 70 %
427 05-02-2020 23:06:17 9.1 C 70 %
428 05-02-2020 23:16:17 9.1 C 70 %
429 05-02-2020 23:26:17 9.1 C 70 %
430 05-02-2020 23:36:17 9.1 C 70 %
431 05-02-2020 23:46:17 9.1 C 70 %
432 05-02-2020 23:56:17 9 C 70 %
433 06-02-2020 00:06:17 9 C 70 %
434 06-02-2020 00:16:17 9 C 70 %
435 06-02-2020 00:26:17 9 C 70 %
436 06-02-2020 00:36:17 9 C 70 %
437 06-02-2020 00:46:17 9 C 70 %
438 06-02-2020 00:56:17 9 C 70 %
439 06-02-2020 01:06:17 9 C 70 %
440 06-02-2020 01:16:17 9 C 70 %
441 06-02-2020 01:26:17 8.9 C 70 %
442 06-02-2020 01:36:18 8.9 C 70 %
443 06-02-2020 01:46:18 8.9 C 70 %
444 06-02-2020 01:56:18 8.9 C 70 %
445 06-02-2020 02:06:18 8.9 C 70 %
446 06-02-2020 02:16:17 8.8 C 70 %
447 06-02-2020 02:26:17 8.8 C 70 %
448 06-02-2020 02:36:17 8.8 C 70 %
449 06-02-2020 02:46:17 8.8 C 70 %
450 06-02-2020 02:56:17 8.7 C 70 %
Sensor: Nr:Datum:Temp:Feuchte:
G-T/H 451 06-02-2020 03:06:17 8.7 C 70 %
452 06-02-2020 03:16:18 8.7 C 70 %
453 06-02-2020 03:26:18 8.7 C 70 %
454 06-02-2020 03:36:17 8.6 C 70 %
455 06-02-2020 03:46:17 8.7 C 70 %
456 06-02-2020 03:56:17 8.6 C 70 %
457 06-02-2020 04:06:17 8.6 C 70 %
458 06-02-2020 04:16:17 8.6 C 70 %
459 06-02-2020 04:26:17 8.6 C 70 %
460 06-02-2020 04:36:18 8.6 C 70 %
461 06-02-2020 04:46:18 8.5 C 70 %
462 06-02-2020 04:56:18 8.5 C 70 %
463 06-02-2020 05:06:17 8.5 C 70 %
464 06-02-2020 05:16:18 8.5 C 70 %
465 06-02-2020 05:26:18 8.5 C 70 %
466 06-02-2020 05:36:18 8.5 C 70 %
467 06-02-2020 05:46:18 8.4 C 70 %
468 06-02-2020 05:56:18 8.4 C 70 %
469 06-02-2020 06:06:18 8.4 C 70 %
470 06-02-2020 06:16:18 8.4 C 70 %
471 06-02-2020 06:26:18 8.3 C 70 %
472 06-02-2020 06:36:17 8.3 C 70 %
473 06-02-2020 06:46:17 8.3 C 70 %
474 06-02-2020 06:56:17 7.9 C 69 %
475 06-02-2020 07:06:17 8 C 68 %
Sensor: Nr:Datum:Temp:Feuchte:
G-T/H 476 06-02-2020 07:16:17 8.1 C 68 %
477 06-02-2020 07:26:17 8.1 C 69 %
478 06-02-2020 07:36:17 8.1 C 69 %
479 06-02-2020 07:46:17 8.1 C 69 %
480 06-02-2020 07:56:17 8.1 C 69 %
481 06-02-2020 08:06:17 8.1 C 69 %
482 06-02-2020 08:16:17 8.1 C 69 %
483 06-02-2020 08:26:17 8.1 C 69 %
484 06-02-2020 08:36:18 8.1 C 69 %
485 06-02-2020 08:46:17 8.1 C 69 %
486 06-02-2020 08:56:18 8.1 C 69 %
487 06-02-2020 09:06:17 8.1 C 69 %
488 06-02-2020 09:16:17 8 C 70 %
489 06-02-2020 09:26:17 8 C 70 %
490 06-02-2020 09:36:17 8 C 70 %
491 06-02-2020 09:46:17 8 C 70 %
492 06-02-2020 09:56:17 8 C 70 %
493 06-02-2020 10:06:17 8 C 70 %
494 06-02-2020 10:16:18 8 C 70 %
495 06-02-2020 10:26:18 8 C 70 %
496 06-02-2020 10:36:18 8 C 70 %
497 06-02-2020 10:46:18 8 C 70 %
498 06-02-2020 10:56:18 8 C 70 %
499 06-02-2020 11:06:17 8 C 70 %
500 06-02-2020 11:16:17 7.9 C 71 %
Sensor: Nr:Datum:Temp:Feuchte:
G-T/H 501 06-02-2020 11:26:17 7.9 C 71 %
502 06-02-2020 11:36:17 8 C 70 %
503 06-02-2020 11:46:17 7.9 C 71 %
504 06-02-2020 11:56:18 8 C 70 %